Darstellungsparameter: Aktuell verwendete Einstellungen:
Skalierung der Graphiken ... ?
xyx+y,   Skalierungsfaktor:      Skalierung: Modus: x, Faktor: 1
Darstellungszeitraum ... ?
Vom - - bis: - -   Zeitraum: 24.11.2013 - 30.11.2013
Min/Max/Avg-Anzeige ... ?
Zeige MMA aktuell
Zeige MMA Monat
Zeige MMA alles
Zeige --A aktuell
Zeige --A Monat
Zeige --A alles
Keine MMA-Anzeige
MMA:
Keine MMA-Graphiken
MMA-Basis: 24.11.2013 - 30.11.2013
Quicknavigation für Darstellung... ?
Tage:      1T, 2T, 3T, 5T -1T -2T -3T -5T +1T +2T +3T +5T
Wochen: 1W, 2W, 3W -1W -2W -3W +1W +2W +3W
Monate: 1M, 3M, 6M -1M -3M -6M +1M +3M +6M
Jahre:    1J, 3J, 5J, 10J -1J -3J -5J -10J +1J +3J +5J +10J
Nutze für die Darstellung ... ?
Originaldaten oder Mittelwerte auf ...
Stundenbasis Tagesbasis Wochenbasis
Monatsbasis Jahresbasis      Datenbasis: Original-Daten
Darstellen als:
Statistik (Auto) Statistik J:M      Darstellung:
Zur Graphik,    zurück zur Übersicht aller Sensoren.
 
Tabellarische Datenbersicht: ?
 
Sensor: Nr:Datum:Temp:Abs-Feuchte:Windchill:Wind:
Aussen-T/F 1 24-11-2013 00:00:00 6.8 C 6.88 g/m*3 6.8 C 1.6 km/h
2 24-11-2013 00:05:00 6.8 C 6.88 g/m*3 6.8 C 3.2 km/h
3 24-11-2013 00:10:00 6.8 C 6.88 g/m*3 6.8 C 4.8 km/h
4 24-11-2013 00:15:00 6.8 C 6.88 g/m*3 6.8 C 3.2 km/h
5 24-11-2013 00:20:00 6.8 C 6.88 g/m*3 6.8 C 4.8 km/h
6 24-11-2013 00:25:00 6.8 C 6.88 g/m*3 5.67 C 6.4 km/h
7 24-11-2013 00:30:00 6.8 C 6.88 g/m*3 6.8 C 3.2 km/h
8 24-11-2013 00:35:00 6.8 C 6.88 g/m*3 5.67 C 6.4 km/h
9 24-11-2013 00:40:00 6.8 C 6.88 g/m*3 6.8 C 4.8 km/h
10 24-11-2013 00:45:00 6.8 C 6.88 g/m*3 6.8 C 3.2 km/h
11 24-11-2013 00:50:00 6.8 C 6.88 g/m*3 5.67 C 6.4 km/h
12 24-11-2013 00:55:00 6.8 C 6.88 g/m*3 6.8 C 4.8 km/h
13 24-11-2013 01:00:00 6.8 C 6.88 g/m*3 6.8 C 0 km/h
14 24-11-2013 01:05:00 6.8 C 6.88 g/m*3 6.8 C 1.6 km/h
15 24-11-2013 01:10:00 6.8 C 6.88 g/m*3 6.8 C 1.6 km/h
16 24-11-2013 01:15:00 6.8 C 6.88 g/m*3 6.8 C 4.8 km/h
17 24-11-2013 01:20:00 6.8 C 6.88 g/m*3 6.8 C 3.2 km/h
18 24-11-2013 01:25:00 6.8 C 6.88 g/m*3 6.8 C 1.6 km/h
19 24-11-2013 01:30:00 6.8 C 6.81 g/m*3 6.8 C 1.6 km/h
20 24-11-2013 01:35:00 6.8 C 6.88 g/m*3 6.8 C 4.8 km/h
21 24-11-2013 01:40:00 6.8 C 6.88 g/m*3 5.22 C 8.1 km/h
22 24-11-2013 01:45:00 6.8 C 6.88 g/m*3 5.22 C 8.1 km/h
23 24-11-2013 01:50:00 6.8 C 6.81 g/m*3 6.8 C 1.6 km/h
24 24-11-2013 01:55:00 6.8 C 6.81 g/m*3 5.67 C 6.4 km/h
25 24-11-2013 02:00:00 6.8 C 6.81 g/m*3 6.8 C 4.8 km/h
Sensor: Nr:Datum:Temp:Abs-Feuchte:Windchill:Wind:
Aussen-T/F 26 24-11-2013 02:05:00 6.7 C 6.76 g/m*3 5.56 C 6.4 km/h
27 24-11-2013 02:10:00 6.7 C 6.76 g/m*3 5.56 C 6.4 km/h
28 24-11-2013 02:15:00 6.7 C 6.76 g/m*3 4.75 C 9.7 km/h
29 24-11-2013 02:20:00 6.7 C 6.76 g/m*3 4.75 C 9.7 km/h
30 24-11-2013 02:25:00 6.8 C 6.81 g/m*3 6.8 C 4.8 km/h
31 24-11-2013 02:30:00 6.7 C 6.76 g/m*3 6.7 C 4.8 km/h
32 24-11-2013 02:35:00 6.7 C 6.76 g/m*3 6.7 C 4.8 km/h
33 24-11-2013 02:40:00 6.7 C 6.76 g/m*3 6.7 C 1.6 km/h
34 24-11-2013 02:45:00 6.7 C 6.76 g/m*3 6.7 C 4.8 km/h
35 24-11-2013 02:50:00 6.7 C 6.69 g/m*3 6.7 C 1.6 km/h
36 24-11-2013 02:55:00 6.7 C 6.69 g/m*3 6.7 C 4.8 km/h
37 24-11-2013 03:00:00 6.7 C 6.69 g/m*3 6.7 C 4.8 km/h
38 24-11-2013 03:05:00 6.7 C 6.69 g/m*3 5.11 C 8.1 km/h
39 24-11-2013 03:10:00 6.7 C 6.61 g/m*3 5.56 C 6.4 km/h
40 24-11-2013 03:15:00 6.7 C 6.61 g/m*3 6.7 C 3.2 km/h
41 24-11-2013 03:20:00 6.6 C 6.57 g/m*3 6.6 C 4.8 km/h
42 24-11-2013 03:25:00 6.6 C 6.64 g/m*3 5.44 C 6.4 km/h
43 24-11-2013 03:30:00 6.6 C 6.57 g/m*3 6.6 C 3.2 km/h
44 24-11-2013 03:35:00 6.6 C 6.57 g/m*3 6.6 C 4.8 km/h
45 24-11-2013 03:40:00 6.5 C 6.6 g/m*3 4.87 C 8.1 km/h
46 24-11-2013 03:45:00 6.5 C 6.6 g/m*3 4.87 C 8.1 km/h
47 24-11-2013 03:50:00 6.4 C 6.56 g/m*3 5.21 C 6.4 km/h
48 24-11-2013 03:55:00 6.4 C 6.48 g/m*3 4.75 C 8.1 km/h
49 24-11-2013 04:00:00 6.4 C 6.48 g/m*3 5.21 C 6.4 km/h
50 24-11-2013 04:05:00 6.4 C 6.48 g/m*3 4.75 C 8.1 km/h
Sensor: Nr:Datum:Temp:Abs-Feuchte:Windchill:Wind:
Aussen-T/F 51 24-11-2013 04:10:00 6.5 C 6.52 g/m*3 6.5 C 4.8 km/h
52 24-11-2013 04:15:00 6.5 C 6.52 g/m*3 6.5 C 4.8 km/h
53 24-11-2013 04:20:00 6.4 C 6.48 g/m*3 6.4 C 3.2 km/h
54 24-11-2013 04:25:00 6.4 C 6.48 g/m*3 6.4 C 4.8 km/h
55 24-11-2013 04:30:00 6.4 C 6.48 g/m*3 5.21 C 6.4 km/h
56 24-11-2013 04:35:00 6.3 C 6.51 g/m*3 5.1 C 6.4 km/h
57 24-11-2013 04:40:00 6.2 C 6.47 g/m*3 4.98 C 6.4 km/h
58 24-11-2013 04:45:00 6.2 C 6.47 g/m*3 4.52 C 8.1 km/h
59 24-11-2013 04:50:00 6.1 C 6.5 g/m*3 3.43 C 12.9 km/h
60 24-11-2013 04:55:00 6.1 C 6.5 g/m*3 3.43 C 12.9 km/h
61 24-11-2013 05:00:00 6 C 6.46 g/m*3 3.31 C 12.9 km/h
62 24-11-2013 05:05:00 5.9 C 6.42 g/m*3 3.48 C 11.3 km/h
63 24-11-2013 05:10:00 5.8 C 6.45 g/m*3 3.68 C 9.7 km/h
64 24-11-2013 05:15:00 5.8 C 6.45 g/m*3 3.68 C 9.7 km/h
65 24-11-2013 05:20:00 5.7 C 6.4 g/m*3 3.93 C 8.1 km/h
66 24-11-2013 05:25:00 5.7 C 6.4 g/m*3 3.93 C 8.1 km/h
67 24-11-2013 05:30:00 5.6 C 6.36 g/m*3 5.6 C 4.8 km/h
68 24-11-2013 05:35:00 5.6 C 6.36 g/m*3 5.6 C 3.2 km/h
69 24-11-2013 05:40:00 5.6 C 6.36 g/m*3 4.29 C 6.4 km/h
70 24-11-2013 05:45:00 5.6 C 6.43 g/m*3 3.81 C 8.1 km/h
71 24-11-2013 05:50:00 5.5 C 6.39 g/m*3 5.5 C 3.2 km/h
72 24-11-2013 05:55:00 5.4 C 6.35 g/m*3 4.06 C 6.4 km/h
73 24-11-2013 06:00:00 5.4 C 6.28 g/m*3 3.58 C 8.1 km/h
74 24-11-2013 06:05:00 5.4 C 6.35 g/m*3 3.2 C 9.7 km/h
75 24-11-2013 06:10:00 5.4 C 6.35 g/m*3 4.06 C 6.4 km/h
Sensor: Nr:Datum:Temp:Abs-Feuchte:Windchill:Wind:
Aussen-T/F 76 24-11-2013 06:15:00 5.3 C 6.31 g/m*3 5.3 C 4.8 km/h
77 24-11-2013 06:20:00 5.3 C 6.31 g/m*3 3.94 C 6.4 km/h
78 24-11-2013 06:25:00 5.3 C 6.31 g/m*3 3.94 C 6.4 km/h
79 24-11-2013 06:30:00 5.3 C 6.31 g/m*3 5.3 C 4.8 km/h
80 24-11-2013 06:35:00 5.3 C 6.31 g/m*3 3.46 C 8.1 km/h
81 24-11-2013 06:40:00 5.2 C 6.27 g/m*3 3.34 C 8.1 km/h
82 24-11-2013 06:45:00 5.2 C 6.27 g/m*3 3.82 C 6.4 km/h
83 24-11-2013 06:50:00 5.2 C 6.27 g/m*3 5.2 C 4.8 km/h
84 24-11-2013 06:55:00 5.2 C 6.27 g/m*3 3.34 C 8.1 km/h
85 24-11-2013 07:00:00 5.1 C 6.22 g/m*3 3.71 C 6.4 km/h
86 24-11-2013 07:05:00 5.1 C 6.16 g/m*3 3.23 C 8.1 km/h
87 24-11-2013 07:10:00 5.1 C 6.22 g/m*3 3.71 C 6.4 km/h
88 24-11-2013 07:15:00 5.1 C 6.22 g/m*3 3.71 C 6.4 km/h
89 24-11-2013 07:20:00 5.1 C 6.16 g/m*3 3.71 C 6.4 km/h
90 24-11-2013 07:25:00 5.1 C 6.16 g/m*3 3.71 C 6.4 km/h
91 24-11-2013 07:30:00 5.1 C 6.16 g/m*3 5.1 C 4.8 km/h
92 24-11-2013 07:35:00 5 C 6.12 g/m*3 5 C 4.8 km/h
93 24-11-2013 07:40:00 5 C 6.12 g/m*3 5 C 1.6 km/h
94 24-11-2013 07:45:00 5 C 6.12 g/m*3 5 C 0 km/h
95 24-11-2013 07:50:00 4.9 C 6.08 g/m*3 4.9 C 3.2 km/h
96 24-11-2013 07:55:00 4.9 C 6.08 g/m*3 4.9 C 3.2 km/h
97 24-11-2013 08:00:00 4.9 C 6.08 g/m*3 4.9 C 3.2 km/h
98 24-11-2013 08:05:00 4.8 C 6.04 g/m*3 4.8 C 4.8 km/h
99 24-11-2013 08:10:00 4.8 C 6.04 g/m*3 4.8 C 3.2 km/h
100 24-11-2013 08:15:00 4.7 C 6 g/m*3 4.7 C 4.8 km/h
Sensor: Nr:Datum:Temp:Abs-Feuchte:Windchill:Wind:
Aussen-T/F 101 24-11-2013 08:20:00 4.6 C 5.96 g/m*3 4.6 C 3.2 km/h
102 24-11-2013 08:25:00 4.6 C 5.96 g/m*3 4.6 C 1.6 km/h
103 24-11-2013 08:30:00 4.6 C 5.96 g/m*3 4.6 C 3.2 km/h
104 24-11-2013 08:35:00 4.6 C 5.96 g/m*3 4.6 C 1.6 km/h
105 24-11-2013 09:00:00 4.3 C 5.77 g/m*3 4.3 C 4.8 km/h
106 24-11-2013 09:05:00 4.4 C 5.81 g/m*3 4.4 C 1.6 km/h
107 24-11-2013 09:10:00 4.4 C 5.75 g/m*3 4.4 C 4.8 km/h
108 24-11-2013 09:15:00 4.4 C 5.75 g/m*3 4.4 C 3.2 km/h
109 24-11-2013 09:20:00 4.4 C 5.75 g/m*3 4.4 C 4.8 km/h
110 24-11-2013 09:25:00 4.4 C 5.75 g/m*3 4.4 C 0 km/h
111 24-11-2013 09:30:00 4.4 C 5.75 g/m*3 4.4 C 3.2 km/h
112 24-11-2013 09:35:00 4.2 C 5.73 g/m*3 4.2 C 1.6 km/h
113 24-11-2013 09:40:00 4.2 C 5.8 g/m*3 4.2 C 1.6 km/h
114 24-11-2013 09:45:00 4.4 C 5.88 g/m*3 4.4 C 3.2 km/h
115 24-11-2013 09:50:00 4.6 C 5.89 g/m*3 4.6 C 0 km/h
116 24-11-2013 09:55:00 4.7 C 5.93 g/m*3 4.7 C 3.2 km/h
117 24-11-2013 10:00:00 4.8 C 5.83 g/m*3 4.8 C 3.2 km/h
118 24-11-2013 10:05:00 5.1 C 5.95 g/m*3 5.1 C 3.2 km/h
119 24-11-2013 10:10:00 5.2 C 5.92 g/m*3 5.2 C 0 km/h
120 24-11-2013 10:15:00 5.2 C 5.92 g/m*3 5.2 C 3.2 km/h
121 24-11-2013 10:20:00 5.2 C 5.92 g/m*3 5.2 C 3.2 km/h
122 24-11-2013 10:25:00 5.4 C 6 g/m*3 5.4 C 1.6 km/h
123 24-11-2013 10:30:00 5.5 C 5.97 g/m*3 5.5 C 4.8 km/h
124 24-11-2013 10:35:00 5.5 C 5.97 g/m*3 5.5 C 4.8 km/h
125 24-11-2013 10:40:00 5.6 C 6.01 g/m*3 5.6 C 3.2 km/h
Sensor: Nr:Datum:Temp:Abs-Feuchte:Windchill:Wind:
Aussen-T/F 126 24-11-2013 10:45:00 5.6 C 5.94 g/m*3 5.6 C 3.2 km/h
127 24-11-2013 10:50:00 5.7 C 6.05 g/m*3 5.7 C 3.2 km/h
128 24-11-2013 10:55:00 5.7 C 5.98 g/m*3 5.7 C 1.6 km/h
129 24-11-2013 11:00:00 5.7 C 5.98 g/m*3 3.93 C 8.1 km/h
130 24-11-2013 11:05:00 5.6 C 6.01 g/m*3 4.29 C 6.4 km/h
131 24-11-2013 11:10:00 5.6 C 6.01 g/m*3 3.44 C 9.7 km/h
132 24-11-2013 11:15:00 5.5 C 5.97 g/m*3 4.17 C 6.4 km/h
133 24-11-2013 11:20:00 5.5 C 5.97 g/m*3 4.17 C 6.4 km/h
134 24-11-2013 11:25:00 5.5 C 6.04 g/m*3 4.17 C 6.4 km/h
135 24-11-2013 11:30:00 5.5 C 6.04 g/m*3 3.32 C 9.7 km/h
136 24-11-2013 11:35:00 5.6 C 6.08 g/m*3 3.44 C 9.7 km/h
137 24-11-2013 11:40:00 5.6 C 6.15 g/m*3 5.6 C 4.8 km/h
138 24-11-2013 11:45:00 5.6 C 6.22 g/m*3 2.83 C 12.9 km/h
139 24-11-2013 11:50:00 5.5 C 6.18 g/m*3 3.7 C 8.1 km/h
140 24-11-2013 11:55:00 5.4 C 6.21 g/m*3 3.58 C 8.1 km/h
141 24-11-2013 12:00:00 5.3 C 6.17 g/m*3 3.08 C 9.7 km/h
142 24-11-2013 12:05:00 5.2 C 6.2 g/m*3 2.96 C 9.7 km/h
143 24-11-2013 12:10:00 5 C 6.05 g/m*3 3.59 C 6.4 km/h
144 24-11-2013 12:15:00 4.9 C 6.01 g/m*3 2.99 C 8.1 km/h
145 24-11-2013 12:20:00 4.8 C 5.97 g/m*3 2.15 C 11.3 km/h
146 24-11-2013 12:25:00 4.8 C 6.04 g/m*3 2.49 C 9.7 km/h
147 24-11-2013 12:30:00 4.8 C 6.1 g/m*3 3.36 C 6.4 km/h
148 24-11-2013 12:35:00 4.8 C 6.1 g/m*3 4.8 C 3.2 km/h
149 24-11-2013 12:40:00 4.9 C 6.14 g/m*3 3.48 C 6.4 km/h
150 24-11-2013 12:45:00 4.9 C 6.14 g/m*3 2.61 C 9.7 km/h
Sensor: Nr:Datum:Temp:Abs-Feuchte:Windchill:Wind:
Aussen-T/F 151 24-11-2013 12:50:00 4.9 C 6.14 g/m*3 3.48 C 6.4 km/h
152 24-11-2013 12:55:00 5 C 6.18 g/m*3 3.11 C 8.1 km/h
153 24-11-2013 13:00:00 5.1 C 6.22 g/m*3 3.71 C 6.4 km/h
154 24-11-2013 13:05:00 5.1 C 6.22 g/m*3 2.84 C 9.7 km/h
155 24-11-2013 13:10:00 5.1 C 6.22 g/m*3 3.23 C 8.1 km/h
156 24-11-2013 13:15:00 5.1 C 6.22 g/m*3 3.71 C 6.4 km/h
157 24-11-2013 13:20:00 5.1 C 6.29 g/m*3 3.71 C 6.4 km/h
158 24-11-2013 13:25:00 5.2 C 6.27 g/m*3 5.2 C 3.2 km/h
159 24-11-2013 13:30:00 5.2 C 6.27 g/m*3 3.82 C 6.4 km/h
160 24-11-2013 13:35:00 5.2 C 6.27 g/m*3 5.2 C 4.8 km/h
161 24-11-2013 13:40:00 5.2 C 6.27 g/m*3 5.2 C 3.2 km/h
162 24-11-2013 13:45:00 5.3 C 6.31 g/m*3 3.94 C 6.4 km/h
163 24-11-2013 13:50:00 5.3 C 6.31 g/m*3 5.3 C 4.8 km/h
164 24-11-2013 13:55:00 5.3 C 6.31 g/m*3 5.3 C 3.2 km/h
165 24-11-2013 14:00:00 5.4 C 6.28 g/m*3 5.4 C 4.8 km/h
166 24-11-2013 14:05:00 5.4 C 6.28 g/m*3 4.06 C 6.4 km/h
167 24-11-2013 14:10:00 5.4 C 6.35 g/m*3 4.06 C 6.4 km/h
168 24-11-2013 14:15:00 5.4 C 6.35 g/m*3 4.06 C 6.4 km/h
169 24-11-2013 14:20:00 5.4 C 6.35 g/m*3 4.06 C 6.4 km/h
170 24-11-2013 14:25:00 5.4 C 6.35 g/m*3 4.06 C 6.4 km/h
171 24-11-2013 14:30:00 5.4 C 6.35 g/m*3 5.4 C 4.8 km/h
172 24-11-2013 14:35:00 5.4 C 6.35 g/m*3 4.06 C 6.4 km/h
173 24-11-2013 14:40:00 5.4 C 6.35 g/m*3 5.4 C 3.2 km/h
174 24-11-2013 14:45:00 5.4 C 6.42 g/m*3 5.4 C 4.8 km/h
175 24-11-2013 14:50:00 5.4 C 6.42 g/m*3 5.4 C 3.2 km/h
Sensor: Nr:Datum:Temp:Abs-Feuchte:Windchill:Wind:
Aussen-T/F 176 24-11-2013 14:55:00 5.4 C 6.42 g/m*3 5.4 C 4.8 km/h
177 24-11-2013 15:00:00 5.4 C 6.42 g/m*3 5.4 C 1.6 km/h
178 24-11-2013 15:05:00 5.5 C 6.46 g/m*3 3.32 C 9.7 km/h
179 24-11-2013 15:10:00 5.5 C 6.46 g/m*3 3.7 C 8.1 km/h
180 24-11-2013 15:15:00 5.5 C 6.46 g/m*3 3.7 C 8.1 km/h
181 24-11-2013 15:20:00 5.5 C 6.46 g/m*3 5.5 C 3.2 km/h
182 24-11-2013 15:25:00 5.6 C 6.5 g/m*3 4.29 C 6.4 km/h
183 24-11-2013 15:30:00 5.6 C 6.5 g/m*3 3.11 C 11.3 km/h
184 24-11-2013 15:35:00 5.6 C 6.5 g/m*3 5.6 C 4.8 km/h
185 24-11-2013 15:40:00 5.6 C 6.5 g/m*3 5.6 C 4.8 km/h
186 24-11-2013 15:45:00 5.6 C 6.5 g/m*3 4.29 C 6.4 km/h
187 24-11-2013 15:50:00 5.7 C 6.55 g/m*3 5.7 C 4.8 km/h
188 24-11-2013 15:55:00 5.7 C 6.55 g/m*3 4.4 C 6.4 km/h
189 24-11-2013 16:00:00 5.7 C 6.62 g/m*3 5.7 C 3.2 km/h
190 24-11-2013 16:05:00 5.7 C 6.55 g/m*3 5.7 C 4.8 km/h
191 24-11-2013 16:10:00 5.7 C 6.55 g/m*3 5.7 C 4.8 km/h
192 24-11-2013 16:15:00 5.8 C 6.59 g/m*3 5.8 C 4.8 km/h
193 24-11-2013 16:20:00 5.8 C 6.59 g/m*3 4.52 C 6.4 km/h
194 24-11-2013 16:25:00 5.8 C 6.59 g/m*3 5.8 C 4.8 km/h
195 24-11-2013 16:30:00 5.8 C 6.59 g/m*3 5.8 C 3.2 km/h
196 24-11-2013 16:35:00 5.8 C 6.59 g/m*3 4.05 C 8.1 km/h
197 24-11-2013 16:40:00 5.8 C 6.59 g/m*3 5.8 C 4.8 km/h
198 24-11-2013 16:45:00 5.9 C 6.63 g/m*3 5.9 C 1.6 km/h
199 24-11-2013 16:50:00 5.9 C 6.63 g/m*3 5.9 C 3.2 km/h
200 24-11-2013 16:55:00 5.9 C 6.63 g/m*3 5.9 C 3.2 km/h
Sensor: Nr:Datum:Temp:Abs-Feuchte:Windchill:Wind:
Aussen-T/F 201 24-11-2013 17:00:00 5.9 C 6.56 g/m*3 5.9 C 3.2 km/h
202 24-11-2013 17:05:00 6 C 6.6 g/m*3 4.75 C 6.4 km/h
203 24-11-2013 17:10:00 6.1 C 6.65 g/m*3 4.4 C 8.1 km/h
204 24-11-2013 17:15:00 6.1 C 6.58 g/m*3 6.1 C 3.2 km/h
205 24-11-2013 17:20:00 6.1 C 6.58 g/m*3 4.86 C 6.4 km/h
206 24-11-2013 17:25:00 6.2 C 6.62 g/m*3 6.2 C 3.2 km/h
207 24-11-2013 17:30:00 6.2 C 6.55 g/m*3 4.15 C 9.7 km/h
208 24-11-2013 17:35:00 6.2 C 6.55 g/m*3 4.52 C 8.1 km/h
209 24-11-2013 17:40:00 6.2 C 6.55 g/m*3 4.15 C 9.7 km/h
210 24-11-2013 17:45:00 6.1 C 6.28 g/m*3 4.4 C 8.1 km/h
211 24-11-2013 17:50:00 6.1 C 6.28 g/m*3 4.86 C 6.4 km/h
212 24-11-2013 17:55:00 6.1 C 6.21 g/m*3 4.04 C 9.7 km/h
213 24-11-2013 18:00:00 6.1 C 6.21 g/m*3 4.4 C 8.1 km/h
214 24-11-2013 18:05:00 6.1 C 6.21 g/m*3 4.4 C 8.1 km/h
215 24-11-2013 18:10:00 6.1 C 6.06 g/m*3 2.73 C 17.7 km/h
216 24-11-2013 18:15:00 6.1 C 6.06 g/m*3 3.43 C 12.9 km/h
217 24-11-2013 18:20:00 6.1 C 5.99 g/m*3 3.43 C 12.9 km/h
218 24-11-2013 18:25:00 6.2 C 5.96 g/m*3 4.15 C 9.7 km/h
219 24-11-2013 18:30:00 6.2 C 5.88 g/m*3 4.52 C 8.1 km/h
220 24-11-2013 18:35:00 6.1 C 5.84 g/m*3 4.04 C 9.7 km/h
221 24-11-2013 18:40:00 6.1 C 5.84 g/m*3 4.86 C 6.4 km/h
222 24-11-2013 18:45:00 6.1 C 5.84 g/m*3 4.4 C 8.1 km/h
223 24-11-2013 19:25:00 5.7 C 5.05 g/m*3 4.4 C 6.4 km/h
224 24-11-2013 19:30:00 5.7 C 5.05 g/m*3 5.7 C 4.8 km/h
225 24-11-2013 19:35:00 5.6 C 4.95 g/m*3 5.6 C 4.8 km/h
Sensor: Nr:Datum:Temp:Abs-Feuchte:Windchill:Wind:
Aussen-T/F 226 24-11-2013 19:40:00 5.6 C 4.95 g/m*3 4.29 C 6.4 km/h
227 24-11-2013 19:45:00 5.6 C 4.95 g/m*3 4.29 C 6.4 km/h
228 24-11-2013 19:50:00 5.5 C 4.92 g/m*3 5.5 C 1.6 km/h
229 24-11-2013 19:55:00 5.5 C 4.92 g/m*3 5.5 C 3.2 km/h
230 24-11-2013 20:00:00 5.5 C 4.92 g/m*3 5.5 C 1.6 km/h
231 25-11-2013 09:45:00 0.4 C 4.98 g/m*3 -1.72 C 6.4 km/h
232 25-11-2013 09:50:00 0.6 C 5.05 g/m*3 -2.52 C 9.7 km/h
233 25-11-2013 09:55:00 0.6 C 4.7 g/m*3 0.6 C 4.8 km/h
234 25-11-2013 10:00:00 0.7 C 4.73 g/m*3 0.7 C 1.6 km/h
235 25-11-2013 10:05:00 0.8 C 4.76 g/m*3 0.8 C 3.2 km/h
236 25-11-2013 10:10:00 0.8 C 4.76 g/m*3 -1.26 C 6.4 km/h
237 25-11-2013 10:15:00 0.8 C 4.71 g/m*3 -1.83 C 8.1 km/h
238 25-11-2013 10:20:00 0.9 C 4.74 g/m*3 -1.14 C 6.4 km/h
239 25-11-2013 10:25:00 0.9 C 4.74 g/m*3 -1.14 C 6.4 km/h
240 25-11-2013 10:30:00 0.9 C 4.74 g/m*3 -1.71 C 8.1 km/h
241 25-11-2013 10:35:00 0.9 C 4.74 g/m*3 -1.71 C 8.1 km/h
242 25-11-2013 10:40:00 1 C 4.78 g/m*3 1 C 4.8 km/h
243 25-11-2013 10:45:00 1.1 C 4.81 g/m*3 -1.48 C 8.1 km/h
244 25-11-2013 10:50:00 1.1 C 4.81 g/m*3 -0.91 C 6.4 km/h
245 25-11-2013 10:55:00 1.1 C 4.81 g/m*3 -1.48 C 8.1 km/h
246 25-11-2013 11:00:00 1.2 C 4.79 g/m*3 -0.8 C 6.4 km/h
247 25-11-2013 11:05:00 1.2 C 4.79 g/m*3 -0.8 C 6.4 km/h
248 25-11-2013 11:10:00 1.2 C 4.79 g/m*3 1.2 C 3.2 km/h
249 25-11-2013 11:15:00 1.3 C 4.82 g/m*3 -0.68 C 6.4 km/h
250 25-11-2013 11:20:00 1.3 C 4.82 g/m*3 -0.68 C 6.4 km/h
Sensor: Nr:Datum:Temp:Abs-Feuchte:Windchill:Wind:
Aussen-T/F 251 25-11-2013 11:25:00 1.3 C 4.82 g/m*3 -0.68 C 6.4 km/h
252 25-11-2013 11:30:00 1.4 C 4.85 g/m*3 -1.12 C 8.1 km/h
253 25-11-2013 11:35:00 1.4 C 4.85 g/m*3 -1.95 C 11.3 km/h
254 25-11-2013 11:40:00 1.6 C 4.87 g/m*3 -1.71 C 11.3 km/h
255 25-11-2013 11:45:00 1.6 C 4.87 g/m*3 -0.89 C 8.1 km/h
256 25-11-2013 11:50:00 1.7 C 4.9 g/m*3 -0.77 C 8.1 km/h
257 25-11-2013 11:55:00 1.8 C 4.93 g/m*3 -0.1 C 6.4 km/h
258 25-11-2013 12:00:00 1.8 C 4.93 g/m*3 -0.1 C 6.4 km/h
259 25-11-2013 12:05:00 1.9 C 4.97 g/m*3 1.9 C 4.8 km/h
260 25-11-2013 12:10:00 1.9 C 4.97 g/m*3 0.01 C 6.4 km/h
261 25-11-2013 12:15:00 2 C 5 g/m*3 -0.42 C 8.1 km/h
262 25-11-2013 12:20:00 2 C 5.06 g/m*3 -0.42 C 8.1 km/h
263 25-11-2013 12:25:00 2.1 C 5.09 g/m*3 2.1 C 4.8 km/h
264 25-11-2013 12:30:00 2.2 C 5.13 g/m*3 0.36 C 6.4 km/h
265 25-11-2013 12:35:00 2.2 C 5.07 g/m*3 -0.18 C 8.1 km/h
266 25-11-2013 12:40:00 2.3 C 5.1 g/m*3 0.47 C 6.4 km/h
267 25-11-2013 12:45:00 2.3 C 5.1 g/m*3 0.47 C 6.4 km/h
268 25-11-2013 12:50:00 2.3 C 5.1 g/m*3 2.3 C 3.2 km/h
269 25-11-2013 12:55:00 2.3 C 5.1 g/m*3 2.3 C 3.2 km/h
270 25-11-2013 13:00:00 2.4 C 5.14 g/m*3 0.05 C 8.1 km/h
271 25-11-2013 13:05:00 2.4 C 5.14 g/m*3 0.05 C 8.1 km/h
272 25-11-2013 13:10:00 2.4 C 5.2 g/m*3 2.4 C 1.6 km/h
273 25-11-2013 13:15:00 2.4 C 5.2 g/m*3 2.4 C 1.6 km/h
274 25-11-2013 13:20:00 2.4 C 5.2 g/m*3 0.59 C 6.4 km/h
275 25-11-2013 13:25:00 2.4 C 5.2 g/m*3 2.4 C 4.8 km/h
Sensor: Nr:Datum:Temp:Abs-Feuchte:Windchill:Wind:
Aussen-T/F 276 25-11-2013 13:30:00 2.5 C 5.23 g/m*3 0.71 C 6.4 km/h
277 25-11-2013 13:35:00 2.5 C 5.23 g/m*3 2.5 C 4.8 km/h
278 25-11-2013 13:40:00 2.6 C 5.27 g/m*3 2.6 C 1.6 km/h
279 25-11-2013 13:45:00 2.7 C 5.3 g/m*3 2.7 C 3.2 km/h
280 25-11-2013 13:50:00 2.7 C 5.3 g/m*3 2.7 C 3.2 km/h
281 25-11-2013 13:55:00 2.8 C 5.34 g/m*3 2.8 C 4.8 km/h
282 25-11-2013 14:00:00 2.8 C 5.34 g/m*3 2.8 C 4.8 km/h
283 25-11-2013 14:05:00 2.8 C 5.34 g/m*3 2.8 C 4.8 km/h
284 25-11-2013 14:10:00 2.8 C 5.34 g/m*3 2.8 C 1.6 km/h
285 25-11-2013 14:15:00 2.8 C 5.34 g/m*3 2.8 C 1.6 km/h
286 25-11-2013 14:20:00 2.8 C 5.34 g/m*3 2.8 C 0 km/h
287 25-11-2013 14:25:00 2.9 C 5.37 g/m*3 2.9 C 3.2 km/h
288 25-11-2013 14:30:00 2.9 C 5.43 g/m*3 2.9 C 1.6 km/h
289 25-11-2013 14:35:00 3 C 5.47 g/m*3 3 C 3.2 km/h
290 25-11-2013 14:40:00 3.1 C 5.51 g/m*3 3.1 C 1.6 km/h
291 25-11-2013 14:45:00 3.1 C 5.51 g/m*3 3.1 C 0 km/h
292 25-11-2013 14:50:00 3.1 C 5.57 g/m*3 3.1 C 3.2 km/h
293 25-11-2013 14:55:00 3.1 C 5.51 g/m*3 3.1 C 3.2 km/h
294 25-11-2013 15:00:00 3.1 C 5.51 g/m*3 3.1 C 0 km/h
295 25-11-2013 15:05:00 3.1 C 5.57 g/m*3 3.1 C 4.8 km/h
296 25-11-2013 15:10:00 3 C 5.53 g/m*3 3 C 3.2 km/h
297 25-11-2013 15:15:00 3.1 C 5.57 g/m*3 3.1 C 1.6 km/h
298 25-11-2013 15:20:00 3.1 C 5.57 g/m*3 3.1 C 3.2 km/h
299 25-11-2013 15:25:00 3.2 C 5.66 g/m*3 3.2 C 3.2 km/h
300 25-11-2013 15:30:00 3.2 C 5.66 g/m*3 3.2 C 4.8 km/h
Sensor: Nr:Datum:Temp:Abs-Feuchte:Windchill:Wind:
Aussen-T/F 301 25-11-2013 15:35:00 3.2 C 5.66 g/m*3 3.2 C 4.8 km/h
302 25-11-2013 15:40:00 3.2 C 5.66 g/m*3 3.2 C 1.6 km/h
303 25-11-2013 15:45:00 3.2 C 5.66 g/m*3 3.2 C 3.2 km/h
304 25-11-2013 15:50:00 3.2 C 5.66 g/m*3 3.2 C 0 km/h
305 25-11-2013 15:55:00 3.2 C 5.66 g/m*3 3.2 C 1.6 km/h
306 25-11-2013 16:00:00 3.2 C 5.66 g/m*3 3.2 C 0 km/h
307 25-11-2013 16:05:00 3.2 C 5.66 g/m*3 3.2 C 0 km/h
308 25-11-2013 16:10:00 3.3 C 5.7 g/m*3 3.3 C 0 km/h
309 25-11-2013 16:15:00 3.3 C 5.7 g/m*3 3.3 C 1.6 km/h
310 25-11-2013 16:20:00 3.3 C 5.7 g/m*3 3.3 C 3.2 km/h
311 25-11-2013 16:25:00 3.6 C 5.88 g/m*3 3.6 C 1.6 km/h
312 25-11-2013 16:30:00 3.7 C 5.92 g/m*3 3.7 C 0 km/h
313 25-11-2013 16:35:00 3.8 C 6.02 g/m*3 3.8 C 1.6 km/h
314 25-11-2013 16:40:00 3.9 C 6 g/m*3 3.9 C 3.2 km/h
315 25-11-2013 16:45:00 4 C 6.04 g/m*3 4 C 1.6 km/h
316 25-11-2013 16:50:00 4.1 C 6.08 g/m*3 4.1 C 3.2 km/h
317 25-11-2013 16:55:00 4.1 C 6.08 g/m*3 4.1 C 0 km/h
318 25-11-2013 17:00:00 4.1 C 6.08 g/m*3 4.1 C 1.6 km/h
319 25-11-2013 17:05:00 4.1 C 6.08 g/m*3 4.1 C 1.6 km/h
320 25-11-2013 17:10:00 4.1 C 6.08 g/m*3 4.1 C 1.6 km/h
321 25-11-2013 17:15:00 4.1 C 6.08 g/m*3 4.1 C 1.6 km/h
322 25-11-2013 17:20:00 4.1 C 6.08 g/m*3 4.1 C 4.8 km/h
323 25-11-2013 17:25:00 4.1 C 6.08 g/m*3 4.1 C 0 km/h
324 25-11-2013 17:30:00 4.1 C 6.08 g/m*3 4.1 C 0 km/h
325 25-11-2013 17:35:00 4.1 C 6.08 g/m*3 4.1 C 0 km/h
Sensor: Nr:Datum:Temp:Abs-Feuchte:Windchill:Wind:
Aussen-T/F 326 25-11-2013 17:40:00 4.1 C 6.08 g/m*3 4.1 C 0 km/h
327 25-11-2013 17:45:00 4.1 C 6.08 g/m*3 4.1 C 1.6 km/h
328 25-11-2013 17:50:00 4.1 C 6.08 g/m*3 4.1 C 1.6 km/h
329 25-11-2013 17:55:00 4.1 C 6.08 g/m*3 4.1 C 1.6 km/h
330 25-11-2013 18:00:00 4.1 C 6.08 g/m*3 4.1 C 0 km/h
331 25-11-2013 18:05:00 4.1 C 6.08 g/m*3 4.1 C 0 km/h
332 25-11-2013 18:10:00 4 C 6.04 g/m*3 4 C 0 km/h
333 25-11-2013 18:15:00 4.1 C 6.14 g/m*3 4.1 C 0 km/h
334 25-11-2013 18:20:00 4.1 C 6.14 g/m*3 4.1 C 0 km/h
335 25-11-2013 18:25:00 4.1 C 6.14 g/m*3 4.1 C 0 km/h
336 25-11-2013 18:30:00 4.1 C 6.14 g/m*3 4.1 C 0 km/h
337 25-11-2013 18:35:00 4.1 C 6.14 g/m*3 4.1 C 0 km/h
338 25-11-2013 18:40:00 4.1 C 6.14 g/m*3 2.55 C 6.4 km/h
339 25-11-2013 18:45:00 4.1 C 6.08 g/m*3 2.05 C 8.1 km/h
340 25-11-2013 18:50:00 4.1 C 6.08 g/m*3 4.1 C 3.2 km/h
341 25-11-2013 18:55:00 3.9 C 6 g/m*3 3.9 C 3.2 km/h
342 25-11-2013 19:00:00 3.8 C 5.9 g/m*3 3.8 C 0 km/h
343 25-11-2013 19:05:00 3.8 C 5.9 g/m*3 3.8 C 0 km/h
344 25-11-2013 19:10:00 3.7 C 5.92 g/m*3 3.7 C 0 km/h
345 25-11-2013 19:15:00 3.7 C 5.92 g/m*3 3.7 C 1.6 km/h
346 25-11-2013 19:20:00 3.6 C 5.88 g/m*3 3.6 C 1.6 km/h
347 25-11-2013 19:25:00 3.5 C 5.84 g/m*3 3.5 C 0 km/h
348 25-11-2013 19:30:00 3.4 C 5.8 g/m*3 3.4 C 0 km/h
349 25-11-2013 19:35:00 3.4 C 5.8 g/m*3 3.4 C 0 km/h
350 25-11-2013 19:40:00 3.4 C 5.8 g/m*3 3.4 C 3.2 km/h
Sensor: Nr:Datum:Temp:Abs-Feuchte:Windchill:Wind:
Aussen-T/F 351 25-11-2013 19:45:00 3.4 C 5.86 g/m*3 3.4 C 0 km/h
352 25-11-2013 19:50:00 3.4 C 5.86 g/m*3 3.4 C 0 km/h
353 25-11-2013 19:55:00 3.4 C 5.86 g/m*3 3.4 C 0 km/h
354 25-11-2013 20:00:00 3.4 C 5.86 g/m*3 3.4 C 0 km/h
355 25-11-2013 20:05:00 3.5 C 5.9 g/m*3 3.5 C 0 km/h
356 25-11-2013 20:10:00 3.4 C 5.86 g/m*3 3.4 C 3.2 km/h
357 25-11-2013 20:15:00 3.5 C 5.9 g/m*3 3.5 C 1.6 km/h
358 25-11-2013 20:20:00 3.5 C 5.9 g/m*3 3.5 C 0 km/h
359 25-11-2013 20:25:00 3.5 C 5.9 g/m*3 3.5 C 0 km/h
360 25-11-2013 20:30:00 3.5 C 5.9 g/m*3 3.5 C 3.2 km/h
361 25-11-2013 20:35:00 3.5 C 5.9 g/m*3 3.5 C 4.8 km/h
362 25-11-2013 20:40:00 3.5 C 5.9 g/m*3 3.5 C 4.8 km/h
363 25-11-2013 20:45:00 3.5 C 5.9 g/m*3 1.86 C 6.4 km/h
364 25-11-2013 20:50:00 3.4 C 5.86 g/m*3 1.23 C 8.1 km/h
365 25-11-2013 20:55:00 3.4 C 5.8 g/m*3 1.23 C 8.1 km/h
366 25-11-2013 21:00:00 3.4 C 5.8 g/m*3 1.75 C 6.4 km/h
367 25-11-2013 21:05:00 3.3 C 5.76 g/m*3 3.3 C 3.2 km/h
368 25-11-2013 21:10:00 3.3 C 5.7 g/m*3 1.11 C 8.1 km/h
369 25-11-2013 21:15:00 3.3 C 5.7 g/m*3 1.63 C 6.4 km/h
370 25-11-2013 21:20:00 3.2 C 5.66 g/m*3 3.2 C 1.6 km/h
371 25-11-2013 21:25:00 3.2 C 5.6 g/m*3 3.2 C 3.2 km/h
372 25-11-2013 21:30:00 3.1 C 5.57 g/m*3 3.1 C 4.8 km/h
373 25-11-2013 21:35:00 3 C 5.53 g/m*3 1.28 C 6.4 km/h
374 25-11-2013 21:40:00 2.9 C 5.49 g/m*3 1.17 C 6.4 km/h
375 25-11-2013 21:45:00 2.9 C 5.43 g/m*3 1.17 C 6.4 km/h
Sensor: Nr:Datum:Temp:Abs-Feuchte:Windchill:Wind:
Aussen-T/F 376 25-11-2013 21:50:00 2.8 C 5.4 g/m*3 1.05 C 6.4 km/h
377 25-11-2013 21:55:00 2.8 C 5.4 g/m*3 1.05 C 6.4 km/h
378 25-11-2013 22:00:00 2.8 C 5.34 g/m*3 1.05 C 6.4 km/h
379 25-11-2013 22:05:00 2.7 C 5.3 g/m*3 2.7 C 0 km/h
380 25-11-2013 22:10:00 2.7 C 5.3 g/m*3 2.7 C 1.6 km/h
381 25-11-2013 22:15:00 2.6 C 5.32 g/m*3 2.6 C 3.2 km/h
382 25-11-2013 22:20:00 2.5 C 5.29 g/m*3 2.5 C 3.2 km/h
383 25-11-2013 22:25:00 2.4 C 5.25 g/m*3 2.4 C 1.6 km/h
384 25-11-2013 22:30:00 2.3 C 5.22 g/m*3 2.3 C 1.6 km/h
385 25-11-2013 22:35:00 2.1 C 5.15 g/m*3 2.1 C 3.2 km/h
386 25-11-2013 22:40:00 1.8 C 5.04 g/m*3 1.8 C 3.2 km/h
387 25-11-2013 22:45:00 1.5 C 4.99 g/m*3 1.5 C 3.2 km/h
388 25-11-2013 22:50:00 1.3 C 4.93 g/m*3 1.3 C 1.6 km/h
389 25-11-2013 22:55:00 1.1 C 4.91 g/m*3 1.1 C 3.2 km/h
390 25-11-2013 23:00:00 0.9 C 4.85 g/m*3 0.9 C 3.2 km/h
391 25-11-2013 23:05:00 0.8 C 4.81 g/m*3 0.8 C 4.8 km/h
392 25-11-2013 23:10:00 0.7 C 4.78 g/m*3 0.7 C 4.8 km/h
393 25-11-2013 23:15:00 0.7 C 4.83 g/m*3 0.7 C 3.2 km/h
394 25-11-2013 23:20:00 0.6 C 4.8 g/m*3 0.6 C 3.2 km/h
395 25-11-2013 23:25:00 0.6 C 4.8 g/m*3 0.6 C 4.8 km/h
396 25-11-2013 23:30:00 0.5 C 4.76 g/m*3 0.5 C 4.8 km/h
397 25-11-2013 23:35:00 0.5 C 4.76 g/m*3 0.5 C 4.8 km/h
398 25-11-2013 23:40:00 0.5 C 4.76 g/m*3 0.5 C 3.2 km/h
399 25-11-2013 23:45:00 0.5 C 4.76 g/m*3 0.5 C 3.2 km/h
400 25-11-2013 23:50:00 0.4 C 4.73 g/m*3 0.4 C 3.2 km/h
Sensor: Nr:Datum:Temp:Abs-Feuchte:Windchill:Wind:
Aussen-T/F 401 25-11-2013 23:55:00 0.4 C 4.73 g/m*3 0.4 C 4.8 km/h
402 26-11-2013 00:00:00 0.4 C 4.73 g/m*3 0.4 C 3.2 km/h
403 26-11-2013 00:05:00 0.4 C 4.73 g/m*3 0.4 C 3.2 km/h
404 26-11-2013 00:10:00 0.4 C 4.73 g/m*3 0.4 C 1.6 km/h
405 26-11-2013 00:15:00 0.4 C 4.73 g/m*3 0.4 C 3.2 km/h
406 26-11-2013 00:20:00 0.4 C 4.73 g/m*3 0.4 C 0 km/h
407 26-11-2013 00:25:00 0.5 C 4.76 g/m*3 0.5 C 1.6 km/h
408 26-11-2013 00:30:00 0.6 C 4.85 g/m*3 0.6 C 0 km/h
409 26-11-2013 00:35:00 0.6 C 4.85 g/m*3 0.6 C 3.2 km/h
410 26-11-2013 00:40:00 0.6 C 4.85 g/m*3 0.6 C 1.6 km/h
411 26-11-2013 00:45:00 0.7 C 4.88 g/m*3 0.7 C 1.6 km/h
412 26-11-2013 00:50:00 0.6 C 4.85 g/m*3 0.6 C 0 km/h
413 26-11-2013 00:55:00 0.6 C 4.85 g/m*3 0.6 C 3.2 km/h
414 26-11-2013 01:00:00 0.6 C 4.85 g/m*3 0.6 C 3.2 km/h
415 26-11-2013 01:05:00 0.6 C 4.8 g/m*3 0.6 C 3.2 km/h
416 26-11-2013 01:10:00 0.5 C 4.76 g/m*3 0.5 C 4.8 km/h
417 26-11-2013 01:15:00 0.4 C 4.73 g/m*3 0.4 C 1.6 km/h
418 26-11-2013 01:20:00 0.3 C 4.7 g/m*3 0.3 C 1.6 km/h
419 26-11-2013 01:25:00 0.3 C 4.7 g/m*3 0.3 C 1.6 km/h
420 26-11-2013 01:30:00 0.2 C 4.67 g/m*3 0.2 C 3.2 km/h
421 26-11-2013 01:35:00 0.1 C 4.63 g/m*3 0.1 C 1.6 km/h
422 26-11-2013 01:40:00 0.1 C 4.63 g/m*3 0.1 C 3.2 km/h
423 26-11-2013 01:45:00 0 C 4.6 g/m*3 0 C 3.2 km/h
424 26-11-2013 01:50:00 0 C 4.65 g/m*3 0 C 3.2 km/h
425 26-11-2013 01:55:00 -0.1 C 4.62 g/m*3 -0.1 C 3.2 km/h
Sensor: Nr:Datum:Temp:Abs-Feuchte:Windchill:Wind:
Aussen-T/F 426 26-11-2013 02:00:00 -0.1 C 4.62 g/m*3 -0.1 C 1.6 km/h
427 26-11-2013 02:05:00 0 C 4.65 g/m*3 0 C 4.8 km/h
428 26-11-2013 02:10:00 -0.1 C 4.62 g/m*3 -0.1 C 0 km/h
429 26-11-2013 02:15:00 -0.1 C 4.62 g/m*3 -0.1 C 4.8 km/h
430 26-11-2013 02:20:00 0.1 C 4.68 g/m*3 0.1 C 0 km/h
431 26-11-2013 02:25:00 0.1 C 4.68 g/m*3 0.1 C 3.2 km/h
432 26-11-2013 02:30:00 0.1 C 4.68 g/m*3 0.1 C 1.6 km/h
433 26-11-2013 02:35:00 -0.1 C 4.62 g/m*3 -0.1 C 3.2 km/h
434 26-11-2013 02:40:00 -0.1 C 4.62 g/m*3 -0.1 C 1.6 km/h
435 26-11-2013 02:45:00 -0.1 C 4.62 g/m*3 -0.1 C 3.2 km/h
436 26-11-2013 02:50:00 -0.1 C 4.62 g/m*3 -0.1 C 1.6 km/h
437 26-11-2013 02:55:00 -0.1 C 4.62 g/m*3 -0.1 C 1.6 km/h
438 26-11-2013 03:00:00 0.1 C 4.68 g/m*3 0.1 C 3.2 km/h
439 26-11-2013 03:05:00 0.1 C 4.68 g/m*3 0.1 C 1.6 km/h
440 26-11-2013 03:10:00 0.1 C 4.68 g/m*3 0.1 C 1.6 km/h
441 26-11-2013 03:15:00 0 C 4.65 g/m*3 0 C 1.6 km/h
442 26-11-2013 03:20:00 -0.1 C 4.57 g/m*3 -0.1 C 4.8 km/h
443 26-11-2013 03:25:00 -0.2 C 4.54 g/m*3 -0.2 C 3.2 km/h
444 26-11-2013 03:30:00 -0.2 C 4.54 g/m*3 -0.2 C 3.2 km/h
445 26-11-2013 03:35:00 -0.3 C 4.51 g/m*3 -0.3 C 3.2 km/h
446 26-11-2013 03:40:00 -0.3 C 4.51 g/m*3 -0.3 C 3.2 km/h
447 26-11-2013 03:45:00 -0.3 C 4.56 g/m*3 -0.3 C 3.2 km/h
448 26-11-2013 03:50:00 -0.3 C 4.56 g/m*3 -0.3 C 1.6 km/h
449 26-11-2013 03:55:00 -0.3 C 4.56 g/m*3 -0.3 C 3.2 km/h
450 26-11-2013 04:00:00 -0.3 C 4.56 g/m*3 -0.3 C 3.2 km/h
Sensor: Nr:Datum:Temp:Abs-Feuchte:Windchill:Wind:
Aussen-T/F 451 26-11-2013 04:05:00 -0.3 C 4.56 g/m*3 -0.3 C 3.2 km/h
452 26-11-2013 04:10:00 -0.4 C 4.52 g/m*3 -0.4 C 0 km/h
453 26-11-2013 04:15:00 -0.5 C 4.45 g/m*3 -0.5 C 0 km/h
454 26-11-2013 04:20:00 -0.6 C 4.46 g/m*3 -0.6 C 3.2 km/h
455 26-11-2013 04:25:00 -0.6 C 4.46 g/m*3 -0.6 C 0 km/h
456 26-11-2013 04:30:00 -0.6 C 4.46 g/m*3 -0.6 C 3.2 km/h
457 26-11-2013 04:35:00 -0.5 C 4.49 g/m*3 -0.5 C 3.2 km/h
458 26-11-2013 04:40:00 -0.4 C 4.52 g/m*3 -0.4 C 3.2 km/h
459 26-11-2013 04:45:00 -0.4 C 4.52 g/m*3 -0.4 C 0 km/h
460 26-11-2013 04:50:00 -0.6 C 4.46 g/m*3 -0.6 C 0 km/h
461 26-11-2013 04:55:00 -0.6 C 4.46 g/m*3 -0.6 C 0 km/h
462 26-11-2013 05:00:00 -0.6 C 4.46 g/m*3 -0.6 C 3.2 km/h
463 26-11-2013 05:05:00 -0.7 C 4.43 g/m*3 -0.7 C 3.2 km/h
464 26-11-2013 05:10:00 -0.7 C 4.43 g/m*3 -0.7 C 0 km/h
465 26-11-2013 05:15:00 -0.7 C 4.43 g/m*3 -0.7 C 0 km/h
466 26-11-2013 05:20:00 -0.7 C 4.43 g/m*3 -0.7 C 0 km/h
467 26-11-2013 05:25:00 -0.7 C 4.43 g/m*3 -0.7 C 0 km/h
468 26-11-2013 05:30:00 -0.7 C 4.43 g/m*3 -0.7 C 0 km/h
469 26-11-2013 05:35:00 -0.7 C 4.43 g/m*3 -0.7 C 1.6 km/h
470 26-11-2013 05:40:00 -0.8 C 4.4 g/m*3 -0.8 C 0 km/h
471 26-11-2013 05:45:00 -0.7 C 4.43 g/m*3 -0.7 C 0 km/h
472 26-11-2013 05:50:00 -0.7 C 4.43 g/m*3 -0.7 C 0 km/h
473 26-11-2013 05:55:00 -0.7 C 4.43 g/m*3 -0.7 C 0 km/h
474 26-11-2013 06:00:00 -0.7 C 4.43 g/m*3 -0.7 C 0 km/h
475 26-11-2013 06:05:00 -0.7 C 4.43 g/m*3 -0.7 C 0 km/h
Sensor: Nr:Datum:Temp:Abs-Feuchte:Windchill:Wind:
Aussen-T/F 476 26-11-2013 06:10:00 -0.7 C 4.43 g/m*3 -0.7 C 0 km/h
477 26-11-2013 06:15:00 -0.7 C 4.43 g/m*3 -0.7 C 0 km/h
478 26-11-2013 06:20:00 -0.7 C 4.43 g/m*3 -0.7 C 3.2 km/h
479 26-11-2013 06:25:00 -0.6 C 4.46 g/m*3 -0.6 C 0 km/h
480 26-11-2013 06:30:00 -0.4 C 4.52 g/m*3 -0.4 C 3.2 km/h
481 26-11-2013 06:35:00 -0.4 C 4.57 g/m*3 -0.4 C 3.2 km/h
482 26-11-2013 06:40:00 -0.3 C 4.6 g/m*3 -0.3 C 1.6 km/h
483 26-11-2013 06:45:00 -0.2 C 4.59 g/m*3 -0.2 C 3.2 km/h
484 26-11-2013 06:50:00 -0.2 C 4.59 g/m*3 -0.2 C 1.6 km/h
485 26-11-2013 06:55:00 -0.1 C 4.62 g/m*3 -0.1 C 3.2 km/h
486 26-11-2013 07:00:00 -0.1 C 4.62 g/m*3 -0.1 C 1.6 km/h
487 26-11-2013 07:05:00 -0.1 C 4.62 g/m*3 -0.1 C 3.2 km/h
488 26-11-2013 07:10:00 -0.1 C 4.62 g/m*3 -0.1 C 3.2 km/h
489 26-11-2013 07:15:00 -0.1 C 4.62 g/m*3 -0.1 C 0 km/h
490 26-11-2013 07:20:00 0 C 4.65 g/m*3 0 C 1.6 km/h
491 26-11-2013 07:25:00 0 C 4.65 g/m*3 0 C 0 km/h
492 26-11-2013 07:30:00 0.1 C 4.68 g/m*3 0.1 C 0 km/h
493 26-11-2013 07:35:00 0.1 C 4.68 g/m*3 0.1 C 1.6 km/h
494 26-11-2013 07:40:00 0.1 C 4.68 g/m*3 0.1 C 0 km/h
495 26-11-2013 07:45:00 0.1 C 4.68 g/m*3 0.1 C 0 km/h
496 26-11-2013 07:50:00 0.1 C 4.68 g/m*3 0.1 C 1.6 km/h
497 26-11-2013 07:55:00 0.1 C 4.68 g/m*3 0.1 C 4.8 km/h
498 26-11-2013 08:00:00 0.1 C 4.68 g/m*3 0.1 C 4.8 km/h
499 26-11-2013 08:05:00 0.1 C 4.68 g/m*3 0.1 C 3.2 km/h
500 26-11-2013 08:10:00 0.1 C 4.68 g/m*3 0.1 C 3.2 km/h
Sensor: Nr:Datum:Temp:Abs-Feuchte:Windchill:Wind:
Aussen-T/F 501 26-11-2013 08:15:00 0.1 C 4.68 g/m*3 0.1 C 3.2 km/h
502 26-11-2013 08:20:00 0.1 C 4.63 g/m*3 0.1 C 4.8 km/h
503 26-11-2013 08:25:00 0.2 C 4.67 g/m*3 0.2 C 4.8 km/h
504 26-11-2013 08:30:00 0.2 C 4.67 g/m*3 0.2 C 4.8 km/h
505 26-11-2013 08:35:00 0.2 C 4.67 g/m*3 0.2 C 4.8 km/h
506 26-11-2013 08:40:00 0.2 C 4.67 g/m*3 0.2 C 1.6 km/h
507 26-11-2013 08:45:00 0.2 C 4.67 g/m*3 0.2 C 1.6 km/h
508 26-11-2013 08:50:00 0.2 C 4.67 g/m*3 0.2 C 4.8 km/h
509 26-11-2013 08:55:00 0.2 C 4.67 g/m*3 0.2 C 3.2 km/h
510 26-11-2013 09:00:00 0.2 C 4.67 g/m*3 0.2 C 0 km/h
511 26-11-2013 09:05:00 0.2 C 4.67 g/m*3 0.2 C 3.2 km/h
512 26-11-2013 09:10:00 0.2 C 4.67 g/m*3 0.2 C 1.6 km/h
513 26-11-2013 09:15:00 0.3 C 4.7 g/m*3 0.3 C 4.8 km/h
514 26-11-2013 09:20:00 0.3 C 4.7 g/m*3 0.3 C 3.2 km/h
515 26-11-2013 09:25:00 0.2 C 4.67 g/m*3 0.2 C 3.2 km/h
516 26-11-2013 09:30:00 0.2 C 4.62 g/m*3 0.2 C 1.6 km/h
517 26-11-2013 09:35:00 0.2 C 4.67 g/m*3 -3 C 9.7 km/h
518 26-11-2013 09:40:00 0.3 C 4.7 g/m*3 -2.88 C 9.7 km/h
519 26-11-2013 09:45:00 0.3 C 4.7 g/m*3 0.3 C 4.8 km/h
520 26-11-2013 09:50:00 0.3 C 4.7 g/m*3 0.3 C 0 km/h
521 26-11-2013 09:55:00 0.3 C 4.7 g/m*3 0.3 C 1.6 km/h
522 26-11-2013 10:00:00 0.3 C 4.7 g/m*3 0.3 C 3.2 km/h
523 26-11-2013 10:05:00 0.3 C 4.7 g/m*3 0.3 C 0 km/h
524 26-11-2013 10:10:00 0.3 C 4.7 g/m*3 -1.84 C 6.4 km/h
525 26-11-2013 10:15:00 0.3 C 4.7 g/m*3 0.3 C 3.2 km/h
Sensor: Nr:Datum:Temp:Abs-Feuchte:Windchill:Wind:
Aussen-T/F 526 26-11-2013 10:20:00 0.4 C 4.73 g/m*3 0.4 C 1.6 km/h
527 26-11-2013 10:25:00 0.4 C 4.68 g/m*3 0.4 C 3.2 km/h
528 26-11-2013 10:30:00 0.4 C 4.68 g/m*3 0.4 C 3.2 km/h
529 26-11-2013 10:35:00 0.4 C 4.68 g/m*3 0.4 C 0 km/h
530 26-11-2013 10:40:00 0.4 C 4.68 g/m*3 0.4 C 0 km/h
531 26-11-2013 10:45:00 0.5 C 4.71 g/m*3 0.5 C 0 km/h
532 26-11-2013 10:50:00 0.6 C 4.75 g/m*3 0.6 C 1.6 km/h
533 26-11-2013 10:55:00 0.6 C 4.75 g/m*3 0.6 C 0 km/h
534 26-11-2013 11:00:00 0.7 C 4.78 g/m*3 0.7 C 3.2 km/h
535 26-11-2013 11:05:00 0.7 C 4.78 g/m*3 0.7 C 1.6 km/h
536 26-11-2013 11:10:00 0.7 C 4.78 g/m*3 0.7 C 3.2 km/h
537 26-11-2013 11:15:00 0.8 C 4.81 g/m*3 0.8 C 3.2 km/h
538 26-11-2013 11:20:00 0.8 C 4.81 g/m*3 0.8 C 3.2 km/h
539 26-11-2013 11:25:00 0.8 C 4.81 g/m*3 0.8 C 3.2 km/h
540 26-11-2013 11:30:00 0.9 C 4.85 g/m*3 0.9 C 0 km/h
541 26-11-2013 11:35:00 0.9 C 4.85 g/m*3 0.9 C 3.2 km/h
542 26-11-2013 11:40:00 1 C 4.88 g/m*3 1 C 3.2 km/h
543 26-11-2013 11:45:00 1.1 C 4.91 g/m*3 1.1 C 4.8 km/h
544 26-11-2013 11:50:00 1.1 C 4.91 g/m*3 1.1 C 3.2 km/h
545 26-11-2013 11:55:00 1.1 C 4.86 g/m*3 1.1 C 3.2 km/h
546 26-11-2013 12:00:00 1.2 C 4.89 g/m*3 1.2 C 1.6 km/h
547 26-11-2013 12:05:00 1.2 C 4.89 g/m*3 1.2 C 1.6 km/h
548 26-11-2013 12:10:00 1.2 C 4.89 g/m*3 1.2 C 4.8 km/h
549 26-11-2013 12:15:00 1.3 C 4.93 g/m*3 1.3 C 4.8 km/h
550 26-11-2013 12:20:00 1.2 C 4.89 g/m*3 1.2 C 1.6 km/h
Sensor: Nr:Datum:Temp:Abs-Feuchte:Windchill:Wind:
Aussen-T/F 551 26-11-2013 12:25:00 1.3 C 4.93 g/m*3 1.3 C 4.8 km/h
552 26-11-2013 12:30:00 1.3 C 4.93 g/m*3 1.3 C 3.2 km/h
553 26-11-2013 12:35:00 1.4 C 4.96 g/m*3 1.4 C 1.6 km/h
554 26-11-2013 12:40:00 1.4 C 4.96 g/m*3 1.4 C 3.2 km/h
555 26-11-2013 12:45:00 1.4 C 4.96 g/m*3 1.4 C 3.2 km/h
556 26-11-2013 12:50:00 1.4 C 4.96 g/m*3 1.4 C 1.6 km/h
557 26-11-2013 12:55:00 1.4 C 4.91 g/m*3 1.4 C 1.6 km/h
558 26-11-2013 13:00:00 1.5 C 4.99 g/m*3 1.5 C 1.6 km/h
559 26-11-2013 13:05:00 1.6 C 4.97 g/m*3 1.6 C 0 km/h
560 26-11-2013 13:10:00 1.6 C 4.97 g/m*3 1.6 C 1.6 km/h
561 26-11-2013 13:15:00 1.6 C 4.97 g/m*3 1.6 C 4.8 km/h
562 26-11-2013 13:20:00 1.6 C 4.97 g/m*3 1.6 C 4.8 km/h
563 26-11-2013 13:25:00 1.6 C 4.97 g/m*3 1.6 C 4.8 km/h
564 26-11-2013 13:30:00 1.6 C 4.97 g/m*3 1.6 C 3.2 km/h
565 26-11-2013 13:35:00 1.6 C 4.97 g/m*3 -0.33 C 6.4 km/h
566 26-11-2013 13:40:00 1.6 C 4.97 g/m*3 1.6 C 1.6 km/h
567 26-11-2013 13:45:00 1.6 C 4.97 g/m*3 1.6 C 4.8 km/h
568 26-11-2013 13:50:00 1.6 C 4.97 g/m*3 1.6 C 3.2 km/h
569 26-11-2013 13:55:00 1.6 C 4.97 g/m*3 1.6 C 1.6 km/h
570 26-11-2013 14:00:00 1.6 C 4.97 g/m*3 1.6 C 3.2 km/h
571 26-11-2013 14:05:00 1.6 C 4.97 g/m*3 1.6 C 3.2 km/h
572 26-11-2013 14:10:00 1.6 C 4.97 g/m*3 1.6 C 4.8 km/h
573 26-11-2013 14:15:00 1.5 C 4.89 g/m*3 1.5 C 4.8 km/h
574 26-11-2013 14:20:00 1.4 C 4.85 g/m*3 1.4 C 0 km/h
575 26-11-2013 14:25:00 1.4 C 4.85 g/m*3 1.4 C 0 km/h
Sensor: Nr:Datum:Temp:Abs-Feuchte:Windchill:Wind:
Aussen-T/F 576 26-11-2013 14:30:00 1.4 C 4.91 g/m*3 1.4 C 0 km/h
577 26-11-2013 14:35:00 1.4 C 4.91 g/m*3 1.4 C 0 km/h
578 26-11-2013 14:40:00 1.4 C 4.91 g/m*3 1.4 C 0 km/h
579 26-11-2013 14:45:00 1.4 C 4.91 g/m*3 1.4 C 3.2 km/h
580 26-11-2013 14:50:00 1.4 C 4.91 g/m*3 1.4 C 0 km/h
581 26-11-2013 14:55:00 1.4 C 4.85 g/m*3 1.4 C 1.6 km/h
582 26-11-2013 15:00:00 1.4 C 4.85 g/m*3 1.4 C 0 km/h
583 26-11-2013 15:05:00 1.4 C 4.91 g/m*3 1.4 C 0 km/h
584 26-11-2013 15:10:00 1.4 C 4.91 g/m*3 1.4 C 0 km/h
585 26-11-2013 15:15:00 1.3 C 4.82 g/m*3 1.3 C 0 km/h
586 26-11-2013 15:20:00 1.3 C 4.87 g/m*3 1.3 C 0 km/h
587 26-11-2013 15:25:00 1.3 C 4.87 g/m*3 1.3 C 0 km/h
588 26-11-2013 15:30:00 1.3 C 4.87 g/m*3 1.3 C 0 km/h
589 26-11-2013 15:35:00 1.4 C 4.91 g/m*3 1.4 C 1.6 km/h
590 26-11-2013 15:40:00 1.4 C 4.91 g/m*3 1.4 C 3.2 km/h
591 26-11-2013 15:45:00 1.4 C 4.91 g/m*3 1.4 C 4.8 km/h
592 26-11-2013 15:50:00 1.4 C 4.91 g/m*3 1.4 C 4.8 km/h
593 26-11-2013 15:55:00 1.4 C 4.91 g/m*3 1.4 C 0 km/h
594 26-11-2013 16:00:00 1.3 C 4.87 g/m*3 -0.68 C 6.4 km/h
595 26-11-2013 16:05:00 1.3 C 4.87 g/m*3 1.3 C 0 km/h
596 26-11-2013 16:10:00 1.2 C 4.84 g/m*3 1.2 C 0 km/h
597 26-11-2013 16:15:00 1.1 C 4.81 g/m*3 1.1 C 0 km/h
598 26-11-2013 16:20:00 1.1 C 4.86 g/m*3 1.1 C 0 km/h
599 26-11-2013 16:25:00 1.1 C 4.86 g/m*3 1.1 C 0 km/h
600 26-11-2013 16:30:00 1.1 C 4.86 g/m*3 1.1 C 0 km/h
Sensor: Nr:Datum:Temp:Abs-Feuchte:Windchill:Wind:
Aussen-T/F 601 26-11-2013 16:35:00 1.1 C 4.86 g/m*3 1.1 C 1.6 km/h
602 26-11-2013 16:40:00 1.1 C 4.86 g/m*3 1.1 C 3.2 km/h
603 26-11-2013 16:45:00 1.1 C 4.86 g/m*3 1.1 C 1.6 km/h
604 26-11-2013 16:50:00 1 C 4.83 g/m*3 1 C 1.6 km/h
605 26-11-2013 16:55:00 1 C 4.83 g/m*3 1 C 1.6 km/h
606 26-11-2013 17:00:00 0.9 C 4.79 g/m*3 0.9 C 0 km/h
607 26-11-2013 17:05:00 0.9 C 4.79 g/m*3 0.9 C 0 km/h
608 26-11-2013 17:10:00 0.8 C 4.76 g/m*3 0.8 C 3.2 km/h
609 26-11-2013 17:15:00 0.9 C 4.85 g/m*3 0.9 C 0 km/h
610 26-11-2013 17:20:00 0.9 C 4.85 g/m*3 0.9 C 0 km/h
611 26-11-2013 17:25:00 0.9 C 4.85 g/m*3 0.9 C 0 km/h
612 26-11-2013 17:30:00 0.9 C 4.85 g/m*3 0.9 C 1.6 km/h
613 26-11-2013 17:35:00 0.8 C 4.81 g/m*3 0.8 C 0 km/h
614 26-11-2013 17:40:00 0.8 C 4.81 g/m*3 0.8 C 0 km/h
615 26-11-2013 17:45:00 0.9 C 4.85 g/m*3 0.9 C 0 km/h
616 26-11-2013 17:50:00 0.9 C 4.85 g/m*3 0.9 C 0 km/h
617 26-11-2013 17:55:00 0.9 C 4.85 g/m*3 0.9 C 1.6 km/h
618 26-11-2013 18:00:00 0.8 C 4.81 g/m*3 0.8 C 1.6 km/h
619 26-11-2013 18:05:00 0.8 C 4.81 g/m*3 0.8 C 0 km/h
620 26-11-2013 18:10:00 0.8 C 4.81 g/m*3 0.8 C 0 km/h
621 26-11-2013 18:15:00 0.8 C 4.81 g/m*3 0.8 C 0 km/h
622 26-11-2013 18:20:00 0.8 C 4.81 g/m*3 0.8 C 0 km/h
623 26-11-2013 18:25:00 0.8 C 4.81 g/m*3 0.8 C 0 km/h
624 26-11-2013 18:30:00 0.8 C 4.81 g/m*3 0.8 C 0 km/h
625 26-11-2013 18:35:00 0.8 C 4.81 g/m*3 0.8 C 0 km/h
Sensor: Nr:Datum:Temp:Abs-Feuchte:Windchill:Wind:
Aussen-T/F 626 26-11-2013 18:40:00 0.8 C 4.81 g/m*3 0.8 C 1.6 km/h
627 26-11-2013 18:45:00 0.8 C 4.81 g/m*3 0.8 C 1.6 km/h
628 26-11-2013 18:50:00 0.8 C 4.81 g/m*3 0.8 C 0 km/h
629 26-11-2013 18:55:00 0.8 C 4.81 g/m*3 0.8 C 0 km/h
630 26-11-2013 19:00:00 0.9 C 4.85 g/m*3 0.9 C 0 km/h
631 26-11-2013 19:05:00 0.8 C 4.81 g/m*3 0.8 C 3.2 km/h
632 26-11-2013 19:10:00 0.8 C 4.81 g/m*3 0.8 C 0 km/h
633 26-11-2013 19:15:00 0.8 C 4.81 g/m*3 0.8 C 0 km/h
634 26-11-2013 19:20:00 0.9 C 4.85 g/m*3 0.9 C 0 km/h
635 26-11-2013 19:25:00 0.9 C 4.85 g/m*3 0.9 C 0 km/h
636 26-11-2013 19:30:00 0.9 C 4.85 g/m*3 0.9 C 0 km/h
637 26-11-2013 19:35:00 0.9 C 4.85 g/m*3 0.9 C 0 km/h
638 26-11-2013 19:40:00 0.9 C 4.85 g/m*3 0.9 C 0 km/h
639 26-11-2013 19:45:00 0.9 C 4.85 g/m*3 0.9 C 1.6 km/h
640 26-11-2013 19:50:00 0.9 C 4.85 g/m*3 0.9 C 3.2 km/h
641 26-11-2013 19:55:00 0.9 C 4.85 g/m*3 0.9 C 1.6 km/h
642 26-11-2013 20:00:00 0.9 C 4.9 g/m*3 0.9 C 3.2 km/h
643 26-11-2013 20:05:00 0.9 C 4.9 g/m*3 0.9 C 1.6 km/h
644 26-11-2013 20:10:00 0.8 C 4.86 g/m*3 0.8 C 3.2 km/h
645 26-11-2013 20:15:00 0.8 C 4.81 g/m*3 0.8 C 3.2 km/h
646 26-11-2013 20:20:00 0.8 C 4.86 g/m*3 0.8 C 4.8 km/h
647 26-11-2013 20:25:00 0.8 C 4.86 g/m*3 0.8 C 4.8 km/h
648 26-11-2013 20:30:00 0.8 C 4.86 g/m*3 0.8 C 3.2 km/h
649 26-11-2013 20:35:00 0.8 C 4.86 g/m*3 0.8 C 3.2 km/h
650 26-11-2013 20:40:00 0.7 C 4.83 g/m*3 0.7 C 1.6 km/h
Sensor: Nr:Datum:Temp:Abs-Feuchte:Windchill:Wind:
Aussen-T/F 651 26-11-2013 20:45:00 0.7 C 4.83 g/m*3 0.7 C 4.8 km/h
652 26-11-2013 20:50:00 0.7 C 4.83 g/m*3 0.7 C 4.8 km/h
653 26-11-2013 20:55:00 0.7 C 4.83 g/m*3 0.7 C 4.8 km/h
654 26-11-2013 21:00:00 0.7 C 4.83 g/m*3 0.7 C 3.2 km/h
655 26-11-2013 21:05:00 0.7 C 4.83 g/m*3 0.7 C 3.2 km/h
656 26-11-2013 21:10:00 0.7 C 4.83 g/m*3 0.7 C 3.2 km/h
657 26-11-2013 21:15:00 0.7 C 4.83 g/m*3 0.7 C 3.2 km/h
658 26-11-2013 21:20:00 0.6 C 4.8 g/m*3 0.6 C 3.2 km/h
659 26-11-2013 21:25:00 0.6 C 4.8 g/m*3 0.6 C 0 km/h
660 26-11-2013 21:30:00 0.6 C 4.8 g/m*3 0.6 C 0 km/h
661 26-11-2013 21:35:00 0.6 C 4.8 g/m*3 0.6 C 0 km/h
662 26-11-2013 21:40:00 0.6 C 4.8 g/m*3 0.6 C 3.2 km/h
663 26-11-2013 21:45:00 0.6 C 4.8 g/m*3 0.6 C 1.6 km/h
664 26-11-2013 21:50:00 0.6 C 4.8 g/m*3 0.6 C 1.6 km/h
665 26-11-2013 21:55:00 0.6 C 4.8 g/m*3 0.6 C 0 km/h
666 26-11-2013 22:00:00 0.6 C 4.8 g/m*3 0.6 C 1.6 km/h
667 26-11-2013 22:05:00 0.6 C 4.8 g/m*3 0.6 C 1.6 km/h
668 26-11-2013 22:10:00 0.6 C 4.8 g/m*3 0.6 C 0 km/h
669 26-11-2013 22:15:00 0.6 C 4.8 g/m*3 0.6 C 4.8 km/h
670 26-11-2013 22:20:00 0.6 C 4.8 g/m*3 0.6 C 1.6 km/h
671 26-11-2013 22:25:00 0.6 C 4.85 g/m*3 0.6 C 0 km/h
672 26-11-2013 22:30:00 0.6 C 4.85 g/m*3 0.6 C 0 km/h
673 26-11-2013 22:35:00 0.6 C 4.85 g/m*3 0.6 C 0 km/h
674 26-11-2013 22:40:00 0.6 C 4.85 g/m*3 0.6 C 0 km/h
675 26-11-2013 22:45:00 0.6 C 4.85 g/m*3 0.6 C 0 km/h
Sensor: Nr:Datum:Temp:Abs-Feuchte:Windchill:Wind:
Aussen-T/F 676 26-11-2013 22:50:00 0.6 C 4.85 g/m*3 0.6 C 1.6 km/h
677 26-11-2013 22:55:00 0.6 C 4.85 g/m*3 0.6 C 1.6 km/h
678 26-11-2013 23:00:00 0.6 C 4.85 g/m*3 0.6 C 0 km/h
679 26-11-2013 23:05:00 0.7 C 4.88 g/m*3 0.7 C 0 km/h
680 26-11-2013 23:10:00 0.7 C 4.88 g/m*3 0.7 C 0 km/h
681 26-11-2013 23:15:00 0.7 C 4.88 g/m*3 0.7 C 0 km/h
682 26-11-2013 23:20:00 0.7 C 4.88 g/m*3 0.7 C 0 km/h
683 26-11-2013 23:25:00 0.7 C 4.88 g/m*3 0.7 C 1.6 km/h
684 26-11-2013 23:30:00 0.7 C 4.88 g/m*3 0.7 C 3.2 km/h
685 26-11-2013 23:35:00 0.7 C 4.88 g/m*3 0.7 C 1.6 km/h
686 26-11-2013 23:40:00 0.7 C 4.88 g/m*3 0.7 C 3.2 km/h
687 26-11-2013 23:45:00 0.7 C 4.88 g/m*3 0.7 C 1.6 km/h
688 26-11-2013 23:50:00 0.7 C 4.88 g/m*3 0.7 C 0 km/h
689 26-11-2013 23:55:00 0.7 C 4.88 g/m*3 0.7 C 0 km/h
690 27-11-2013 00:00:00 0.7 C 4.88 g/m*3 0.7 C 0 km/h
691 27-11-2013 00:05:00 0.7 C 4.88 g/m*3 0.7 C 1.6 km/h
692 27-11-2013 00:10:00 0.7 C 4.88 g/m*3 0.7 C 1.6 km/h
693 27-11-2013 00:15:00 0.7 C 4.88 g/m*3 0.7 C 1.6 km/h
694 27-11-2013 00:20:00 0.7 C 4.88 g/m*3 0.7 C 3.2 km/h
695 27-11-2013 00:25:00 0.7 C 4.88 g/m*3 0.7 C 3.2 km/h
696 27-11-2013 00:30:00 0.7 C 4.88 g/m*3 0.7 C 1.6 km/h
697 27-11-2013 00:35:00 0.7 C 4.88 g/m*3 0.7 C 0 km/h
698 27-11-2013 00:40:00 0.7 C 4.88 g/m*3 0.7 C 0 km/h
699 27-11-2013 00:45:00 0.7 C 4.88 g/m*3 0.7 C 1.6 km/h
700 27-11-2013 00:50:00 0.7 C 4.88 g/m*3 0.7 C 3.2 km/h
Sensor: Nr:Datum:Temp:Abs-Feuchte:Windchill:Wind:
Aussen-T/F 701 27-11-2013 00:55:00 0.7 C 4.88 g/m*3 0.7 C 1.6 km/h
702 27-11-2013 01:00:00 0.7 C 4.88 g/m*3 0.7 C 1.6 km/h
703 27-11-2013 01:05:00 0.7 C 4.88 g/m*3 0.7 C 3.2 km/h
704 27-11-2013 01:10:00 0.7 C 4.88 g/m*3 0.7 C 0 km/h
705 27-11-2013 01:15:00 0.7 C 4.88 g/m*3 0.7 C 0 km/h
706 27-11-2013 01:20:00 0.7 C 4.88 g/m*3 0.7 C 0 km/h
707 27-11-2013 01:25:00 0.7 C 4.88 g/m*3 0.7 C 0 km/h
708 27-11-2013 01:30:00 0.7 C 4.88 g/m*3 0.7 C 0 km/h
709 27-11-2013 01:35:00 0.7 C 4.88 g/m*3 0.7 C 0 km/h
710 27-11-2013 01:40:00 0.7 C 4.88 g/m*3 0.7 C 0 km/h
711 27-11-2013 01:45:00 0.7 C 4.88 g/m*3 0.7 C 0 km/h
712 27-11-2013 01:50:00 0.7 C 4.83 g/m*3 0.7 C 1.6 km/h
713 27-11-2013 01:55:00 0.7 C 4.83 g/m*3 0.7 C 3.2 km/h
714 27-11-2013 02:00:00 0.7 C 4.83 g/m*3 0.7 C 3.2 km/h
715 27-11-2013 02:05:00 0.7 C 4.83 g/m*3 0.7 C 3.2 km/h
716 27-11-2013 02:10:00 0.6 C 4.8 g/m*3 0.6 C 3.2 km/h
717 27-11-2013 02:15:00 0.6 C 4.8 g/m*3 0.6 C 4.8 km/h
718 27-11-2013 02:20:00 0.6 C 4.8 g/m*3 0.6 C 3.2 km/h
719 27-11-2013 02:25:00 0.6 C 4.8 g/m*3 0.6 C 3.2 km/h
720 27-11-2013 02:30:00 0.6 C 4.8 g/m*3 0.6 C 4.8 km/h
721 27-11-2013 02:35:00 0.6 C 4.8 g/m*3 0.6 C 3.2 km/h
722 27-11-2013 02:40:00 0.6 C 4.75 g/m*3 0.6 C 4.8 km/h
723 27-11-2013 02:45:00 0.6 C 4.75 g/m*3 0.6 C 3.2 km/h
724 27-11-2013 02:50:00 0.6 C 4.75 g/m*3 0.6 C 1.6 km/h
725 27-11-2013 02:55:00 0.6 C 4.75 g/m*3 0.6 C 3.2 km/h
Sensor: Nr:Datum:Temp:Abs-Feuchte:Windchill:Wind:
Aussen-T/F 726 27-11-2013 03:00:00 0.6 C 4.75 g/m*3 0.6 C 0 km/h
727 27-11-2013 03:05:00 0.6 C 4.75 g/m*3 0.6 C 1.6 km/h
728 27-11-2013 03:10:00 0.6 C 4.75 g/m*3 0.6 C 3.2 km/h
729 27-11-2013 03:15:00 0.6 C 4.75 g/m*3 0.6 C 1.6 km/h
730 27-11-2013 03:20:00 0.6 C 4.75 g/m*3 0.6 C 1.6 km/h
731 27-11-2013 03:25:00 0.6 C 4.75 g/m*3 0.6 C 0 km/h
732 27-11-2013 03:30:00 0.6 C 4.75 g/m*3 0.6 C 0 km/h
733 27-11-2013 03:35:00 0.5 C 4.71 g/m*3 0.5 C 3.2 km/h
734 27-11-2013 03:40:00 0.5 C 4.71 g/m*3 0.5 C 3.2 km/h
735 27-11-2013 03:45:00 0.5 C 4.71 g/m*3 0.5 C 4.8 km/h
736 27-11-2013 03:50:00 0.5 C 4.71 g/m*3 0.5 C 3.2 km/h
737 27-11-2013 03:55:00 0.5 C 4.71 g/m*3 0.5 C 1.6 km/h
738 27-11-2013 04:00:00 0.5 C 4.71 g/m*3 0.5 C 3.2 km/h
739 27-11-2013 04:05:00 0.4 C 4.68 g/m*3 0.4 C 1.6 km/h
740 27-11-2013 04:10:00 0.4 C 4.68 g/m*3 0.4 C 1.6 km/h
741 27-11-2013 04:15:00 0.4 C 4.68 g/m*3 0.4 C 0 km/h
742 27-11-2013 04:20:00 0.4 C 4.68 g/m*3 0.4 C 0 km/h
743 27-11-2013 04:25:00 0.4 C 4.68 g/m*3 0.4 C 0 km/h
744 27-11-2013 04:30:00 0.4 C 4.68 g/m*3 0.4 C 0 km/h
745 27-11-2013 04:35:00 0.4 C 4.68 g/m*3 0.4 C 0 km/h
746 27-11-2013 04:40:00 0.4 C 4.63 g/m*3 0.4 C 0 km/h
747 27-11-2013 04:45:00 0.4 C 4.63 g/m*3 0.4 C 0 km/h
748 27-11-2013 04:50:00 0.4 C 4.63 g/m*3 0.4 C 3.2 km/h
749 27-11-2013 04:55:00 0.4 C 4.63 g/m*3 0.4 C 3.2 km/h
750 27-11-2013 05:00:00 0.4 C 4.63 g/m*3 0.4 C 1.6 km/h
Sensor: Nr:Datum:Temp:Abs-Feuchte:Windchill:Wind:
Aussen-T/F 751 27-11-2013 05:05:00 0.3 C 4.6 g/m*3 0.3 C 3.2 km/h
752 27-11-2013 05:10:00 0.3 C 4.6 g/m*3 0.3 C 1.6 km/h
753 27-11-2013 05:15:00 0.3 C 4.6 g/m*3 0.3 C 1.6 km/h
754 27-11-2013 05:20:00 0.3 C 4.6 g/m*3 0.3 C 1.6 km/h
755 27-11-2013 05:25:00 0.3 C 4.6 g/m*3 0.3 C 1.6 km/h
756 27-11-2013 05:30:00 0.3 C 4.6 g/m*3 0.3 C 4.8 km/h
757 27-11-2013 05:35:00 0.2 C 4.57 g/m*3 -1.95 C 6.4 km/h
758 27-11-2013 05:40:00 0.2 C 4.52 g/m*3 -1.95 C 6.4 km/h
759 27-11-2013 05:45:00 0.2 C 4.52 g/m*3 -1.95 C 6.4 km/h
760 27-11-2013 05:50:00 0.2 C 4.52 g/m*3 0.2 C 1.6 km/h
761 27-11-2013 05:55:00 0.2 C 4.52 g/m*3 0.2 C 3.2 km/h
762 27-11-2013 06:00:00 0.2 C 4.52 g/m*3 0.2 C 3.2 km/h
763 27-11-2013 06:05:00 0.1 C 4.49 g/m*3 0.1 C 4.8 km/h
764 27-11-2013 06:10:00 0.1 C 4.44 g/m*3 0.1 C 3.2 km/h
765 27-11-2013 06:15:00 0.1 C 4.44 g/m*3 0.1 C 3.2 km/h
766 27-11-2013 06:20:00 0.1 C 4.49 g/m*3 0.1 C 4.8 km/h
767 27-11-2013 06:25:00 0.1 C 4.49 g/m*3 0.1 C 3.2 km/h
768 27-11-2013 06:30:00 0.1 C 4.49 g/m*3 0.1 C 0 km/h
769 27-11-2013 06:35:00 0.1 C 4.44 g/m*3 0.1 C 3.2 km/h
770 27-11-2013 06:40:00 0.1 C 4.44 g/m*3 0.1 C 3.2 km/h
771 27-11-2013 06:45:00 0 C 4.46 g/m*3 0 C 4.8 km/h
772 27-11-2013 06:50:00 0 C 4.46 g/m*3 0 C 4.8 km/h
773 27-11-2013 06:55:00 0.1 C 4.49 g/m*3 0.1 C 1.6 km/h
774 27-11-2013 07:00:00 0 C 4.41 g/m*3 0 C 3.2 km/h
775 27-11-2013 07:05:00 0 C 4.41 g/m*3 0 C 4.8 km/h
Sensor: Nr:Datum:Temp:Abs-Feuchte:Windchill:Wind:
Aussen-T/F 776 27-11-2013 07:10:00 0 C 4.46 g/m*3 0 C 4.8 km/h
777 27-11-2013 07:15:00 0 C 4.46 g/m*3 -2.77 C 8.1 km/h
778 27-11-2013 07:20:00 -0.1 C 4.38 g/m*3 -2.89 C 8.1 km/h
779 27-11-2013 07:25:00 -0.1 C 4.38 g/m*3 -0.1 C 4.8 km/h
780 27-11-2013 07:30:00 -0.2 C 4.35 g/m*3 -0.2 C 4.8 km/h
781 27-11-2013 07:35:00 -0.2 C 4.4 g/m*3 -0.2 C 4.8 km/h
782 27-11-2013 07:40:00 -0.2 C 4.4 g/m*3 -0.2 C 3.2 km/h
783 27-11-2013 07:45:00 -0.2 C 4.4 g/m*3 -0.2 C 3.2 km/h
784 27-11-2013 07:50:00 -0.2 C 4.4 g/m*3 -0.2 C 4.8 km/h
785 27-11-2013 07:55:00 -0.2 C 4.4 g/m*3 -0.2 C 3.2 km/h
786 27-11-2013 08:00:00 -0.2 C 4.35 g/m*3 -0.2 C 4.8 km/h
787 27-11-2013 08:05:00 -0.2 C 4.4 g/m*3 -0.2 C 3.2 km/h
788 27-11-2013 08:10:00 -0.2 C 4.4 g/m*3 -0.2 C 4.8 km/h
789 27-11-2013 08:15:00 -0.2 C 4.4 g/m*3 -3 C 8.1 km/h
790 27-11-2013 08:20:00 -0.2 C 4.4 g/m*3 -0.2 C 4.8 km/h
791 27-11-2013 08:25:00 -0.2 C 4.4 g/m*3 -0.2 C 1.6 km/h
792 27-11-2013 08:30:00 -0.2 C 4.4 g/m*3 -2.41 C 6.4 km/h
793 27-11-2013 08:35:00 -0.2 C 4.4 g/m*3 -2.41 C 6.4 km/h
794 27-11-2013 08:40:00 -0.2 C 4.4 g/m*3 -0.2 C 4.8 km/h
795 27-11-2013 08:45:00 -0.2 C 4.35 g/m*3 -0.2 C 4.8 km/h
796 27-11-2013 08:50:00 -0.2 C 4.35 g/m*3 -2.41 C 6.4 km/h
797 27-11-2013 08:55:00 -0.2 C 4.35 g/m*3 -0.2 C 4.8 km/h
798 27-11-2013 09:00:00 -0.2 C 4.35 g/m*3 -0.2 C 3.2 km/h
799 27-11-2013 09:05:00 -0.2 C 4.35 g/m*3 -0.2 C 4.8 km/h
800 27-11-2013 09:10:00 -0.1 C 4.38 g/m*3 -0.1 C 4.8 km/h
Sensor: Nr:Datum:Temp:Abs-Feuchte:Windchill:Wind:
Aussen-T/F 801 27-11-2013 09:15:00 -0.1 C 4.38 g/m*3 -2.3 C 6.4 km/h
802 27-11-2013 09:20:00 -0.1 C 4.38 g/m*3 -0.1 C 4.8 km/h
803 27-11-2013 09:25:00 -0.1 C 4.38 g/m*3 -0.1 C 4.8 km/h
804 27-11-2013 09:30:00 -0.1 C 4.38 g/m*3 -0.1 C 3.2 km/h
805 27-11-2013 09:35:00 0 C 4.46 g/m*3 0 C 4.8 km/h
806 27-11-2013 09:40:00 0 C 4.46 g/m*3 0 C 4.8 km/h
807 27-11-2013 09:45:00 0 C 4.46 g/m*3 -2.18 C 6.4 km/h
808 27-11-2013 09:50:00 0 C 4.46 g/m*3 0 C 3.2 km/h
809 27-11-2013 09:55:00 -0.1 C 4.38 g/m*3 -0.1 C 3.2 km/h
810 27-11-2013 10:00:00 -0.1 C 4.43 g/m*3 -0.1 C 4.8 km/h
811 27-11-2013 10:05:00 0 C 4.46 g/m*3 0 C 3.2 km/h
812 27-11-2013 10:10:00 0 C 4.41 g/m*3 -2.18 C 6.4 km/h
813 27-11-2013 10:15:00 0 C 4.41 g/m*3 -2.18 C 6.4 km/h
814 27-11-2013 10:20:00 0 C 4.46 g/m*3 -2.18 C 6.4 km/h
815 27-11-2013 10:25:00 0.1 C 4.44 g/m*3 -2.65 C 8.1 km/h
816 27-11-2013 10:30:00 0.1 C 4.44 g/m*3 -2.07 C 6.4 km/h
817 27-11-2013 10:35:00 0.2 C 4.47 g/m*3 0.2 C 4.8 km/h
818 27-11-2013 10:40:00 0.2 C 4.47 g/m*3 -1.95 C 6.4 km/h
819 27-11-2013 10:45:00 0.2 C 4.47 g/m*3 -2.53 C 8.1 km/h
820 27-11-2013 10:50:00 0.2 C 4.47 g/m*3 -2.53 C 8.1 km/h
821 27-11-2013 10:55:00 0.2 C 4.42 g/m*3 0.2 C 4.8 km/h
822 27-11-2013 11:00:00 0.2 C 4.47 g/m*3 -1.95 C 6.4 km/h
823 27-11-2013 11:05:00 0.1 C 4.39 g/m*3 -2.07 C 6.4 km/h
824 27-11-2013 11:10:00 0.1 C 4.39 g/m*3 0.1 C 4.8 km/h
825 27-11-2013 11:15:00 0.1 C 4.44 g/m*3 -2.65 C 8.1 km/h
Sensor: Nr:Datum:Temp:Abs-Feuchte:Windchill:Wind:
Aussen-T/F 826 27-11-2013 11:20:00 0.1 C 4.39 g/m*3 -2.07 C 6.4 km/h
827 27-11-2013 11:25:00 0.1 C 4.39 g/m*3 -2.07 C 6.4 km/h
828 27-11-2013 11:30:00 0.1 C 4.44 g/m*3 -2.07 C 6.4 km/h
829 27-11-2013 11:35:00 0.1 C 4.39 g/m*3 -2.07 C 6.4 km/h
830 27-11-2013 11:40:00 0.2 C 4.47 g/m*3 0.2 C 4.8 km/h
831 27-11-2013 11:45:00 0.2 C 4.42 g/m*3 -2.53 C 8.1 km/h
832 27-11-2013 11:50:00 0.2 C 4.42 g/m*3 0.2 C 4.8 km/h
833 27-11-2013 11:55:00 0.2 C 4.42 g/m*3 0.2 C 4.8 km/h
834 27-11-2013 12:00:00 0.3 C 4.5 g/m*3 0.3 C 3.2 km/h
835 27-11-2013 12:05:00 0.4 C 4.48 g/m*3 -1.72 C 6.4 km/h
836 27-11-2013 12:10:00 0.4 C 4.48 g/m*3 0.4 C 3.2 km/h
837 27-11-2013 12:15:00 0.6 C 4.54 g/m*3 0.6 C 4.8 km/h
838 27-11-2013 12:20:00 0.7 C 4.58 g/m*3 0.7 C 4.8 km/h
839 27-11-2013 12:25:00 0.8 C 4.56 g/m*3 0.8 C 4.8 km/h
840 27-11-2013 12:30:00 0.8 C 4.56 g/m*3 0.8 C 3.2 km/h
841 27-11-2013 12:35:00 0.8 C 4.56 g/m*3 0.8 C 4.8 km/h
842 27-11-2013 12:40:00 0.8 C 4.56 g/m*3 0.8 C 3.2 km/h
843 27-11-2013 12:45:00 0.8 C 4.56 g/m*3 0.8 C 3.2 km/h
844 27-11-2013 12:50:00 0.9 C 4.59 g/m*3 0.9 C 0 km/h
845 27-11-2013 12:55:00 0.9 C 4.59 g/m*3 0.9 C 0 km/h
846 27-11-2013 13:00:00 1 C 4.57 g/m*3 1 C 0 km/h
847 27-11-2013 13:05:00 1 C 4.57 g/m*3 1 C 0 km/h
848 27-11-2013 13:10:00 1 C 4.62 g/m*3 1 C 0 km/h
849 27-11-2013 13:15:00 1.1 C 4.6 g/m*3 1.1 C 1.6 km/h
850 27-11-2013 13:20:00 1.1 C 4.65 g/m*3 1.1 C 0 km/h
Sensor: Nr:Datum:Temp:Abs-Feuchte:Windchill:Wind:
Aussen-T/F 851 27-11-2013 13:25:00 1.1 C 4.65 g/m*3 1.1 C 0 km/h
852 27-11-2013 13:30:00 1.1 C 4.65 g/m*3 1.1 C 0 km/h
853 27-11-2013 13:35:00 1.1 C 4.65 g/m*3 1.1 C 1.6 km/h
854 27-11-2013 13:40:00 1.2 C 4.68 g/m*3 1.2 C 1.6 km/h
855 27-11-2013 13:45:00 1.3 C 4.72 g/m*3 1.3 C 1.6 km/h
856 27-11-2013 13:50:00 1.3 C 4.66 g/m*3 1.3 C 1.6 km/h
857 27-11-2013 13:55:00 1.4 C 4.69 g/m*3 1.4 C 4.8 km/h
858 27-11-2013 14:00:00 1.4 C 4.69 g/m*3 1.4 C 3.2 km/h
859 27-11-2013 14:05:00 1.4 C 4.75 g/m*3 1.4 C 0 km/h
860 27-11-2013 14:10:00 1.4 C 4.75 g/m*3 1.4 C 0 km/h
861 27-11-2013 14:15:00 1.5 C 4.78 g/m*3 1.5 C 1.6 km/h
862 27-11-2013 14:20:00 1.6 C 4.81 g/m*3 1.6 C 0 km/h
863 27-11-2013 14:25:00 1.6 C 4.81 g/m*3 1.6 C 3.2 km/h
864 27-11-2013 14:30:00 1.7 C 4.85 g/m*3 1.7 C 4.8 km/h
865 27-11-2013 14:35:00 1.8 C 4.82 g/m*3 1.8 C 3.2 km/h
866 27-11-2013 14:40:00 1.8 C 4.82 g/m*3 1.8 C 3.2 km/h
867 27-11-2013 14:45:00 1.8 C 4.82 g/m*3 1.8 C 1.6 km/h
868 27-11-2013 14:50:00 1.8 C 4.82 g/m*3 1.8 C 1.6 km/h
869 27-11-2013 14:55:00 1.8 C 4.82 g/m*3 1.8 C 0 km/h
870 27-11-2013 15:00:00 1.7 C 4.79 g/m*3 1.7 C 0 km/h
871 27-11-2013 15:05:00 1.7 C 4.85 g/m*3 1.7 C 0 km/h
872 27-11-2013 15:10:00 1.6 C 4.81 g/m*3 1.6 C 3.2 km/h
873 27-11-2013 15:15:00 1.6 C 4.81 g/m*3 1.6 C 0 km/h
874 27-11-2013 15:20:00 1.5 C 4.83 g/m*3 1.5 C 0 km/h
875 27-11-2013 15:25:00 1.4 C 4.8 g/m*3 1.4 C 0 km/h
Sensor: Nr:Datum:Temp:Abs-Feuchte:Windchill:Wind:
Aussen-T/F 876 27-11-2013 15:30:00 1.4 C 4.8 g/m*3 1.4 C 0 km/h
877 27-11-2013 15:35:00 1.4 C 4.8 g/m*3 1.4 C 0 km/h
878 27-11-2013 15:40:00 1.2 C 4.74 g/m*3 1.2 C 0 km/h
879 27-11-2013 15:45:00 1.1 C 4.76 g/m*3 1.1 C 0 km/h
880 27-11-2013 15:50:00 1 C 4.72 g/m*3 1 C 1.6 km/h
881 27-11-2013 15:55:00 0.9 C 4.74 g/m*3 0.9 C 0 km/h
882 27-11-2013 16:00:00 0.9 C 4.74 g/m*3 0.9 C 0 km/h
883 27-11-2013 16:05:00 0.9 C 4.74 g/m*3 0.9 C 0 km/h
884 27-11-2013 16:10:00 0.8 C 4.71 g/m*3 0.8 C 0 km/h
885 27-11-2013 16:15:00 0.8 C 4.71 g/m*3 0.8 C 0 km/h
886 27-11-2013 16:20:00 0.7 C 4.73 g/m*3 0.7 C 0 km/h
887 27-11-2013 16:25:00 0.7 C 4.73 g/m*3 0.7 C 0 km/h
888 27-11-2013 16:30:00 0.7 C 4.73 g/m*3 0.7 C 0 km/h
889 27-11-2013 16:35:00 0.7 C 4.73 g/m*3 0.7 C 0 km/h
890 27-11-2013 16:40:00 0.7 C 4.73 g/m*3 0.7 C 0 km/h
891 27-11-2013 16:45:00 0.6 C 4.7 g/m*3 0.6 C 0 km/h
892 27-11-2013 16:50:00 0.6 C 4.7 g/m*3 0.6 C 0 km/h
893 27-11-2013 16:55:00 0.5 C 4.66 g/m*3 0.5 C 0 km/h
894 27-11-2013 17:00:00 0.5 C 4.66 g/m*3 0.5 C 0 km/h
895 27-11-2013 17:05:00 0.5 C 4.66 g/m*3 0.5 C 0 km/h
896 27-11-2013 17:10:00 0.5 C 4.71 g/m*3 0.5 C 1.6 km/h
897 27-11-2013 17:15:00 0.5 C 4.71 g/m*3 0.5 C 0 km/h
898 27-11-2013 17:20:00 0.6 C 4.75 g/m*3 0.6 C 0 km/h
899 27-11-2013 17:25:00 0.6 C 4.75 g/m*3 0.6 C 0 km/h
900 27-11-2013 17:30:00 0.6 C 4.75 g/m*3 0.6 C 0 km/h
Sensor: Nr:Datum:Temp:Abs-Feuchte:Windchill:Wind:
Aussen-T/F 901 27-11-2013 17:35:00 0.5 C 4.71 g/m*3 0.5 C 0 km/h
902 27-11-2013 17:40:00 0.5 C 4.71 g/m*3 0.5 C 0 km/h
903 27-11-2013 17:45:00 0.5 C 4.71 g/m*3 0.5 C 0 km/h
904 27-11-2013 17:50:00 0.5 C 4.71 g/m*3 0.5 C 0 km/h
905 27-11-2013 17:55:00 0.6 C 4.75 g/m*3 0.6 C 0 km/h
906 27-11-2013 18:00:00 0.6 C 4.75 g/m*3 0.6 C 0 km/h
907 27-11-2013 18:05:00 0.7 C 4.78 g/m*3 0.7 C 0 km/h
908 27-11-2013 18:10:00 0.7 C 4.78 g/m*3 0.7 C 0 km/h
909 27-11-2013 18:15:00 0.7 C 4.78 g/m*3 0.7 C 0 km/h
910 27-11-2013 18:20:00 0.7 C 4.78 g/m*3 0.7 C 0 km/h
911 27-11-2013 18:25:00 0.8 C 4.81 g/m*3 0.8 C 0 km/h
912 27-11-2013 18:30:00 0.8 C 4.81 g/m*3 0.8 C 0 km/h
913 27-11-2013 18:35:00 0.8 C 4.81 g/m*3 0.8 C 0 km/h
914 27-11-2013 18:40:00 0.8 C 4.81 g/m*3 0.8 C 0 km/h
915 27-11-2013 18:45:00 0.8 C 4.81 g/m*3 0.8 C 0 km/h
916 27-11-2013 18:50:00 0.8 C 4.81 g/m*3 0.8 C 0 km/h
917 27-11-2013 18:55:00 0.9 C 4.85 g/m*3 0.9 C 0 km/h
918 27-11-2013 19:00:00 0.9 C 4.85 g/m*3 0.9 C 0 km/h
919 27-11-2013 19:05:00 0.9 C 4.85 g/m*3 0.9 C 0 km/h
920 27-11-2013 19:10:00 1 C 4.88 g/m*3 1 C 0 km/h
921 27-11-2013 19:15:00 1 C 4.88 g/m*3 1 C 0 km/h
922 27-11-2013 19:20:00 1.1 C 4.91 g/m*3 1.1 C 0 km/h
923 27-11-2013 19:25:00 1.1 C 4.91 g/m*3 1.1 C 0 km/h
924 27-11-2013 19:30:00 1.1 C 4.91 g/m*3 1.1 C 0 km/h
925 27-11-2013 19:35:00 1.1 C 4.86 g/m*3 1.1 C 0 km/h
Sensor: Nr:Datum:Temp:Abs-Feuchte:Windchill:Wind:
Aussen-T/F 926 27-11-2013 19:40:00 1.1 C 4.86 g/m*3 1.1 C 0 km/h
927 27-11-2013 19:45:00 1.1 C 4.86 g/m*3 1.1 C 0 km/h
928 27-11-2013 19:50:00 1 C 4.83 g/m*3 1 C 0 km/h
929 27-11-2013 19:55:00 1 C 4.83 g/m*3 1 C 0 km/h
930 27-11-2013 20:00:00 1 C 4.83 g/m*3 1 C 0 km/h
931 27-11-2013 20:05:00 0.9 C 4.79 g/m*3 0.9 C 0 km/h
932 27-11-2013 20:10:00 0.9 C 4.79 g/m*3 0.9 C 0 km/h
933 27-11-2013 20:15:00 0.8 C 4.76 g/m*3 0.8 C 0 km/h
934 27-11-2013 20:20:00 0.8 C 4.76 g/m*3 0.8 C 0 km/h
935 27-11-2013 20:25:00 0.7 C 4.73 g/m*3 0.7 C 0 km/h
936 27-11-2013 20:30:00 0.7 C 4.78 g/m*3 0.7 C 0 km/h
937 27-11-2013 20:35:00 0.6 C 4.75 g/m*3 0.6 C 0 km/h
938 27-11-2013 20:40:00 0.5 C 4.71 g/m*3 0.5 C 1.6 km/h
939 27-11-2013 20:45:00 0.5 C 4.71 g/m*3 0.5 C 0 km/h
940 27-11-2013 20:50:00 0.5 C 4.71 g/m*3 0.5 C 0 km/h
941 27-11-2013 20:55:00 0.6 C 4.75 g/m*3 0.6 C 0 km/h
942 27-11-2013 21:00:00 0.7 C 4.78 g/m*3 0.7 C 0 km/h
943 27-11-2013 21:05:00 0.7 C 4.78 g/m*3 0.7 C 0 km/h
944 27-11-2013 21:10:00 0.8 C 4.81 g/m*3 0.8 C 0 km/h
945 27-11-2013 21:15:00 0.8 C 4.81 g/m*3 0.8 C 0 km/h
946 27-11-2013 21:20:00 0.8 C 4.81 g/m*3 0.8 C 0 km/h
947 27-11-2013 21:25:00 0.9 C 4.85 g/m*3 0.9 C 0 km/h
948 27-11-2013 21:30:00 0.9 C 4.85 g/m*3 0.9 C 0 km/h
949 27-11-2013 21:35:00 0.9 C 4.85 g/m*3 0.9 C 0 km/h
950 27-11-2013 21:40:00 0.9 C 4.85 g/m*3 0.9 C 0 km/h
Sensor: Nr:Datum:Temp:Abs-Feuchte:Windchill:Wind:
Aussen-T/F 951 27-11-2013 21:45:00 1 C 4.88 g/m*3 1 C 0 km/h
952 27-11-2013 21:50:00 1 C 4.88 g/m*3 1 C 0 km/h
953 27-11-2013 21:55:00 1.1 C 4.91 g/m*3 1.1 C 0 km/h
954 27-11-2013 22:00:00 1.1 C 4.91 g/m*3 1.1 C 0 km/h
955 27-11-2013 22:05:00 1.1 C 4.91 g/m*3 1.1 C 0 km/h
956 27-11-2013 22:10:00 1.1 C 4.91 g/m*3 1.1 C 0 km/h
957 27-11-2013 22:15:00 1.2 C 4.95 g/m*3 1.2 C 0 km/h
958 27-11-2013 22:20:00 1.2 C 4.95 g/m*3 1.2 C 0 km/h
959 27-11-2013 22:25:00 1.2 C 4.95 g/m*3 1.2 C 0 km/h
960 27-11-2013 22:30:00 1.2 C 4.95 g/m*3 1.2 C 0 km/h
961 27-11-2013 22:35:00 1.3 C 4.98 g/m*3 1.3 C 0 km/h
962 27-11-2013 22:40:00 1.3 C 4.98 g/m*3 1.3 C 0 km/h
963 27-11-2013 22:45:00 1.3 C 4.98 g/m*3 1.3 C 0 km/h
964 27-11-2013 22:50:00 1.3 C 4.98 g/m*3 1.3 C 0 km/h
965 27-11-2013 22:55:00 1.3 C 4.98 g/m*3 1.3 C 0 km/h
966 27-11-2013 23:00:00 1.4 C 5.01 g/m*3 1.4 C 0 km/h
967 27-11-2013 23:05:00 1.4 C 5.01 g/m*3 1.4 C 0 km/h
968 27-11-2013 23:10:00 1.4 C 5.01 g/m*3 1.4 C 0 km/h
969 27-11-2013 23:15:00 1.4 C 5.01 g/m*3 1.4 C 0 km/h
970 27-11-2013 23:20:00 1.4 C 5.01 g/m*3 1.4 C 0 km/h
971 27-11-2013 23:25:00 1.5 C 4.99 g/m*3 1.5 C 0 km/h
972 27-11-2013 23:30:00 1.5 C 4.99 g/m*3 1.5 C 0 km/h
973 27-11-2013 23:35:00 1.5 C 4.99 g/m*3 1.5 C 0 km/h
974 27-11-2013 23:40:00 1.5 C 4.99 g/m*3 1.5 C 0 km/h
975 27-11-2013 23:45:00 1.5 C 4.99 g/m*3 1.5 C 0 km/h
Sensor: Nr:Datum:Temp:Abs-Feuchte:Windchill:Wind:
Aussen-T/F 976 27-11-2013 23:50:00 1.6 C 5.03 g/m*3 1.6 C 0 km/h
977 27-11-2013 23:55:00 1.6 C 5.03 g/m*3 1.6 C 0 km/h
978 28-11-2013 00:00:00 1.6 C 5.03 g/m*3 1.6 C 0 km/h
979 28-11-2013 00:05:00 1.6 C 5.03 g/m*3 1.6 C 0 km/h
980 28-11-2013 00:10:00 1.6 C 5.03 g/m*3 1.6 C 0 km/h
981 28-11-2013 00:15:00 1.6 C 5.03 g/m*3 1.6 C 0 km/h
982 28-11-2013 00:20:00 1.6 C 5.03 g/m*3 1.6 C 0 km/h
983 28-11-2013 00:25:00 1.6 C 5.03 g/m*3 1.6 C 0 km/h
984 28-11-2013 00:30:00 1.6 C 5.03 g/m*3 1.6 C 0 km/h
985 28-11-2013 00:35:00 1.6 C 5.03 g/m*3 1.6 C 0 km/h
986 28-11-2013 00:40:00 1.7 C 5.06 g/m*3 1.7 C 0 km/h
987 28-11-2013 00:45:00 1.7 C 5.06 g/m*3 1.7 C 0 km/h
988 28-11-2013 00:50:00 1.7 C 5.06 g/m*3 1.7 C 0 km/h
989 28-11-2013 00:55:00 1.8 C 5.1 g/m*3 1.8 C 0 km/h
990 28-11-2013 01:00:00 1.8 C 5.1 g/m*3 1.8 C 0 km/h
991 28-11-2013 01:05:00 1.8 C 5.1 g/m*3 1.8 C 1.6 km/h
992 28-11-2013 01:10:00 1.8 C 5.04 g/m*3 1.8 C 1.6 km/h
993 28-11-2013 01:15:00 1.9 C 5.02 g/m*3 1.9 C 0 km/h
994 28-11-2013 01:20:00 1.9 C 5.02 g/m*3 1.9 C 1.6 km/h
995 28-11-2013 01:25:00 2 C 5.06 g/m*3 2 C 1.6 km/h
996 28-11-2013 01:30:00 2.1 C 5.15 g/m*3 2.1 C 1.6 km/h
997 28-11-2013 01:35:00 2.1 C 5.15 g/m*3 2.1 C 0 km/h
998 28-11-2013 01:40:00 2.1 C 5.15 g/m*3 2.1 C 1.6 km/h
999 28-11-2013 01:45:00 2.1 C 5.15 g/m*3 2.1 C 3.2 km/h
1000 28-11-2013 01:50:00 2 C 5.06 g/m*3 2 C 3.2 km/h
Sensor: Nr:Datum:Temp:Abs-Feuchte:Windchill:Wind:
Aussen-T/F 1001 28-11-2013 01:55:00 2.1 C 5.04 g/m*3 2.1 C 1.6 km/h
1002 28-11-2013 02:00:00 2.2 C 5.01 g/m*3 -0.61 C 9.7 km/h
1003 28-11-2013 02:05:00 2.3 C 5.05 g/m*3 2.3 C 4.8 km/h
1004 28-11-2013 02:10:00 2.3 C 4.99 g/m*3 2.3 C 3.2 km/h
1005 28-11-2013 02:15:00 2.3 C 5.05 g/m*3 2.3 C 1.6 km/h
1006 28-11-2013 02:20:00 2.3 C 5.05 g/m*3 2.3 C 3.2 km/h
1007 28-11-2013 02:25:00 2.3 C 4.99 g/m*3 -0.49 C 9.7 km/h
1008 28-11-2013 02:30:00 2.4 C 5.02 g/m*3 0.05 C 8.1 km/h
1009 28-11-2013 02:35:00 2.5 C 5.06 g/m*3 0.71 C 6.4 km/h
1010 28-11-2013 02:40:00 2.5 C 5.06 g/m*3 2.5 C 4.8 km/h
1011 28-11-2013 02:45:00 2.5 C 5.06 g/m*3 2.5 C 1.6 km/h
1012 28-11-2013 02:50:00 2.4 C 5.02 g/m*3 2.4 C 4.8 km/h
1013 28-11-2013 02:55:00 2.5 C 5.06 g/m*3 0.17 C 8.1 km/h
1014 28-11-2013 03:00:00 2.5 C 5.06 g/m*3 2.5 C 3.2 km/h
1015 28-11-2013 03:05:00 2.6 C 5.09 g/m*3 2.6 C 4.8 km/h
1016 28-11-2013 03:10:00 2.6 C 5.09 g/m*3 2.6 C 1.6 km/h
1017 28-11-2013 03:15:00 2.6 C 5.09 g/m*3 2.6 C 3.2 km/h
1018 28-11-2013 03:20:00 2.6 C 5.15 g/m*3 2.6 C 0 km/h
1019 28-11-2013 03:25:00 2.5 C 5.17 g/m*3 2.5 C 1.6 km/h
1020 28-11-2013 03:30:00 2.5 C 5.17 g/m*3 2.5 C 3.2 km/h
1021 28-11-2013 03:35:00 2.5 C 5.17 g/m*3 2.5 C 4.8 km/h
1022 28-11-2013 03:40:00 2.4 C 5.14 g/m*3 2.4 C 1.6 km/h
1023 28-11-2013 03:45:00 2.4 C 5.2 g/m*3 2.4 C 1.6 km/h
1024 28-11-2013 03:50:00 2.4 C 5.2 g/m*3 2.4 C 1.6 km/h
1025 28-11-2013 03:55:00 2.4 C 5.2 g/m*3 2.4 C 0 km/h
Sensor: Nr:Datum:Temp:Abs-Feuchte:Windchill:Wind:
Aussen-T/F 1026 28-11-2013 04:00:00 2.4 C 5.2 g/m*3 2.4 C 1.6 km/h
1027 28-11-2013 04:05:00 2.4 C 5.14 g/m*3 2.4 C 0 km/h
1028 28-11-2013 04:10:00 2.4 C 5.14 g/m*3 2.4 C 3.2 km/h
1029 28-11-2013 04:15:00 2.5 C 5.17 g/m*3 2.5 C 3.2 km/h
1030 28-11-2013 04:20:00 2.5 C 5.17 g/m*3 0.71 C 6.4 km/h
1031 28-11-2013 04:25:00 2.6 C 5.21 g/m*3 2.6 C 3.2 km/h
1032 28-11-2013 04:30:00 2.6 C 5.21 g/m*3 2.6 C 0 km/h
1033 28-11-2013 04:35:00 2.6 C 5.27 g/m*3 2.6 C 0 km/h
1034 28-11-2013 04:40:00 2.6 C 5.27 g/m*3 2.6 C 0 km/h
1035 28-11-2013 04:45:00 2.6 C 5.27 g/m*3 2.6 C 0 km/h
1036 28-11-2013 04:50:00 2.6 C 5.27 g/m*3 2.6 C 0 km/h
1037 28-11-2013 04:55:00 2.6 C 5.27 g/m*3 2.6 C 0 km/h
1038 28-11-2013 05:00:00 2.6 C 5.27 g/m*3 2.6 C 0 km/h
1039 28-11-2013 05:05:00 2.6 C 5.27 g/m*3 2.6 C 1.6 km/h
1040 28-11-2013 05:10:00 2.6 C 5.27 g/m*3 2.6 C 0 km/h
1041 28-11-2013 05:15:00 2.6 C 5.27 g/m*3 2.6 C 0 km/h
1042 28-11-2013 05:20:00 2.6 C 5.32 g/m*3 2.6 C 0 km/h
1043 28-11-2013 05:25:00 2.6 C 5.27 g/m*3 2.6 C 0 km/h
1044 28-11-2013 05:30:00 2.6 C 5.27 g/m*3 2.6 C 0 km/h
1045 28-11-2013 05:35:00 2.7 C 5.24 g/m*3 2.7 C 0 km/h
1046 28-11-2013 05:40:00 2.7 C 5.3 g/m*3 2.7 C 1.6 km/h
1047 28-11-2013 05:45:00 2.7 C 5.24 g/m*3 2.7 C 0 km/h
1048 28-11-2013 05:50:00 2.7 C 5.24 g/m*3 2.7 C 0 km/h
1049 28-11-2013 05:55:00 2.7 C 5.24 g/m*3 2.7 C 3.2 km/h
1050 28-11-2013 06:00:00 2.7 C 5.24 g/m*3 2.7 C 3.2 km/h
Sensor: Nr:Datum:Temp:Abs-Feuchte:Windchill:Wind:
Aussen-T/F 1051 28-11-2013 06:05:00 2.7 C 5.3 g/m*3 0.94 C 6.4 km/h
1052 28-11-2013 06:10:00 2.7 C 5.3 g/m*3 0.4 C 8.1 km/h
1053 28-11-2013 06:15:00 2.7 C 5.3 g/m*3 2.7 C 0 km/h
1054 28-11-2013 06:20:00 2.7 C 5.36 g/m*3 2.7 C 1.6 km/h
1055 28-11-2013 06:25:00 2.7 C 5.36 g/m*3 2.7 C 0 km/h
1056 28-11-2013 06:30:00 2.7 C 5.36 g/m*3 2.7 C 1.6 km/h
1057 28-11-2013 06:35:00 2.7 C 5.36 g/m*3 2.7 C 1.6 km/h
1058 28-11-2013 06:40:00 2.7 C 5.36 g/m*3 2.7 C 1.6 km/h
1059 28-11-2013 06:45:00 2.7 C 5.42 g/m*3 2.7 C 0 km/h
1060 28-11-2013 06:50:00 2.6 C 5.38 g/m*3 2.6 C 1.6 km/h
1061 28-11-2013 06:55:00 2.6 C 5.38 g/m*3 2.6 C 0 km/h
1062 28-11-2013 07:00:00 2.6 C 5.38 g/m*3 2.6 C 0 km/h
1063 28-11-2013 07:05:00 2.6 C 5.44 g/m*3 2.6 C 0 km/h
1064 28-11-2013 07:10:00 2.6 C 5.44 g/m*3 2.6 C 0 km/h
1065 28-11-2013 07:15:00 2.6 C 5.44 g/m*3 2.6 C 0 km/h
1066 28-11-2013 07:20:00 2.6 C 5.44 g/m*3 2.6 C 3.2 km/h
1067 28-11-2013 07:25:00 2.6 C 5.44 g/m*3 2.6 C 0 km/h
1068 28-11-2013 07:30:00 2.6 C 5.44 g/m*3 2.6 C 0 km/h
1069 28-11-2013 07:35:00 2.6 C 5.5 g/m*3 2.6 C 0 km/h
1070 28-11-2013 07:40:00 2.6 C 5.5 g/m*3 2.6 C 0 km/h
1071 28-11-2013 07:45:00 2.6 C 5.5 g/m*3 2.6 C 3.2 km/h
1072 28-11-2013 07:50:00 2.6 C 5.5 g/m*3 2.6 C 4.8 km/h
1073 28-11-2013 07:55:00 2.6 C 5.5 g/m*3 0.82 C 6.4 km/h
1074 28-11-2013 08:00:00 2.5 C 5.46 g/m*3 2.5 C 3.2 km/h
1075 28-11-2013 08:05:00 2.5 C 5.46 g/m*3 0.71 C 6.4 km/h
Sensor: Nr:Datum:Temp:Abs-Feuchte:Windchill:Wind:
Aussen-T/F 1076 28-11-2013 08:10:00 2.5 C 5.46 g/m*3 2.5 C 3.2 km/h
1077 28-11-2013 08:15:00 2.5 C 5.46 g/m*3 2.5 C 1.6 km/h
1078 28-11-2013 08:20:00 2.5 C 5.52 g/m*3 2.5 C 0 km/h
1079 28-11-2013 08:25:00 2.5 C 5.52 g/m*3 2.5 C 0 km/h
1080 28-11-2013 08:30:00 2.5 C 5.52 g/m*3 2.5 C 0 km/h
1081 28-11-2013 08:35:00 2.5 C 5.52 g/m*3 2.5 C 3.2 km/h
1082 28-11-2013 08:40:00 2.5 C 5.52 g/m*3 2.5 C 0 km/h
1083 28-11-2013 08:45:00 2.5 C 5.52 g/m*3 2.5 C 0 km/h
1084 28-11-2013 08:50:00 2.5 C 5.52 g/m*3 2.5 C 4.8 km/h
1085 28-11-2013 08:55:00 2.5 C 5.52 g/m*3 2.5 C 4.8 km/h
1086 28-11-2013 09:00:00 2.5 C 5.52 g/m*3 2.5 C 3.2 km/h
1087 28-11-2013 09:05:00 2.6 C 5.56 g/m*3 2.6 C 4.8 km/h
1088 28-11-2013 09:10:00 2.6 C 5.56 g/m*3 2.6 C 3.2 km/h
1089 28-11-2013 09:15:00 2.6 C 5.56 g/m*3 2.6 C 3.2 km/h
1090 28-11-2013 09:20:00 2.6 C 5.56 g/m*3 2.6 C 1.6 km/h
1091 28-11-2013 09:25:00 2.6 C 5.56 g/m*3 2.6 C 0 km/h
1092 28-11-2013 09:30:00 2.6 C 5.56 g/m*3 2.6 C 1.6 km/h
1093 28-11-2013 09:35:00 2.6 C 5.56 g/m*3 2.6 C 1.6 km/h
1094 28-11-2013 09:40:00 2.6 C 5.56 g/m*3 2.6 C 3.2 km/h
1095 28-11-2013 09:45:00 2.6 C 5.56 g/m*3 2.6 C 3.2 km/h
1096 28-11-2013 09:50:00 2.7 C 5.59 g/m*3 2.7 C 3.2 km/h
1097 28-11-2013 09:55:00 2.7 C 5.59 g/m*3 0.94 C 6.4 km/h
1098 28-11-2013 10:00:00 2.7 C 5.59 g/m*3 2.7 C 4.8 km/h
1099 28-11-2013 10:05:00 2.8 C 5.63 g/m*3 1.05 C 6.4 km/h
1100 28-11-2013 10:10:00 2.8 C 5.63 g/m*3 0.52 C 8.1 km/h
Sensor: Nr:Datum:Temp:Abs-Feuchte:Windchill:Wind:
Aussen-T/F 1101 28-11-2013 10:15:00 2.8 C 5.63 g/m*3 2.8 C 4.8 km/h
1102 28-11-2013 10:20:00 2.9 C 5.73 g/m*3 2.9 C 4.8 km/h
1103 28-11-2013 10:25:00 2.9 C 5.67 g/m*3 2.9 C 3.2 km/h
1104 28-11-2013 10:30:00 3 C 5.71 g/m*3 3 C 3.2 km/h
1105 28-11-2013 10:35:00 3.1 C 5.75 g/m*3 3.1 C 3.2 km/h
1106 28-11-2013 10:40:00 3.1 C 5.81 g/m*3 3.1 C 4.8 km/h
1107 28-11-2013 10:45:00 3.1 C 5.81 g/m*3 3.1 C 3.2 km/h
1108 28-11-2013 10:50:00 3.1 C 5.81 g/m*3 3.1 C 1.6 km/h
1109 28-11-2013 10:55:00 3.2 C 5.79 g/m*3 3.2 C 1.6 km/h
1110 28-11-2013 11:00:00 3.2 C 5.79 g/m*3 3.2 C 3.2 km/h
1111 28-11-2013 11:05:00 3.2 C 5.79 g/m*3 3.2 C 3.2 km/h
1112 28-11-2013 11:10:00 3.3 C 5.82 g/m*3 3.3 C 3.2 km/h
1113 28-11-2013 11:15:00 3.3 C 5.82 g/m*3 3.3 C 3.2 km/h
1114 28-11-2013 11:20:00 3.3 C 5.88 g/m*3 3.3 C 4.8 km/h
1115 28-11-2013 11:25:00 3.4 C 5.86 g/m*3 3.4 C 4.8 km/h
1116 28-11-2013 11:30:00 3.5 C 5.9 g/m*3 1.86 C 6.4 km/h
1117 28-11-2013 11:35:00 3.5 C 5.9 g/m*3 1.86 C 6.4 km/h
1118 28-11-2013 11:40:00 3.6 C 5.94 g/m*3 3.6 C 4.8 km/h
1119 28-11-2013 11:45:00 3.7 C 5.98 g/m*3 3.7 C 4.8 km/h
1120 28-11-2013 11:50:00 3.6 C 5.94 g/m*3 1.98 C 6.4 km/h
1121 28-11-2013 11:55:00 3.7 C 5.98 g/m*3 2.09 C 6.4 km/h
1122 28-11-2013 12:00:00 3.7 C 5.98 g/m*3 3.7 C 4.8 km/h
1123 28-11-2013 12:05:00 3.8 C 6.02 g/m*3 3.8 C 3.2 km/h
1124 28-11-2013 12:10:00 3.8 C 6.02 g/m*3 3.8 C 4.8 km/h
1125 28-11-2013 12:15:00 3.8 C 6.02 g/m*3 2.21 C 6.4 km/h
Sensor: Nr:Datum:Temp:Abs-Feuchte:Windchill:Wind:
Aussen-T/F 1126 28-11-2013 12:20:00 3.9 C 6.06 g/m*3 3.9 C 4.8 km/h
1127 28-11-2013 12:25:00 3.9 C 6.06 g/m*3 3.9 C 3.2 km/h
1128 28-11-2013 12:30:00 3.9 C 6.06 g/m*3 3.9 C 4.8 km/h
1129 28-11-2013 12:35:00 4 C 6.1 g/m*3 4 C 4.8 km/h
1130 28-11-2013 12:40:00 4.1 C 6.14 g/m*3 4.1 C 4.8 km/h
1131 28-11-2013 12:45:00 4.1 C 6.14 g/m*3 2.55 C 6.4 km/h
1132 28-11-2013 12:50:00 4.1 C 6.14 g/m*3 2.55 C 6.4 km/h
1133 28-11-2013 12:55:00 4.1 C 6.14 g/m*3 2.05 C 8.1 km/h
1134 28-11-2013 13:00:00 4.1 C 6.14 g/m*3 2.05 C 8.1 km/h
1135 28-11-2013 13:05:00 4.2 C 6.19 g/m*3 2.67 C 6.4 km/h
1136 28-11-2013 13:10:00 4.1 C 6.14 g/m*3 2.55 C 6.4 km/h
1137 28-11-2013 13:15:00 4.1 C 6.14 g/m*3 2.05 C 8.1 km/h
1138 28-11-2013 13:20:00 4.1 C 6.14 g/m*3 4.1 C 3.2 km/h
1139 28-11-2013 13:25:00 4.1 C 6.14 g/m*3 4.1 C 3.2 km/h
1140 28-11-2013 13:30:00 4.1 C 6.14 g/m*3 4.1 C 4.8 km/h
1141 28-11-2013 13:35:00 4.1 C 6.14 g/m*3 4.1 C 3.2 km/h
1142 28-11-2013 13:40:00 4.1 C 6.14 g/m*3 4.1 C 0 km/h
1143 28-11-2013 13:45:00 4.1 C 6.14 g/m*3 4.1 C 0 km/h
1144 28-11-2013 13:50:00 4.1 C 6.14 g/m*3 4.1 C 3.2 km/h
1145 28-11-2013 13:55:00 4.1 C 6.14 g/m*3 4.1 C 4.8 km/h
1146 28-11-2013 14:00:00 4.2 C 6.19 g/m*3 4.2 C 3.2 km/h
1147 28-11-2013 14:05:00 4.2 C 6.19 g/m*3 4.2 C 1.6 km/h
1148 28-11-2013 14:10:00 4.2 C 6.19 g/m*3 4.2 C 4.8 km/h
1149 28-11-2013 14:15:00 4.3 C 6.23 g/m*3 4.3 C 3.2 km/h
1150 28-11-2013 14:20:00 4.3 C 6.23 g/m*3 4.3 C 4.8 km/h
Sensor: Nr:Datum:Temp:Abs-Feuchte:Windchill:Wind:
Aussen-T/F 1151 28-11-2013 14:25:00 4.3 C 6.23 g/m*3 4.3 C 4.8 km/h
1152 28-11-2013 14:30:00 4.3 C 6.23 g/m*3 2.78 C 6.4 km/h
1153 28-11-2013 14:35:00 4.3 C 6.23 g/m*3 4.3 C 4.8 km/h
1154 28-11-2013 14:40:00 4.3 C 6.23 g/m*3 4.3 C 4.8 km/h
1155 28-11-2013 14:45:00 4.3 C 6.23 g/m*3 2.78 C 6.4 km/h
1156 28-11-2013 14:50:00 4.3 C 6.23 g/m*3 4.3 C 1.6 km/h
1157 28-11-2013 14:55:00 4.3 C 6.23 g/m*3 2.78 C 6.4 km/h
1158 28-11-2013 15:00:00 4.3 C 6.29 g/m*3 4.3 C 4.8 km/h
1159 28-11-2013 15:05:00 4.4 C 6.27 g/m*3 4.4 C 3.2 km/h
1160 28-11-2013 15:10:00 4.4 C 6.27 g/m*3 4.4 C 1.6 km/h
1161 28-11-2013 15:15:00 4.4 C 6.27 g/m*3 4.4 C 1.6 km/h
1162 28-11-2013 16:00:00 4.4 C 6.27 g/m*3 4.4 C 1.6 km/h
1163 28-11-2013 16:05:00 4.4 C 6.27 g/m*3 4.4 C 3.2 km/h
1164 28-11-2013 16:10:00 4.4 C 6.27 g/m*3 4.4 C 0 km/h
1165 28-11-2013 16:15:00 4.5 C 6.31 g/m*3 4.5 C 0 km/h
1166 28-11-2013 16:20:00 4.5 C 6.31 g/m*3 4.5 C 0 km/h
1167 28-11-2013 16:25:00 4.5 C 6.31 g/m*3 3.02 C 6.4 km/h
1168 28-11-2013 16:30:00 4.5 C 6.31 g/m*3 4.5 C 1.6 km/h
1169 28-11-2013 16:35:00 4.5 C 6.31 g/m*3 4.5 C 0 km/h
1170 28-11-2013 16:40:00 4.5 C 6.31 g/m*3 4.5 C 4.8 km/h
1171 28-11-2013 16:45:00 4.5 C 6.31 g/m*3 4.5 C 0 km/h
1172 28-11-2013 16:50:00 4.4 C 6.27 g/m*3 4.4 C 4.8 km/h
1173 28-11-2013 16:55:00 4.4 C 6.27 g/m*3 4.4 C 1.6 km/h
1174 28-11-2013 17:00:00 4.5 C 6.31 g/m*3 4.5 C 3.2 km/h
1175 28-11-2013 17:05:00 4.5 C 6.31 g/m*3 4.5 C 4.8 km/h
Sensor: Nr:Datum:Temp:Abs-Feuchte:Windchill:Wind:
Aussen-T/F 1176 28-11-2013 17:10:00 4.5 C 6.31 g/m*3 4.5 C 4.8 km/h
1177 28-11-2013 17:15:00 4.5 C 6.31 g/m*3 2.13 C 9.7 km/h
1178 28-11-2013 17:20:00 4.5 C 6.31 g/m*3 4.5 C 0 km/h
1179 28-11-2013 17:25:00 4.6 C 6.35 g/m*3 4.6 C 4.8 km/h
1180 28-11-2013 17:30:00 4.6 C 6.35 g/m*3 4.6 C 1.6 km/h
1181 28-11-2013 17:35:00 4.7 C 6.39 g/m*3 4.7 C 0 km/h
1182 28-11-2013 17:40:00 4.7 C 6.39 g/m*3 4.7 C 3.2 km/h
1183 28-11-2013 17:45:00 4.7 C 6.39 g/m*3 4.7 C 4.8 km/h
1184 28-11-2013 17:50:00 4.7 C 6.39 g/m*3 4.7 C 0 km/h
1185 28-11-2013 17:55:00 4.7 C 6.39 g/m*3 2.76 C 8.1 km/h
1186 28-11-2013 18:00:00 4.7 C 6.39 g/m*3 4.7 C 3.2 km/h
1187 28-11-2013 18:05:00 4.7 C 6.39 g/m*3 4.7 C 4.8 km/h
1188 28-11-2013 18:10:00 4.7 C 6.39 g/m*3 2.76 C 8.1 km/h
1189 28-11-2013 18:15:00 4.7 C 6.39 g/m*3 2.37 C 9.7 km/h
1190 28-11-2013 18:20:00 4.7 C 6.39 g/m*3 4.7 C 4.8 km/h
1191 28-11-2013 18:25:00 4.7 C 6.39 g/m*3 4.7 C 3.2 km/h
1192 28-11-2013 18:30:00 4.7 C 6.39 g/m*3 4.7 C 4.8 km/h
1193 28-11-2013 19:35:00 4.7 C 6.39 g/m*3 4.7 C 3.2 km/h
1194 28-11-2013 19:40:00 4.7 C 6.39 g/m*3 4.7 C 3.2 km/h
1195 28-11-2013 19:45:00 4.7 C 6.39 g/m*3 4.7 C 4.8 km/h
1196 28-11-2013 19:50:00 4.8 C 6.44 g/m*3 3.36 C 6.4 km/h
1197 28-11-2013 19:55:00 4.8 C 6.44 g/m*3 4.8 C 4.8 km/h
1198 28-11-2013 20:00:00 4.8 C 6.44 g/m*3 4.8 C 3.2 km/h
1199 28-11-2013 20:05:00 4.8 C 6.44 g/m*3 4.8 C 4.8 km/h
1200 28-11-2013 20:10:00 4.8 C 6.44 g/m*3 3.36 C 6.4 km/h
Sensor: Nr:Datum:Temp:Abs-Feuchte:Windchill:Wind:
Aussen-T/F 1201 28-11-2013 20:15:00 4.8 C 6.44 g/m*3 4.8 C 4.8 km/h
1202 28-11-2013 20:20:00 4.8 C 6.44 g/m*3 4.8 C 4.8 km/h
1203 28-11-2013 20:25:00 4.8 C 6.44 g/m*3 4.8 C 3.2 km/h
1204 28-11-2013 20:30:00 4.8 C 6.44 g/m*3 4.8 C 4.8 km/h
1205 28-11-2013 20:35:00 4.8 C 6.44 g/m*3 4.8 C 4.8 km/h
1206 28-11-2013 20:40:00 4.8 C 6.44 g/m*3 4.8 C 3.2 km/h
1207 28-11-2013 20:45:00 4.8 C 6.44 g/m*3 3.36 C 6.4 km/h
1208 28-11-2013 20:50:00 4.8 C 6.44 g/m*3 4.8 C 0 km/h
1209 28-11-2013 20:55:00 4.8 C 6.44 g/m*3 4.8 C 0 km/h
1210 28-11-2013 21:00:00 4.8 C 6.44 g/m*3 4.8 C 0 km/h
1211 28-11-2013 21:05:00 4.9 C 6.48 g/m*3 4.9 C 3.2 km/h
1212 28-11-2013 21:10:00 4.9 C 6.48 g/m*3 4.9 C 0 km/h
1213 28-11-2013 21:15:00 4.8 C 6.44 g/m*3 4.8 C 3.2 km/h
1214 28-11-2013 21:20:00 4.8 C 6.44 g/m*3 4.8 C 4.8 km/h
1215 28-11-2013 21:25:00 4.8 C 6.44 g/m*3 4.8 C 3.2 km/h
1216 28-11-2013 21:30:00 4.8 C 6.44 g/m*3 4.8 C 4.8 km/h
1217 28-11-2013 21:35:00 4.8 C 6.44 g/m*3 4.8 C 1.6 km/h
1218 28-11-2013 21:40:00 4.8 C 6.44 g/m*3 4.8 C 0 km/h
1219 28-11-2013 21:45:00 4.8 C 6.44 g/m*3 4.8 C 1.6 km/h
1220 28-11-2013 21:50:00 4.8 C 6.44 g/m*3 4.8 C 0 km/h
1221 28-11-2013 21:55:00 4.8 C 6.44 g/m*3 4.8 C 3.2 km/h
1222 28-11-2013 22:00:00 4.8 C 6.44 g/m*3 4.8 C 1.6 km/h
1223 28-11-2013 22:05:00 4.8 C 6.44 g/m*3 4.8 C 0 km/h
1224 28-11-2013 22:10:00 4.8 C 6.44 g/m*3 4.8 C 0 km/h
1225 28-11-2013 22:15:00 4.8 C 6.44 g/m*3 4.8 C 0 km/h
Sensor: Nr:Datum:Temp:Abs-Feuchte:Windchill:Wind:
Aussen-T/F 1226 28-11-2013 22:20:00 4.8 C 6.44 g/m*3 4.8 C 1.6 km/h
1227 28-11-2013 22:25:00 4.8 C 6.44 g/m*3 4.8 C 1.6 km/h
1228 28-11-2013 22:30:00 4.8 C 6.44 g/m*3 4.8 C 0 km/h
1229 28-11-2013 22:35:00 4.8 C 6.44 g/m*3 4.8 C 3.2 km/h
1230 28-11-2013 22:40:00 4.8 C 6.44 g/m*3 4.8 C 3.2 km/h
1231 28-11-2013 22:45:00 4.8 C 6.44 g/m*3 4.8 C 1.6 km/h
1232 28-11-2013 22:50:00 4.8 C 6.44 g/m*3 4.8 C 3.2 km/h
1233 28-11-2013 22:55:00 4.8 C 6.44 g/m*3 3.36 C 6.4 km/h
1234 28-11-2013 23:00:00 4.8 C 6.44 g/m*3 4.8 C 3.2 km/h
1235 28-11-2013 23:05:00 4.8 C 6.44 g/m*3 3.36 C 6.4 km/h
1236 28-11-2013 23:10:00 4.8 C 6.44 g/m*3 4.8 C 0 km/h
1237 28-11-2013 23:15:00 4.8 C 6.44 g/m*3 4.8 C 0 km/h
1238 28-11-2013 23:20:00 4.8 C 6.44 g/m*3 4.8 C 3.2 km/h
1239 28-11-2013 23:25:00 4.8 C 6.44 g/m*3 2.49 C 9.7 km/h
1240 28-11-2013 23:30:00 4.8 C 6.44 g/m*3 4.8 C 3.2 km/h
1241 28-11-2013 23:35:00 4.8 C 6.44 g/m*3 4.8 C 0 km/h
1242 28-11-2013 23:40:00 4.7 C 6.39 g/m*3 2.76 C 8.1 km/h
1243 28-11-2013 23:45:00 4.7 C 6.39 g/m*3 2.76 C 8.1 km/h
1244 28-11-2013 23:50:00 4.8 C 6.44 g/m*3 4.8 C 3.2 km/h
1245 28-11-2013 23:55:00 4.8 C 6.44 g/m*3 4.8 C 0 km/h
1246 29-11-2013 00:00:00 4.8 C 6.44 g/m*3 4.8 C 1.6 km/h
1247 29-11-2013 00:05:00 4.8 C 6.44 g/m*3 4.8 C 4.8 km/h
1248 29-11-2013 00:10:00 4.8 C 6.44 g/m*3 4.8 C 3.2 km/h
1249 29-11-2013 00:15:00 4.8 C 6.44 g/m*3 3.36 C 6.4 km/h
1250 29-11-2013 00:20:00 4.8 C 6.44 g/m*3 3.36 C 6.4 km/h
Sensor: Nr:Datum:Temp:Abs-Feuchte:Windchill:Wind:
Aussen-T/F 1251 29-11-2013 00:25:00 4.8 C 6.44 g/m*3 4.8 C 1.6 km/h
1252 29-11-2013 00:30:00 4.8 C 6.44 g/m*3 3.36 C 6.4 km/h
1253 29-11-2013 00:35:00 4.8 C 6.44 g/m*3 4.8 C 4.8 km/h
1254 29-11-2013 00:40:00 4.8 C 6.44 g/m*3 4.8 C 1.6 km/h
1255 29-11-2013 00:45:00 4.8 C 6.44 g/m*3 4.8 C 3.2 km/h
1256 29-11-2013 00:50:00 4.8 C 6.44 g/m*3 4.8 C 0 km/h
1257 29-11-2013 00:55:00 4.8 C 6.44 g/m*3 4.8 C 0 km/h
1258 29-11-2013 01:00:00 4.8 C 6.44 g/m*3 4.8 C 1.6 km/h
1259 29-11-2013 01:05:00 4.8 C 6.44 g/m*3 4.8 C 1.6 km/h
1260 29-11-2013 01:10:00 4.8 C 6.44 g/m*3 4.8 C 0 km/h
1261 29-11-2013 01:15:00 4.9 C 6.48 g/m*3 4.9 C 0 km/h
1262 29-11-2013 01:20:00 4.9 C 6.48 g/m*3 4.9 C 4.8 km/h
1263 29-11-2013 01:25:00 4.9 C 6.48 g/m*3 4.9 C 4.8 km/h
1264 29-11-2013 01:30:00 4.8 C 6.44 g/m*3 4.8 C 3.2 km/h
1265 29-11-2013 01:35:00 4.8 C 6.44 g/m*3 4.8 C 3.2 km/h
1266 29-11-2013 01:40:00 4.8 C 6.44 g/m*3 4.8 C 0 km/h
1267 29-11-2013 01:45:00 4.8 C 6.44 g/m*3 4.8 C 0 km/h
1268 29-11-2013 01:50:00 4.8 C 6.44 g/m*3 4.8 C 0 km/h
1269 29-11-2013 01:55:00 4.8 C 6.44 g/m*3 4.8 C 0 km/h
1270 29-11-2013 02:00:00 4.8 C 6.44 g/m*3 4.8 C 1.6 km/h
1271 29-11-2013 02:05:00 4.8 C 6.44 g/m*3 4.8 C 3.2 km/h
1272 29-11-2013 02:10:00 4.8 C 6.44 g/m*3 4.8 C 0 km/h
1273 29-11-2013 02:15:00 4.8 C 6.44 g/m*3 4.8 C 0 km/h
1274 29-11-2013 02:20:00 4.8 C 6.44 g/m*3 4.8 C 4.8 km/h
1275 29-11-2013 02:25:00 4.8 C 6.44 g/m*3 4.8 C 1.6 km/h
Sensor: Nr:Datum:Temp:Abs-Feuchte:Windchill:Wind:
Aussen-T/F 1276 29-11-2013 02:30:00 4.8 C 6.44 g/m*3 4.8 C 3.2 km/h
1277 29-11-2013 02:35:00 4.8 C 6.44 g/m*3 3.36 C 6.4 km/h
1278 29-11-2013 02:40:00 4.8 C 6.44 g/m*3 4.8 C 4.8 km/h
1279 29-11-2013 02:45:00 4.8 C 6.44 g/m*3 4.8 C 0 km/h
1280 29-11-2013 02:50:00 4.7 C 6.39 g/m*3 4.7 C 1.6 km/h
1281 29-11-2013 02:55:00 4.7 C 6.39 g/m*3 4.7 C 1.6 km/h
1282 29-11-2013 03:00:00 4.7 C 6.39 g/m*3 4.7 C 0 km/h
1283 29-11-2013 03:05:00 4.7 C 6.39 g/m*3 4.7 C 4.8 km/h
1284 29-11-2013 03:10:00 4.7 C 6.39 g/m*3 2.37 C 9.7 km/h
1285 29-11-2013 03:15:00 4.7 C 6.39 g/m*3 4.7 C 3.2 km/h
1286 29-11-2013 03:20:00 4.7 C 6.39 g/m*3 4.7 C 4.8 km/h
1287 29-11-2013 03:25:00 4.7 C 6.39 g/m*3 4.7 C 3.2 km/h
1288 29-11-2013 03:30:00 4.7 C 6.39 g/m*3 4.7 C 1.6 km/h
1289 29-11-2013 03:35:00 4.7 C 6.39 g/m*3 4.7 C 3.2 km/h
1290 29-11-2013 03:40:00 4.7 C 6.39 g/m*3 3.25 C 6.4 km/h
1291 29-11-2013 03:45:00 4.7 C 6.39 g/m*3 4.7 C 4.8 km/h
1292 29-11-2013 03:50:00 4.7 C 6.39 g/m*3 4.7 C 3.2 km/h
1293 29-11-2013 03:55:00 4.7 C 6.39 g/m*3 4.7 C 0 km/h
1294 29-11-2013 04:00:00 4.7 C 6.39 g/m*3 4.7 C 1.6 km/h
1295 29-11-2013 04:05:00 4.7 C 6.39 g/m*3 4.7 C 1.6 km/h
1296 29-11-2013 04:10:00 4.7 C 6.39 g/m*3 4.7 C 0 km/h
1297 29-11-2013 04:15:00 4.7 C 6.46 g/m*3 4.7 C 1.6 km/h
1298 29-11-2013 04:20:00 4.7 C 6.46 g/m*3 3.25 C 6.4 km/h
1299 29-11-2013 04:25:00 4.7 C 6.46 g/m*3 4.7 C 4.8 km/h
1300 29-11-2013 04:30:00 4.7 C 6.39 g/m*3 4.7 C 4.8 km/h
Sensor: Nr:Datum:Temp:Abs-Feuchte:Windchill:Wind:
Aussen-T/F 1301 29-11-2013 04:35:00 4.7 C 6.39 g/m*3 4.7 C 3.2 km/h
1302 29-11-2013 04:40:00 4.7 C 6.39 g/m*3 4.7 C 3.2 km/h
1303 29-11-2013 04:45:00 4.7 C 6.39 g/m*3 4.7 C 3.2 km/h
1304 29-11-2013 04:50:00 4.6 C 6.35 g/m*3 4.6 C 0 km/h
1305 29-11-2013 04:55:00 4.6 C 6.35 g/m*3 4.6 C 4.8 km/h
1306 29-11-2013 05:00:00 4.6 C 6.35 g/m*3 4.6 C 3.2 km/h
1307 29-11-2013 05:05:00 4.6 C 6.35 g/m*3 4.6 C 4.8 km/h
1308 29-11-2013 05:10:00 4.6 C 6.35 g/m*3 4.6 C 0 km/h
1309 29-11-2013 05:15:00 4.6 C 6.35 g/m*3 4.6 C 1.6 km/h
1310 29-11-2013 05:20:00 4.6 C 6.35 g/m*3 3.13 C 6.4 km/h
1311 29-11-2013 05:25:00 4.6 C 6.35 g/m*3 3.13 C 6.4 km/h
1312 29-11-2013 05:30:00 4.6 C 6.35 g/m*3 2.64 C 8.1 km/h
1313 29-11-2013 05:35:00 4.6 C 6.35 g/m*3 4.6 C 1.6 km/h
1314 29-11-2013 05:40:00 4.6 C 6.35 g/m*3 4.6 C 4.8 km/h
1315 29-11-2013 05:45:00 4.6 C 6.35 g/m*3 4.6 C 1.6 km/h
1316 29-11-2013 05:50:00 4.6 C 6.35 g/m*3 4.6 C 1.6 km/h
1317 29-11-2013 05:55:00 4.6 C 6.35 g/m*3 4.6 C 3.2 km/h
1318 29-11-2013 06:00:00 4.6 C 6.35 g/m*3 4.6 C 3.2 km/h
1319 29-11-2013 06:05:00 4.6 C 6.35 g/m*3 4.6 C 1.6 km/h
1320 29-11-2013 06:10:00 4.6 C 6.35 g/m*3 4.6 C 4.8 km/h
1321 29-11-2013 06:15:00 4.6 C 6.35 g/m*3 4.6 C 0 km/h
1322 29-11-2013 06:20:00 4.6 C 6.35 g/m*3 4.6 C 4.8 km/h
1323 29-11-2013 06:25:00 4.6 C 6.35 g/m*3 4.6 C 1.6 km/h
1324 29-11-2013 06:30:00 4.6 C 6.35 g/m*3 4.6 C 0 km/h
1325 29-11-2013 06:35:00 4.7 C 6.39 g/m*3 4.7 C 3.2 km/h
Sensor: Nr:Datum:Temp:Abs-Feuchte:Windchill:Wind:
Aussen-T/F 1326 29-11-2013 06:40:00 4.7 C 6.39 g/m*3 4.7 C 3.2 km/h
1327 29-11-2013 06:45:00 4.7 C 6.39 g/m*3 4.7 C 1.6 km/h
1328 29-11-2013 06:50:00 4.7 C 6.39 g/m*3 4.7 C 0 km/h
1329 29-11-2013 06:55:00 4.7 C 6.39 g/m*3 4.7 C 4.8 km/h
1330 29-11-2013 07:00:00 4.7 C 6.39 g/m*3 4.7 C 0 km/h
1331 29-11-2013 07:05:00 4.7 C 6.39 g/m*3 3.25 C 6.4 km/h
1332 29-11-2013 07:10:00 4.7 C 6.39 g/m*3 4.7 C 3.2 km/h
1333 29-11-2013 07:15:00 4.7 C 6.39 g/m*3 4.7 C 1.6 km/h
1334 29-11-2013 07:20:00 4.7 C 6.39 g/m*3 4.7 C 3.2 km/h
1335 29-11-2013 07:25:00 4.7 C 6.39 g/m*3 4.7 C 4.8 km/h
1336 29-11-2013 07:30:00 4.7 C 6.39 g/m*3 4.7 C 0 km/h
1337 29-11-2013 07:35:00 4.7 C 6.33 g/m*3 4.7 C 3.2 km/h
1338 29-11-2013 07:40:00 4.7 C 6.33 g/m*3 4.7 C 4.8 km/h
1339 29-11-2013 07:45:00 4.7 C 6.33 g/m*3 4.7 C 1.6 km/h
1340 29-11-2013 07:50:00 4.7 C 6.33 g/m*3 4.7 C 4.8 km/h
1341 29-11-2013 07:55:00 4.7 C 6.33 g/m*3 4.7 C 3.2 km/h
1342 29-11-2013 08:00:00 4.7 C 6.33 g/m*3 4.7 C 0 km/h
1343 29-11-2013 08:05:00 4.7 C 6.33 g/m*3 4.7 C 0 km/h
1344 29-11-2013 08:10:00 4.7 C 6.33 g/m*3 4.7 C 1.6 km/h
1345 29-11-2013 08:15:00 4.7 C 6.33 g/m*3 4.7 C 0 km/h
1346 29-11-2013 08:20:00 4.8 C 6.37 g/m*3 4.8 C 1.6 km/h
1347 29-11-2013 08:25:00 4.8 C 6.37 g/m*3 4.8 C 0 km/h
1348 29-11-2013 08:30:00 4.8 C 6.37 g/m*3 4.8 C 3.2 km/h
1349 29-11-2013 08:35:00 4.8 C 6.3 g/m*3 4.8 C 3.2 km/h
1350 29-11-2013 08:40:00 4.8 C 6.3 g/m*3 4.8 C 0 km/h
Sensor: Nr:Datum:Temp:Abs-Feuchte:Windchill:Wind:
Aussen-T/F 1351 29-11-2013 08:45:00 4.8 C 6.3 g/m*3 4.8 C 0 km/h
1352 29-11-2013 08:50:00 4.8 C 6.3 g/m*3 4.8 C 1.6 km/h
1353 29-11-2013 08:55:00 4.8 C 6.3 g/m*3 4.8 C 3.2 km/h
1354 29-11-2013 09:00:00 4.8 C 6.3 g/m*3 4.8 C 4.8 km/h
1355 29-11-2013 09:05:00 4.8 C 6.3 g/m*3 4.8 C 1.6 km/h
1356 29-11-2013 09:10:00 4.8 C 6.3 g/m*3 4.8 C 0 km/h
1357 29-11-2013 09:15:00 4.8 C 6.3 g/m*3 4.8 C 4.8 km/h
1358 29-11-2013 09:20:00 4.9 C 6.35 g/m*3 3.48 C 6.4 km/h
1359 29-11-2013 09:25:00 4.9 C 6.35 g/m*3 4.9 C 3.2 km/h
1360 29-11-2013 09:30:00 4.9 C 6.35 g/m*3 4.9 C 4.8 km/h
1361 29-11-2013 09:35:00 5 C 6.32 g/m*3 3.59 C 6.4 km/h
1362 29-11-2013 09:40:00 5 C 6.32 g/m*3 5 C 3.2 km/h
1363 29-11-2013 09:45:00 5.1 C 6.36 g/m*3 5.1 C 1.6 km/h
1364 29-11-2013 09:50:00 5.1 C 6.36 g/m*3 3.23 C 8.1 km/h
1365 29-11-2013 09:55:00 5.1 C 6.36 g/m*3 5.1 C 3.2 km/h
1366 29-11-2013 10:00:00 5.1 C 6.36 g/m*3 5.1 C 3.2 km/h
1367 29-11-2013 10:05:00 5.1 C 6.36 g/m*3 5.1 C 3.2 km/h
1368 29-11-2013 10:10:00 5.2 C 6.4 g/m*3 5.2 C 1.6 km/h
1369 29-11-2013 10:15:00 5.2 C 6.33 g/m*3 5.2 C 4.8 km/h
1370 29-11-2013 10:20:00 5.2 C 6.33 g/m*3 5.2 C 3.2 km/h
1371 29-11-2013 10:25:00 5.3 C 6.38 g/m*3 5.3 C 3.2 km/h
1372 29-11-2013 10:30:00 5.3 C 6.38 g/m*3 3.94 C 6.4 km/h
1373 29-11-2013 10:35:00 5.3 C 6.31 g/m*3 5.3 C 4.8 km/h
1374 29-11-2013 10:40:00 5.4 C 6.35 g/m*3 5.4 C 3.2 km/h
1375 29-11-2013 10:45:00 5.4 C 6.35 g/m*3 5.4 C 1.6 km/h
Sensor: Nr:Datum:Temp:Abs-Feuchte:Windchill:Wind:
Aussen-T/F 1376 29-11-2013 10:50:00 5.4 C 6.35 g/m*3 5.4 C 4.8 km/h
1377 29-11-2013 10:55:00 5.6 C 6.43 g/m*3 5.6 C 4.8 km/h
1378 29-11-2013 11:00:00 5.7 C 6.4 g/m*3 5.7 C 4.8 km/h
1379 29-11-2013 11:05:00 5.7 C 6.4 g/m*3 3.93 C 8.1 km/h
1380 29-11-2013 11:10:00 5.8 C 6.45 g/m*3 4.05 C 8.1 km/h
1381 29-11-2013 11:15:00 5.8 C 6.45 g/m*3 3.68 C 9.7 km/h
1382 29-11-2013 11:20:00 5.8 C 6.38 g/m*3 3.68 C 9.7 km/h
1383 29-11-2013 11:25:00 5.8 C 6.38 g/m*3 3.36 C 11.3 km/h
1384 29-11-2013 11:30:00 5.9 C 6.42 g/m*3 3.48 C 11.3 km/h
1385 29-11-2013 11:35:00 5.9 C 6.35 g/m*3 3.8 C 9.7 km/h
1386 29-11-2013 11:40:00 6.1 C 6.43 g/m*3 3.72 C 11.3 km/h
1387 29-11-2013 11:45:00 6.2 C 6.4 g/m*3 4.98 C 6.4 km/h
1388 29-11-2013 11:50:00 6.2 C 6.4 g/m*3 4.52 C 8.1 km/h
1389 29-11-2013 11:55:00 6.3 C 6.44 g/m*3 4.64 C 8.1 km/h
1390 29-11-2013 12:00:00 6.4 C 6.48 g/m*3 4.75 C 8.1 km/h
1391 29-11-2013 12:05:00 6.4 C 6.48 g/m*3 6.4 C 4.8 km/h
1392 29-11-2013 12:10:00 6.6 C 6.57 g/m*3 5.44 C 6.4 km/h
1393 29-11-2013 12:15:00 6.6 C 6.49 g/m*3 4.99 C 8.1 km/h
1394 29-11-2013 12:20:00 6.7 C 6.53 g/m*3 5.11 C 8.1 km/h
1395 29-11-2013 12:25:00 6.7 C 6.53 g/m*3 3.92 C 14.5 km/h
1396 29-11-2013 12:30:00 6.7 C 6.53 g/m*3 4.44 C 11.3 km/h
1397 29-11-2013 12:35:00 6.7 C 6.46 g/m*3 5.11 C 8.1 km/h
1398 29-11-2013 12:40:00 6.7 C 6.53 g/m*3 4.44 C 11.3 km/h
1399 29-11-2013 12:45:00 6.7 C 6.53 g/m*3 5.11 C 8.1 km/h
1400 29-11-2013 12:50:00 6.7 C 6.46 g/m*3 3.69 C 16.1 km/h
Sensor: Nr:Datum:Temp:Abs-Feuchte:Windchill:Wind:
Aussen-T/F 1401 29-11-2013 12:55:00 6.8 C 6.5 g/m*3 3.82 C 16.1 km/h
1402 29-11-2013 13:00:00 6.8 C 6.5 g/m*3 4.87 C 9.7 km/h
1403 29-11-2013 13:05:00 6.8 C 6.5 g/m*3 4.56 C 11.3 km/h
1404 29-11-2013 13:10:00 6.8 C 6.5 g/m*3 3.82 C 16.1 km/h
1405 29-11-2013 13:15:00 6.8 C 6.5 g/m*3 4.87 C 9.7 km/h
1406 29-11-2013 13:20:00 6.8 C 6.5 g/m*3 3.82 C 16.1 km/h
1407 29-11-2013 13:25:00 6.7 C 6.53 g/m*3 4.44 C 11.3 km/h
1408 29-11-2013 13:30:00 6.7 C 6.53 g/m*3 6.7 C 4.8 km/h
1409 29-11-2013 13:35:00 6.6 C 6.49 g/m*3 4.32 C 11.3 km/h
1410 29-11-2013 13:40:00 6.6 C 6.49 g/m*3 4.99 C 8.1 km/h
1411 29-11-2013 13:45:00 6.6 C 6.49 g/m*3 3.57 C 16.1 km/h
1412 29-11-2013 13:50:00 6.5 C 6.52 g/m*3 4.2 C 11.3 km/h
1413 29-11-2013 13:55:00 6.5 C 6.52 g/m*3 5.33 C 6.4 km/h
1414 29-11-2013 14:00:00 6.5 C 6.52 g/m*3 5.33 C 6.4 km/h
1415 29-11-2013 14:05:00 6.5 C 6.52 g/m*3 4.87 C 8.1 km/h
1416 29-11-2013 14:10:00 6.5 C 6.6 g/m*3 3.92 C 12.9 km/h
1417 29-11-2013 14:15:00 6.5 C 6.6 g/m*3 4.87 C 8.1 km/h
1418 29-11-2013 14:20:00 6.4 C 6.56 g/m*3 4.08 C 11.3 km/h
1419 29-11-2013 14:25:00 6.4 C 6.56 g/m*3 4.08 C 11.3 km/h
1420 29-11-2013 14:30:00 6.5 C 6.67 g/m*3 4.87 C 8.1 km/h
1421 29-11-2013 14:35:00 6.6 C 6.64 g/m*3 4.99 C 8.1 km/h
1422 29-11-2013 14:40:00 6.6 C 6.64 g/m*3 4.63 C 9.7 km/h
1423 29-11-2013 14:45:00 6.5 C 6.67 g/m*3 5.33 C 6.4 km/h
1424 29-11-2013 14:50:00 6.5 C 6.67 g/m*3 6.5 C 3.2 km/h
1425 29-11-2013 14:55:00 6.5 C 6.67 g/m*3 5.33 C 6.4 km/h
Sensor: Nr:Datum:Temp:Abs-Feuchte:Windchill:Wind:
Aussen-T/F 1426 29-11-2013 15:00:00 6.4 C 6.63 g/m*3 5.21 C 6.4 km/h
1427 29-11-2013 15:05:00 6.5 C 6.67 g/m*3 5.33 C 6.4 km/h
1428 29-11-2013 15:10:00 6.6 C 6.72 g/m*3 5.44 C 6.4 km/h
1429 29-11-2013 15:15:00 6.7 C 6.69 g/m*3 5.11 C 8.1 km/h
1430 29-11-2013 15:20:00 6.8 C 6.73 g/m*3 6.8 C 4.8 km/h
1431 29-11-2013 15:25:00 6.8 C 6.73 g/m*3 4.87 C 9.7 km/h
1432 29-11-2013 15:30:00 6.9 C 6.77 g/m*3 4.41 C 12.9 km/h
1433 29-11-2013 15:35:00 6.9 C 6.77 g/m*3 6.9 C 3.2 km/h
1434 29-11-2013 15:40:00 6.9 C 6.77 g/m*3 6.9 C 4.8 km/h
1435 29-11-2013 15:45:00 6.9 C 6.77 g/m*3 5.34 C 8.1 km/h
1436 29-11-2013 15:50:00 6.9 C 6.77 g/m*3 4.16 C 14.5 km/h
1437 29-11-2013 15:55:00 6.9 C 6.77 g/m*3 5.34 C 8.1 km/h
1438 29-11-2013 16:00:00 6.9 C 6.77 g/m*3 4.41 C 12.9 km/h
1439 29-11-2013 16:05:00 6.9 C 6.77 g/m*3 4.16 C 14.5 km/h
1440 29-11-2013 16:10:00 7 C 6.82 g/m*3 5.11 C 9.7 km/h
1441 29-11-2013 16:15:00 6.9 C 6.85 g/m*3 5.34 C 8.1 km/h
1442 29-11-2013 16:20:00 6.9 C 6.85 g/m*3 5.34 C 8.1 km/h
1443 29-11-2013 16:25:00 6.9 C 6.85 g/m*3 4.68 C 11.3 km/h
1444 29-11-2013 16:30:00 6.9 C 6.85 g/m*3 4.41 C 12.9 km/h
1445 29-11-2013 16:35:00 6.9 C 6.85 g/m*3 4.16 C 14.5 km/h
1446 29-11-2013 16:40:00 6.9 C 6.85 g/m*3 4.16 C 14.5 km/h
1447 29-11-2013 16:45:00 6.9 C 6.85 g/m*3 4.41 C 12.9 km/h
1448 29-11-2013 16:50:00 6.9 C 6.85 g/m*3 4.99 C 9.7 km/h
1449 29-11-2013 16:55:00 6.9 C 6.85 g/m*3 4.68 C 11.3 km/h
1450 29-11-2013 17:00:00 6.9 C 6.85 g/m*3 4.68 C 11.3 km/h
Sensor: Nr:Datum:Temp:Abs-Feuchte:Windchill:Wind:
Aussen-T/F 1451 29-11-2013 17:05:00 6.9 C 6.85 g/m*3 4.41 C 12.9 km/h
1452 29-11-2013 17:10:00 6.9 C 6.85 g/m*3 3.94 C 16.1 km/h
1453 29-11-2013 17:15:00 6.9 C 6.85 g/m*3 4.68 C 11.3 km/h
1454 29-11-2013 17:20:00 6.8 C 6.88 g/m*3 4.56 C 11.3 km/h
1455 29-11-2013 17:25:00 6.8 C 6.88 g/m*3 4.04 C 14.5 km/h
1456 29-11-2013 17:30:00 6.8 C 6.88 g/m*3 3.82 C 16.1 km/h
1457 29-11-2013 17:35:00 6.9 C 6.93 g/m*3 4.41 C 12.9 km/h
1458 29-11-2013 17:40:00 6.9 C 6.93 g/m*3 4.16 C 14.5 km/h
1459 29-11-2013 17:45:00 6.9 C 6.93 g/m*3 4.99 C 9.7 km/h
1460 29-11-2013 17:50:00 6.9 C 6.93 g/m*3 3.94 C 16.1 km/h
1461 29-11-2013 17:55:00 6.9 C 6.93 g/m*3 3.94 C 16.1 km/h
1462 29-11-2013 18:00:00 7 C 6.9 g/m*3 4.06 C 16.1 km/h
1463 29-11-2013 18:05:00 7.2 C 6.99 g/m*3 3.92 C 19.3 km/h
1464 29-11-2013 18:10:00 7.3 C 6.95 g/m*3 4.05 C 19.3 km/h
1465 29-11-2013 18:15:00 7.3 C 6.95 g/m*3 3.87 C 20.9 km/h
1466 29-11-2013 18:20:00 7.3 C 6.95 g/m*3 4.23 C 17.7 km/h
1467 29-11-2013 18:25:00 7.3 C 7.03 g/m*3 4.9 C 12.9 km/h
1468 29-11-2013 18:30:00 7.2 C 6.99 g/m*3 4.77 C 12.9 km/h
1469 29-11-2013 18:35:00 7.2 C 6.99 g/m*3 5.04 C 11.3 km/h
1470 29-11-2013 18:40:00 7.2 C 6.99 g/m*3 5.35 C 9.7 km/h
1471 29-11-2013 18:45:00 7.2 C 7.06 g/m*3 5.35 C 9.7 km/h
1472 29-11-2013 18:50:00 7.2 C 7.06 g/m*3 4.53 C 14.5 km/h
1473 29-11-2013 18:55:00 7.2 C 7.06 g/m*3 5.35 C 9.7 km/h
1474 29-11-2013 19:00:00 7.2 C 7.06 g/m*3 5.04 C 11.3 km/h
1475 29-11-2013 19:05:00 7.2 C 7.14 g/m*3 4.77 C 12.9 km/h
Sensor: Nr:Datum:Temp:Abs-Feuchte:Windchill:Wind:
Aussen-T/F 1476 29-11-2013 19:10:00 7.1 C 7.1 g/m*3 4.92 C 11.3 km/h
1477 29-11-2013 19:15:00 7.1 C 7.1 g/m*3 5.58 C 8.1 km/h
1478 29-11-2013 19:20:00 7.1 C 7.1 g/m*3 4.65 C 12.9 km/h
1479 29-11-2013 19:25:00 7.1 C 7.1 g/m*3 6.02 C 6.4 km/h
1480 29-11-2013 19:30:00 7.1 C 7.1 g/m*3 5.23 C 9.7 km/h
1481 29-11-2013 19:35:00 7.2 C 7.14 g/m*3 5.35 C 9.7 km/h
1482 29-11-2013 19:40:00 7.2 C 7.06 g/m*3 4.53 C 14.5 km/h
1483 29-11-2013 19:45:00 7.2 C 7.06 g/m*3 5.04 C 11.3 km/h
1484 29-11-2013 19:50:00 7.1 C 6.94 g/m*3 3 C 27.4 km/h
1485 29-11-2013 19:55:00 6.9 C 6.77 g/m*3 4.41 C 12.9 km/h
1486 29-11-2013 20:00:00 6.7 C 6.69 g/m*3 2.94 C 22.5 km/h
1487 29-11-2013 20:05:00 6.6 C 6.57 g/m*3 3.36 C 17.7 km/h
1488 29-11-2013 20:10:00 6.5 C 6.52 g/m*3 3.67 C 14.5 km/h
1489 29-11-2013 20:15:00 6.4 C 6.48 g/m*3 5.21 C 6.4 km/h
1490 29-11-2013 20:20:00 6.4 C 6.48 g/m*3 3.11 C 17.7 km/h
1491 29-11-2013 20:25:00 6.3 C 6.51 g/m*3 4.27 C 9.7 km/h
1492 29-11-2013 20:30:00 6.3 C 6.51 g/m*3 4.64 C 8.1 km/h
1493 29-11-2013 20:35:00 6.2 C 6.55 g/m*3 3.84 C 11.3 km/h
1494 29-11-2013 20:40:00 6.1 C 6.5 g/m*3 4.04 C 9.7 km/h
1495 29-11-2013 20:45:00 6.1 C 6.5 g/m*3 4.86 C 6.4 km/h
1496 29-11-2013 20:50:00 6.1 C 6.58 g/m*3 6.1 C 1.6 km/h
1497 29-11-2013 20:55:00 5.9 C 6.49 g/m*3 4.17 C 8.1 km/h
1498 29-11-2013 21:00:00 5.9 C 6.49 g/m*3 4.63 C 6.4 km/h
1499 29-11-2013 21:05:00 6 C 6.46 g/m*3 3.92 C 9.7 km/h
1500 29-11-2013 21:10:00 6.1 C 6.5 g/m*3 3.43 C 12.9 km/h
Sensor: Nr:Datum:Temp:Abs-Feuchte:Windchill:Wind:
Aussen-T/F 1501 29-11-2013 21:15:00 6 C 6.46 g/m*3 3.31 C 12.9 km/h
1502 29-11-2013 21:20:00 5.9 C 6.42 g/m*3 5.9 C 3.2 km/h
1503 29-11-2013 21:25:00 5.9 C 6.35 g/m*3 4.63 C 6.4 km/h
1504 29-11-2013 21:30:00 5.8 C 6.38 g/m*3 5.8 C 1.6 km/h
1505 29-11-2013 21:35:00 5.8 C 6.3 g/m*3 3.36 C 11.3 km/h
1506 29-11-2013 21:40:00 5.9 C 6.35 g/m*3 3.19 C 12.9 km/h
1507 29-11-2013 21:45:00 5.9 C 6.35 g/m*3 4.63 C 6.4 km/h
1508 29-11-2013 21:50:00 5.8 C 6.3 g/m*3 5.8 C 3.2 km/h
1509 29-11-2013 21:55:00 5.8 C 6.3 g/m*3 5.8 C 4.8 km/h
1510 29-11-2013 22:00:00 5.8 C 6.3 g/m*3 5.8 C 4.8 km/h
1511 29-11-2013 22:05:00 5.7 C 6.26 g/m*3 3.56 C 9.7 km/h
1512 29-11-2013 22:10:00 5.7 C 6.19 g/m*3 3.93 C 8.1 km/h
1513 29-11-2013 22:15:00 5.6 C 6.22 g/m*3 5.6 C 1.6 km/h
1514 29-11-2013 22:20:00 5.5 C 6.18 g/m*3 5.5 C 3.2 km/h
1515 29-11-2013 22:25:00 5.5 C 6.18 g/m*3 5.5 C 3.2 km/h
1516 29-11-2013 22:30:00 5.4 C 6.07 g/m*3 5.4 C 4.8 km/h
1517 29-11-2013 22:35:00 5.3 C 6.1 g/m*3 5.3 C 3.2 km/h
1518 29-11-2013 22:40:00 5.1 C 6.02 g/m*3 5.1 C 3.2 km/h
1519 29-11-2013 22:45:00 4.9 C 6.01 g/m*3 4.9 C 4.8 km/h
1520 29-11-2013 22:50:00 4.9 C 6.08 g/m*3 4.9 C 4.8 km/h
1521 29-11-2013 22:55:00 4.8 C 6.04 g/m*3 4.8 C 4.8 km/h
1522 29-11-2013 23:00:00 4.8 C 6.04 g/m*3 4.8 C 3.2 km/h
1523 29-11-2013 23:05:00 4.9 C 6.01 g/m*3 4.9 C 3.2 km/h
1524 29-11-2013 23:10:00 4.9 C 6.01 g/m*3 4.9 C 4.8 km/h
1525 29-11-2013 23:15:00 4.7 C 6 g/m*3 3.25 C 6.4 km/h
Sensor: Nr:Datum:Temp:Abs-Feuchte:Windchill:Wind:
Aussen-T/F 1526 29-11-2013 23:20:00 4.8 C 6.04 g/m*3 4.8 C 4.8 km/h
1527 29-11-2013 23:25:00 4.7 C 6 g/m*3 4.7 C 4.8 km/h
1528 29-11-2013 23:30:00 4.5 C 5.92 g/m*3 4.5 C 4.8 km/h
1529 29-11-2013 23:35:00 4.3 C 5.9 g/m*3 4.3 C 1.6 km/h
1530 29-11-2013 23:40:00 4.2 C 5.86 g/m*3 4.2 C 4.8 km/h
1531 29-11-2013 23:45:00 4.1 C 5.89 g/m*3 4.1 C 3.2 km/h
1532 29-11-2013 23:50:00 4.1 C 5.89 g/m*3 4.1 C 3.2 km/h
1533 29-11-2013 23:55:00 4.2 C 5.93 g/m*3 4.2 C 4.8 km/h
1534 30-11-2013 00:00:00 4.3 C 5.9 g/m*3 4.3 C 3.2 km/h
1535 30-11-2013 00:05:00 4.4 C 5.88 g/m*3 4.4 C 4.8 km/h
1536 30-11-2013 00:10:00 4.6 C 5.96 g/m*3 2.64 C 8.1 km/h
1537 30-11-2013 00:15:00 4.7 C 6 g/m*3 4.7 C 3.2 km/h
1538 30-11-2013 00:20:00 4.6 C 5.96 g/m*3 4.6 C 1.6 km/h
1539 30-11-2013 00:25:00 4.6 C 5.96 g/m*3 4.6 C 0 km/h
1540 30-11-2013 00:30:00 4.4 C 5.88 g/m*3 4.4 C 1.6 km/h
1541 30-11-2013 00:35:00 4.2 C 5.8 g/m*3 4.2 C 3.2 km/h
1542 30-11-2013 00:40:00 4.2 C 5.86 g/m*3 4.2 C 1.6 km/h
1543 30-11-2013 00:45:00 4.1 C 5.82 g/m*3 4.1 C 3.2 km/h
1544 30-11-2013 00:50:00 4.1 C 5.82 g/m*3 4.1 C 4.8 km/h
1545 30-11-2013 00:55:00 4 C 5.79 g/m*3 4 C 3.2 km/h
1546 30-11-2013 01:00:00 4 C 5.72 g/m*3 2.44 C 6.4 km/h
1547 30-11-2013 01:05:00 3.9 C 5.68 g/m*3 2.32 C 6.4 km/h
1548 30-11-2013 01:10:00 3.7 C 5.61 g/m*3 3.7 C 4.8 km/h
1549 30-11-2013 01:15:00 3.5 C 5.6 g/m*3 3.5 C 3.2 km/h
1550 30-11-2013 01:20:00 3.3 C 5.52 g/m*3 1.63 C 6.4 km/h
Sensor: Nr:Datum:Temp:Abs-Feuchte:Windchill:Wind:
Aussen-T/F 1551 30-11-2013 01:25:00 3.3 C 5.58 g/m*3 3.3 C 4.8 km/h
1552 30-11-2013 01:30:00 3.3 C 5.64 g/m*3 3.3 C 4.8 km/h
1553 30-11-2013 01:35:00 3.7 C 5.8 g/m*3 3.7 C 4.8 km/h
1554 30-11-2013 01:40:00 3.8 C 5.83 g/m*3 3.8 C 1.6 km/h
1555 30-11-2013 01:45:00 3.9 C 5.87 g/m*3 3.9 C 1.6 km/h
1556 30-11-2013 01:50:00 3.8 C 5.83 g/m*3 3.8 C 1.6 km/h
1557 30-11-2013 01:55:00 3.7 C 5.73 g/m*3 3.7 C 4.8 km/h
1558 30-11-2013 02:00:00 3.6 C 5.76 g/m*3 3.6 C 3.2 km/h
1559 30-11-2013 02:05:00 3.5 C 5.72 g/m*3 3.5 C 3.2 km/h
1560 30-11-2013 02:10:00 3.6 C 5.76 g/m*3 3.6 C 3.2 km/h
1561 30-11-2013 02:15:00 3.7 C 5.73 g/m*3 3.7 C 3.2 km/h
1562 30-11-2013 02:20:00 3.7 C 5.73 g/m*3 3.7 C 3.2 km/h
1563 30-11-2013 02:25:00 3.7 C 5.73 g/m*3 3.7 C 4.8 km/h
1564 30-11-2013 02:30:00 3.8 C 5.71 g/m*3 3.8 C 1.6 km/h
1565 30-11-2013 02:35:00 3.8 C 5.71 g/m*3 3.8 C 4.8 km/h
1566 30-11-2013 02:40:00 4 C 5.79 g/m*3 4 C 4.8 km/h
1567 30-11-2013 02:45:00 4.1 C 5.76 g/m*3 4.1 C 4.8 km/h
1568 30-11-2013 02:50:00 4.1 C 5.7 g/m*3 4.1 C 3.2 km/h
1569 30-11-2013 02:55:00 4.1 C 5.7 g/m*3 2.55 C 6.4 km/h
1570 30-11-2013 03:00:00 4.1 C 5.7 g/m*3 4.1 C 3.2 km/h
1571 30-11-2013 03:05:00 4 C 5.66 g/m*3 4 C 4.8 km/h
1572 30-11-2013 03:10:00 3.9 C 5.62 g/m*3 3.9 C 3.2 km/h
1573 30-11-2013 03:15:00 3.8 C 5.65 g/m*3 3.8 C 3.2 km/h
1574 30-11-2013 03:20:00 3.6 C 5.57 g/m*3 3.6 C 3.2 km/h
1575 30-11-2013 03:25:00 3.4 C 5.5 g/m*3 3.4 C 3.2 km/h
Sensor: Nr:Datum:Temp:Abs-Feuchte:Windchill:Wind:
Aussen-T/F 1576 30-11-2013 03:30:00 3.2 C 5.48 g/m*3 3.2 C 3.2 km/h
1577 30-11-2013 03:35:00 3.1 C 5.45 g/m*3 3.1 C 4.8 km/h
1578 30-11-2013 03:40:00 2.9 C 5.43 g/m*3 2.9 C 1.6 km/h
1579 30-11-2013 03:45:00 2.8 C 5.4 g/m*3 2.8 C 1.6 km/h
1580 30-11-2013 03:50:00 2.8 C 5.4 g/m*3 2.8 C 1.6 km/h
1581 30-11-2013 03:55:00 2.8 C 5.4 g/m*3 2.8 C 4.8 km/h
1582 30-11-2013 04:00:00 2.8 C 5.46 g/m*3 2.8 C 1.6 km/h
1583 30-11-2013 04:05:00 2.9 C 5.49 g/m*3 2.9 C 4.8 km/h
1584 30-11-2013 04:10:00 3 C 5.53 g/m*3 3 C 1.6 km/h
1585 30-11-2013 04:15:00 3 C 5.53 g/m*3 3 C 3.2 km/h
1586 30-11-2013 04:20:00 3 C 5.47 g/m*3 3 C 3.2 km/h
1587 30-11-2013 04:25:00 3.1 C 5.51 g/m*3 3.1 C 3.2 km/h
1588 30-11-2013 04:30:00 3.1 C 5.51 g/m*3 3.1 C 3.2 km/h
1589 30-11-2013 04:35:00 3.1 C 5.45 g/m*3 3.1 C 3.2 km/h
1590 30-11-2013 04:40:00 2.9 C 5.37 g/m*3 2.9 C 4.8 km/h
1591 30-11-2013 04:45:00 2.8 C 5.34 g/m*3 2.8 C 0 km/h
1592 30-11-2013 04:50:00 2.6 C 5.32 g/m*3 2.6 C 3.2 km/h
1593 30-11-2013 04:55:00 2.6 C 5.38 g/m*3 2.6 C 3.2 km/h
1594 30-11-2013 05:00:00 2.6 C 5.38 g/m*3 2.6 C 4.8 km/h
1595 30-11-2013 05:05:00 2.6 C 5.38 g/m*3 2.6 C 3.2 km/h
1596 30-11-2013 05:10:00 2.6 C 5.38 g/m*3 2.6 C 4.8 km/h
1597 30-11-2013 05:15:00 2.6 C 5.38 g/m*3 2.6 C 3.2 km/h
1598 30-11-2013 05:20:00 2.7 C 5.42 g/m*3 2.7 C 3.2 km/h
1599 30-11-2013 05:25:00 2.7 C 5.42 g/m*3 2.7 C 3.2 km/h
1600 30-11-2013 05:30:00 2.9 C 5.49 g/m*3 2.9 C 3.2 km/h
Sensor: Nr:Datum:Temp:Abs-Feuchte:Windchill:Wind:
Aussen-T/F 1601 30-11-2013 05:35:00 3.1 C 5.51 g/m*3 0.46 C 9.7 km/h
1602 30-11-2013 05:40:00 3.2 C 5.48 g/m*3 3.2 C 4.8 km/h
1603 30-11-2013 05:45:00 3.3 C 5.52 g/m*3 1.63 C 6.4 km/h
1604 30-11-2013 05:50:00 3.3 C 5.52 g/m*3 3.3 C 4.8 km/h
1605 30-11-2013 05:55:00 3.3 C 5.52 g/m*3 3.3 C 4.8 km/h
1606 30-11-2013 06:00:00 3.3 C 5.52 g/m*3 3.3 C 4.8 km/h
1607 30-11-2013 06:05:00 3.3 C 5.46 g/m*3 3.3 C 4.8 km/h
1608 30-11-2013 06:10:00 3.3 C 5.52 g/m*3 3.3 C 3.2 km/h
1609 30-11-2013 06:15:00 3.3 C 5.52 g/m*3 3.3 C 3.2 km/h
1610 30-11-2013 06:20:00 3.3 C 5.52 g/m*3 3.3 C 0 km/h
1611 30-11-2013 06:25:00 3.3 C 5.52 g/m*3 3.3 C 4.8 km/h
1612 30-11-2013 06:30:00 3.3 C 5.52 g/m*3 3.3 C 3.2 km/h
1613 30-11-2013 06:35:00 3.3 C 5.52 g/m*3 3.3 C 3.2 km/h
1614 30-11-2013 06:40:00 3.3 C 5.52 g/m*3 3.3 C 3.2 km/h
1615 30-11-2013 06:45:00 3.3 C 5.52 g/m*3 3.3 C 4.8 km/h
1616 30-11-2013 06:50:00 3.3 C 5.52 g/m*3 3.3 C 3.2 km/h
1617 30-11-2013 06:55:00 3.4 C 5.56 g/m*3 1.75 C 6.4 km/h
1618 30-11-2013 07:00:00 3.4 C 5.56 g/m*3 3.4 C 3.2 km/h
1619 30-11-2013 07:05:00 3.5 C 5.6 g/m*3 3.5 C 4.8 km/h
1620 30-11-2013 07:10:00 3.5 C 5.6 g/m*3 1.86 C 6.4 km/h
1621 30-11-2013 07:15:00 3.5 C 5.6 g/m*3 1.34 C 8.1 km/h
1622 30-11-2013 07:20:00 3.5 C 5.66 g/m*3 3.5 C 0 km/h
1623 30-11-2013 07:25:00 3.5 C 5.66 g/m*3 3.5 C 4.8 km/h
1624 30-11-2013 07:30:00 3.5 C 5.66 g/m*3 3.5 C 4.8 km/h
1625 30-11-2013 07:35:00 3.5 C 5.72 g/m*3 3.5 C 1.6 km/h
Sensor: Nr:Datum:Temp:Abs-Feuchte:Windchill:Wind:
Aussen-T/F 1626 30-11-2013 07:40:00 3.4 C 5.68 g/m*3 1.75 C 6.4 km/h
1627 30-11-2013 07:45:00 3.4 C 5.68 g/m*3 3.4 C 4.8 km/h
1628 30-11-2013 07:50:00 3.4 C 5.68 g/m*3 3.4 C 4.8 km/h
1629 30-11-2013 07:55:00 3.4 C 5.74 g/m*3 3.4 C 3.2 km/h
1630 30-11-2013 08:00:00 3.4 C 5.68 g/m*3 1.75 C 6.4 km/h
1631 30-11-2013 08:05:00 3.4 C 5.68 g/m*3 1.75 C 6.4 km/h
1632 30-11-2013 08:10:00 3.3 C 5.64 g/m*3 3.3 C 4.8 km/h
1633 30-11-2013 08:15:00 3.4 C 5.74 g/m*3 3.4 C 1.6 km/h
1634 30-11-2013 08:20:00 3.4 C 5.74 g/m*3 3.4 C 1.6 km/h
1635 30-11-2013 08:25:00 3.3 C 5.7 g/m*3 3.3 C 4.8 km/h
1636 30-11-2013 08:30:00 3.3 C 5.7 g/m*3 3.3 C 0 km/h
1637 30-11-2013 08:35:00 3.3 C 5.7 g/m*3 3.3 C 4.8 km/h
1638 30-11-2013 08:40:00 3.4 C 5.8 g/m*3 3.4 C 1.6 km/h
1639 30-11-2013 08:45:00 3.4 C 5.8 g/m*3 3.4 C 4.8 km/h
1640 30-11-2013 08:50:00 3.4 C 5.74 g/m*3 3.4 C 1.6 km/h
1641 30-11-2013 08:55:00 3.4 C 5.74 g/m*3 1.75 C 6.4 km/h
1642 30-11-2013 09:00:00 3.4 C 5.74 g/m*3 3.4 C 0 km/h
1643 30-11-2013 09:05:00 3.4 C 5.74 g/m*3 3.4 C 3.2 km/h
1644 30-11-2013 09:10:00 3.4 C 5.8 g/m*3 3.4 C 1.6 km/h
1645 30-11-2013 09:15:00 3.6 C 5.88 g/m*3 3.6 C 0 km/h
1646 30-11-2013 09:20:00 3.6 C 5.88 g/m*3 3.6 C 3.2 km/h
1647 30-11-2013 09:25:00 3.7 C 5.92 g/m*3 3.7 C 3.2 km/h
1648 30-11-2013 09:30:00 3.8 C 5.96 g/m*3 3.8 C 4.8 km/h
1649 30-11-2013 09:35:00 3.8 C 5.96 g/m*3 2.21 C 6.4 km/h
1650 30-11-2013 09:40:00 3.8 C 5.9 g/m*3 2.21 C 6.4 km/h
Sensor: Nr:Datum:Temp:Abs-Feuchte:Windchill:Wind:
Aussen-T/F 1651 30-11-2013 09:45:00 3.9 C 5.94 g/m*3 3.9 C 3.2 km/h
1652 30-11-2013 09:50:00 3.9 C 5.87 g/m*3 3.9 C 4.8 km/h
1653 30-11-2013 09:55:00 3.9 C 5.94 g/m*3 3.9 C 1.6 km/h
1654 30-11-2013 10:00:00 3.9 C 5.94 g/m*3 3.9 C 1.6 km/h
1655 30-11-2013 10:05:00 4 C 5.98 g/m*3 4 C 3.2 km/h
1656 30-11-2013 10:10:00 3.9 C 5.94 g/m*3 3.9 C 4.8 km/h
1657 30-11-2013 10:15:00 4 C 5.98 g/m*3 4 C 0 km/h
1658 30-11-2013 10:20:00 4 C 5.98 g/m*3 4 C 4.8 km/h
1659 30-11-2013 10:25:00 4.1 C 6.02 g/m*3 4.1 C 1.6 km/h
1660 30-11-2013 10:30:00 4.1 C 6.02 g/m*3 4.1 C 3.2 km/h
1661 30-11-2013 10:35:00 4.2 C 6.06 g/m*3 4.2 C 3.2 km/h
1662 30-11-2013 10:40:00 4.2 C 6.06 g/m*3 4.2 C 3.2 km/h
1663 30-11-2013 10:45:00 4.2 C 6.06 g/m*3 4.2 C 4.8 km/h
1664 30-11-2013 10:50:00 4.3 C 6.1 g/m*3 4.3 C 1.6 km/h
1665 30-11-2013 10:55:00 4.3 C 6.03 g/m*3 4.3 C 3.2 km/h
1666 30-11-2013 11:00:00 4.4 C 6.07 g/m*3 4.4 C 1.6 km/h
1667 30-11-2013 11:05:00 4.4 C 6.07 g/m*3 4.4 C 3.2 km/h
1668 30-11-2013 11:10:00 4.4 C 6.07 g/m*3 4.4 C 0 km/h
1669 30-11-2013 11:15:00 4.6 C 6.15 g/m*3 4.6 C 0 km/h
1670 30-11-2013 11:20:00 4.6 C 6.22 g/m*3 4.6 C 0 km/h
1671 30-11-2013 11:25:00 4.7 C 6.26 g/m*3 4.7 C 1.6 km/h
1672 30-11-2013 11:30:00 4.8 C 6.24 g/m*3 4.8 C 3.2 km/h
1673 30-11-2013 11:35:00 4.8 C 6.24 g/m*3 4.8 C 1.6 km/h
1674 30-11-2013 11:40:00 4.9 C 6.28 g/m*3 4.9 C 3.2 km/h
1675 30-11-2013 11:45:00 5 C 6.32 g/m*3 5 C 3.2 km/h
Sensor: Nr:Datum:Temp:Abs-Feuchte:Windchill:Wind:
Aussen-T/F 1676 30-11-2013 11:50:00 5.1 C 6.29 g/m*3 5.1 C 3.2 km/h
1677 30-11-2013 11:55:00 5.1 C 6.29 g/m*3 5.1 C 1.6 km/h
1678 30-11-2013 12:00:00 5.2 C 6.4 g/m*3 5.2 C 3.2 km/h
1679 30-11-2013 12:05:00 5.2 C 6.4 g/m*3 5.2 C 3.2 km/h
1680 30-11-2013 12:10:00 5.2 C 6.33 g/m*3 5.2 C 4.8 km/h
1681 30-11-2013 12:15:00 5.2 C 6.33 g/m*3 5.2 C 3.2 km/h
1682 30-11-2013 12:20:00 5.2 C 6.33 g/m*3 5.2 C 3.2 km/h
1683 30-11-2013 12:25:00 5.2 C 6.33 g/m*3 5.2 C 3.2 km/h
1684 30-11-2013 12:30:00 5.2 C 6.4 g/m*3 5.2 C 3.2 km/h
1685 30-11-2013 12:35:00 5.3 C 6.45 g/m*3 5.3 C 4.8 km/h
1686 30-11-2013 12:40:00 5.3 C 6.38 g/m*3 5.3 C 4.8 km/h
1687 30-11-2013 12:45:00 5.3 C 6.38 g/m*3 5.3 C 0 km/h
1688 30-11-2013 12:50:00 5.3 C 6.38 g/m*3 5.3 C 3.2 km/h
1689 30-11-2013 12:55:00 5.3 C 6.38 g/m*3 5.3 C 3.2 km/h
1690 30-11-2013 13:00:00 5.4 C 6.42 g/m*3 5.4 C 3.2 km/h
1691 30-11-2013 13:05:00 5.4 C 6.49 g/m*3 5.4 C 1.6 km/h
1692 30-11-2013 13:10:00 5.5 C 6.46 g/m*3 5.5 C 4.8 km/h
1693 30-11-2013 13:15:00 5.6 C 6.5 g/m*3 5.6 C 3.2 km/h
1694 30-11-2013 13:20:00 5.6 C 6.5 g/m*3 5.6 C 3.2 km/h
1695 30-11-2013 13:25:00 5.7 C 6.55 g/m*3 4.4 C 6.4 km/h
1696 30-11-2013 13:30:00 5.7 C 6.55 g/m*3 5.7 C 0 km/h
1697 30-11-2013 13:35:00 5.7 C 6.62 g/m*3 5.7 C 0 km/h
1698 30-11-2013 13:40:00 5.7 C 6.62 g/m*3 5.7 C 1.6 km/h
1699 30-11-2013 13:45:00 5.7 C 6.62 g/m*3 5.7 C 0 km/h
1700 30-11-2013 13:50:00 5.7 C 6.69 g/m*3 5.7 C 0 km/h
Sensor: Nr:Datum:Temp:Abs-Feuchte:Windchill:Wind:
Aussen-T/F 1701 30-11-2013 13:55:00 5.7 C 6.69 g/m*3 5.7 C 0 km/h
1702 30-11-2013 14:00:00 5.7 C 6.69 g/m*3 5.7 C 0 km/h
1703 30-11-2013 14:05:00 5.7 C 6.69 g/m*3 5.7 C 3.2 km/h
1704 30-11-2013 14:10:00 5.7 C 6.69 g/m*3 5.7 C 3.2 km/h
1705 30-11-2013 14:15:00 5.8 C 6.81 g/m*3 5.8 C 1.6 km/h
1706 30-11-2013 14:20:00 5.8 C 6.81 g/m*3 5.8 C 0 km/h
1707 30-11-2013 14:25:00 5.8 C 6.73 g/m*3 5.8 C 0 km/h
1708 30-11-2013 14:30:00 5.8 C 6.73 g/m*3 5.8 C 0 km/h
1709 30-11-2013 14:35:00 5.8 C 6.81 g/m*3 5.8 C 0 km/h
1710 30-11-2013 14:40:00 5.9 C 6.85 g/m*3 5.9 C 0 km/h
1711 30-11-2013 14:45:00 6 C 6.9 g/m*3 6 C 0 km/h
1712 30-11-2013 14:50:00 6 C 6.9 g/m*3 6 C 0 km/h
1713 30-11-2013 14:55:00 6 C 6.9 g/m*3 6 C 3.2 km/h
1714 30-11-2013 15:00:00 5.9 C 6.85 g/m*3 5.9 C 0 km/h
1715 30-11-2013 15:05:00 6 C 6.9 g/m*3 6 C 1.6 km/h
1716 30-11-2013 15:10:00 6.1 C 6.94 g/m*3 6.1 C 0 km/h
1717 30-11-2013 15:15:00 6.1 C 6.94 g/m*3 6.1 C 0 km/h
1718 30-11-2013 15:20:00 6.1 C 7.01 g/m*3 6.1 C 0 km/h
1719 30-11-2013 15:25:00 6.2 C 7.06 g/m*3 6.2 C 0 km/h
1720 30-11-2013 15:30:00 6.2 C 7.06 g/m*3 6.2 C 1.6 km/h
1721 30-11-2013 15:35:00 6.2 C 6.99 g/m*3 6.2 C 3.2 km/h
1722 30-11-2013 15:40:00 6.2 C 6.99 g/m*3 6.2 C 1.6 km/h
1723 30-11-2013 15:45:00 6.2 C 6.99 g/m*3 6.2 C 0 km/h
1724 30-11-2013 15:50:00 6.2 C 6.99 g/m*3 6.2 C 0 km/h
1725 30-11-2013 15:55:00 6.1 C 7.01 g/m*3 6.1 C 0 km/h
Sensor: Nr:Datum:Temp:Abs-Feuchte:Windchill:Wind:
Aussen-T/F 1726 30-11-2013 16:00:00 6.1 C 7.01 g/m*3 6.1 C 0 km/h
1727 30-11-2013 16:05:00 6.1 C 7.01 g/m*3 6.1 C 1.6 km/h
1728 30-11-2013 16:10:00 6 C 6.97 g/m*3 6 C 1.6 km/h
1729 30-11-2013 16:15:00 5.9 C 6.92 g/m*3 5.9 C 3.2 km/h
1730 30-11-2013 16:20:00 5.9 C 6.92 g/m*3 5.9 C 0 km/h
1731 30-11-2013 16:25:00 5.9 C 6.92 g/m*3 5.9 C 1.6 km/h
1732 30-11-2013 16:30:00 5.9 C 6.92 g/m*3 5.9 C 1.6 km/h
1733 30-11-2013 16:35:00 5.9 C 6.92 g/m*3 5.9 C 0 km/h
1734 30-11-2013 16:40:00 5.8 C 6.88 g/m*3 5.8 C 0 km/h
1735 30-11-2013 16:45:00 5.8 C 6.88 g/m*3 5.8 C 3.2 km/h
1736 30-11-2013 16:50:00 5.8 C 6.88 g/m*3 5.8 C 3.2 km/h
1737 30-11-2013 16:55:00 5.8 C 6.88 g/m*3 5.8 C 1.6 km/h
1738 30-11-2013 17:00:00 5.8 C 6.88 g/m*3 5.8 C 0 km/h
1739 30-11-2013 17:05:00 5.8 C 6.88 g/m*3 5.8 C 1.6 km/h
1740 30-11-2013 17:10:00 5.7 C 6.83 g/m*3 5.7 C 0 km/h
1741 30-11-2013 17:15:00 5.7 C 6.83 g/m*3 5.7 C 0 km/h
1742 30-11-2013 17:20:00 5.7 C 6.83 g/m*3 5.7 C 0 km/h
1743 30-11-2013 17:25:00 5.7 C 6.83 g/m*3 5.7 C 0 km/h
1744 30-11-2013 17:30:00 5.7 C 6.83 g/m*3 5.7 C 3.2 km/h
1745 30-11-2013 17:35:00 5.7 C 6.83 g/m*3 5.7 C 0 km/h
1746 30-11-2013 17:40:00 5.7 C 6.83 g/m*3 5.7 C 0 km/h
1747 30-11-2013 17:45:00 5.6 C 6.79 g/m*3 5.6 C 1.6 km/h
1748 30-11-2013 17:50:00 5.6 C 6.79 g/m*3 5.6 C 0 km/h
1749 30-11-2013 17:55:00 5.6 C 6.79 g/m*3 5.6 C 3.2 km/h
1750 30-11-2013 18:00:00 5.6 C 6.79 g/m*3 5.6 C 1.6 km/h
Sensor: Nr:Datum:Temp:Abs-Feuchte:Windchill:Wind:
Aussen-T/F 1751 30-11-2013 18:05:00 5.6 C 6.79 g/m*3 5.6 C 0 km/h
1752 30-11-2013 18:10:00 5.5 C 6.74 g/m*3 5.5 C 0 km/h
1753 30-11-2013 18:15:00 5.5 C 6.74 g/m*3 5.5 C 3.2 km/h
1754 30-11-2013 18:20:00 5.4 C 6.7 g/m*3 5.4 C 3.2 km/h
1755 30-11-2013 18:25:00 5.4 C 6.7 g/m*3 5.4 C 1.6 km/h
1756 30-11-2013 18:30:00 5.4 C 6.7 g/m*3 5.4 C 3.2 km/h
1757 30-11-2013 18:35:00 5.4 C 6.7 g/m*3 5.4 C 1.6 km/h
1758 30-11-2013 18:40:00 5.4 C 6.7 g/m*3 5.4 C 0 km/h
1759 30-11-2013 18:45:00 5.4 C 6.7 g/m*3 5.4 C 0 km/h
1760 30-11-2013 18:50:00 5.3 C 6.65 g/m*3 5.3 C 0 km/h
1761 30-11-2013 18:55:00 5.3 C 6.65 g/m*3 5.3 C 3.2 km/h
1762 30-11-2013 19:00:00 5.3 C 6.65 g/m*3 5.3 C 3.2 km/h
1763 30-11-2013 19:05:00 5.3 C 6.65 g/m*3 5.3 C 3.2 km/h
1764 30-11-2013 19:10:00 5.3 C 6.65 g/m*3 5.3 C 0 km/h
1765 30-11-2013 19:15:00 5.3 C 6.65 g/m*3 5.3 C 3.2 km/h
1766 30-11-2013 19:20:00 5.3 C 6.65 g/m*3 5.3 C 4.8 km/h
1767 30-11-2013 19:25:00 5.3 C 6.65 g/m*3 5.3 C 3.2 km/h
1768 30-11-2013 19:30:00 5.3 C 6.65 g/m*3 5.3 C 3.2 km/h
1769 30-11-2013 19:35:00 5.3 C 6.65 g/m*3 5.3 C 1.6 km/h
1770 30-11-2013 19:40:00 5.2 C 6.61 g/m*3 5.2 C 3.2 km/h
1771 30-11-2013 19:45:00 5.2 C 6.61 g/m*3 5.2 C 0 km/h
1772 30-11-2013 19:50:00 5.1 C 6.57 g/m*3 5.1 C 0 km/h
1773 30-11-2013 19:55:00 5.1 C 6.57 g/m*3 5.1 C 0 km/h
1774 30-11-2013 20:00:00 5 C 6.52 g/m*3 5 C 0 km/h
1775 30-11-2013 20:05:00 4.9 C 6.48 g/m*3 4.9 C 1.6 km/h
Sensor: Nr:Datum:Temp:Abs-Feuchte:Windchill:Wind:
Aussen-T/F 1776 30-11-2013 20:10:00 4.8 C 6.44 g/m*3 4.8 C 1.6 km/h
1777 30-11-2013 20:15:00 4.7 C 6.33 g/m*3 4.7 C 1.6 km/h
1778 30-11-2013 20:20:00 4.5 C 6.24 g/m*3 4.5 C 1.6 km/h
1779 30-11-2013 20:25:00 4.3 C 6.16 g/m*3 4.3 C 3.2 km/h
1780 30-11-2013 20:30:00 4.1 C 6.08 g/m*3 4.1 C 3.2 km/h
1781 30-11-2013 20:35:00 4 C 6.04 g/m*3 4 C 1.6 km/h
1782 30-11-2013 20:40:00 3.9 C 6 g/m*3 3.9 C 3.2 km/h
1783 30-11-2013 20:45:00 3.8 C 5.96 g/m*3 3.8 C 3.2 km/h
1784 30-11-2013 20:50:00 3.8 C 5.96 g/m*3 3.8 C 1.6 km/h
1785 30-11-2013 20:55:00 3.7 C 5.98 g/m*3 3.7 C 3.2 km/h
1786 30-11-2013 21:00:00 3.7 C 5.98 g/m*3 3.7 C 3.2 km/h
1787 30-11-2013 21:05:00 3.6 C 5.94 g/m*3 3.6 C 0 km/h
1788 30-11-2013 21:10:00 3.5 C 5.9 g/m*3 3.5 C 0 km/h
1789 30-11-2013 21:15:00 3.6 C 5.94 g/m*3 3.6 C 0 km/h
1790 30-11-2013 21:20:00 3.6 C 5.94 g/m*3 3.6 C 0 km/h
1791 30-11-2013 21:25:00 3.6 C 5.94 g/m*3 3.6 C 0 km/h
1792 30-11-2013 21:30:00 3.6 C 5.94 g/m*3 3.6 C 0 km/h
1793 30-11-2013 21:35:00 3.4 C 5.86 g/m*3 3.4 C 0 km/h
1794 30-11-2013 21:40:00 3.3 C 5.82 g/m*3 3.3 C 0 km/h
1795 30-11-2013 21:45:00 3.3 C 5.82 g/m*3 3.3 C 0 km/h
1796 30-11-2013 21:50:00 3.3 C 5.82 g/m*3 3.3 C 0 km/h
1797 30-11-2013 21:55:00 3.3 C 5.82 g/m*3 3.3 C 0 km/h
1798 30-11-2013 22:00:00 3.4 C 5.92 g/m*3 3.4 C 0 km/h
1799 30-11-2013 22:05:00 3.4 C 5.92 g/m*3 3.4 C 0 km/h
1800 30-11-2013 22:10:00 3.5 C 5.96 g/m*3 3.5 C 0 km/h
Sensor: Nr:Datum:Temp:Abs-Feuchte:Windchill:Wind:
Aussen-T/F 1801 30-11-2013 22:15:00 3.5 C 5.96 g/m*3 3.5 C 0 km/h
1802 30-11-2013 22:20:00 3.5 C 5.96 g/m*3 3.5 C 0 km/h
1803 30-11-2013 22:25:00 3.6 C 6 g/m*3 3.6 C 0 km/h
1804 30-11-2013 22:30:00 3.6 C 6 g/m*3 3.6 C 0 km/h
1805 30-11-2013 22:35:00 3.6 C 6 g/m*3 3.6 C 0 km/h
1806 30-11-2013 22:40:00 3.6 C 6 g/m*3 3.6 C 0 km/h
1807 30-11-2013 22:45:00 3.6 C 6 g/m*3 3.6 C 0 km/h
1808 30-11-2013 22:50:00 3.6 C 6 g/m*3 3.6 C 0 km/h
1809 30-11-2013 22:55:00 3.7 C 6.04 g/m*3 3.7 C 0 km/h
1810 30-11-2013 23:00:00 3.7 C 6.04 g/m*3 3.7 C 0 km/h
1811 30-11-2013 23:05:00 3.7 C 6.04 g/m*3 3.7 C 0 km/h
1812 30-11-2013 23:10:00 3.7 C 6.04 g/m*3 3.7 C 0 km/h
1813 30-11-2013 23:15:00 3.7 C 6.04 g/m*3 3.7 C 0 km/h
1814 30-11-2013 23:20:00 3.7 C 6.04 g/m*3 3.7 C 0 km/h
1815 30-11-2013 23:25:00 3.7 C 6.04 g/m*3 3.7 C 0 km/h
1816 30-11-2013 23:30:00 3.8 C 6.09 g/m*3 3.8 C 0 km/h
1817 30-11-2013 23:35:00 3.8 C 6.09 g/m*3 3.8 C 3.2 km/h
1818 30-11-2013 23:40:00 3.8 C 6.09 g/m*3 3.8 C 1.6 km/h
1819 30-11-2013 23:45:00 3.8 C 6.09 g/m*3 3.8 C 0 km/h
1820 30-11-2013 23:50:00 3.8 C 6.09 g/m*3 3.8 C 0 km/h
1821 30-11-2013 23:55:00 3.8 C 6.09 g/m*3 3.8 C 0 km/h

Legende:
   Min
   Max


Maximal/Minimal-Werte vom 24.11.2013 - 30.11.2013

Sensor Min Max Avg
Temp
(Aussen-T/F)
-0.8 °C
26-11-2013  05:40:00
7.3 °C
29-11-2013  18:10:00
3.24 °C
Abs-Feuchte
(Aussen-T/F)
4.35 g/m*3
27-11-2013  07:30:00
7.14 g/m*3
29-11-2013  19:05:00
5.64 g/m*3
Windchill
(Aussen-T/F)
-3 C
26-11-2013  09:35:00
6.9 C
29-11-2013  15:35:00
2.82 C

Die Daten stammen von einer Davis Vantage Pro 2 Wetter-Station und werden unter Linux mit der Software wview2wettercgi und aufbereitet. Alle Angaben erfolgen ohne Gewähr für ihre Vollständigkeit oder Richtigkeit.
Kontakt: Rainer Krienke krienke@uni-koblenz.de . Meine Webseiten an der Uni Koblenz oder privat.
Version: $Revision: 0.78 $